Bharatpur
S.No. Kiosk Code Kiosk Name LSP Address Ph. No. Credit Limit Remaining Limit Active / Deactive Creation Date Deactivation Date Prepaid Limit Virtual Limit
1 501 CSC Gopalgarh CSC Vakrangee Bharatpur Rural Village Gopalgarh  Block NAGAR  District BHARATPUR   9983757532  113  600  Active  10-10-2012    0.00 
2 741 CSC Bansi Khurd_WRS 2014-Aksh-BHARATPUR Village - Bansi Khurd Block - Bansi Khurd Dist. - Bharatpur  9461490904  56  Active  07-08-2014    1.49  37.62 
3 742 CSC Seekri Chak No.1_WRS 2014-Aksh-BHARATPUR Village - Seekri Chak No. 1 Block - Nagar Dist. - Bharatpur  9828104120  39  Active  07-08-2014    2423.87  0.00 
4 743 CSC Karhi_WRS 2014-Aksh-BHARATPUR Village - Karhi Block - Karhi Dist. - Bharatpur  9461694089  98  Active  07-08-2014    891.25  351.38 
5 744 Vinod Kumar Sharma 2014-Aksh-BHARATPUR chudi market town nagar   Dist. - Bharatpur  9694431183  3781  Active  07-08-2014    65.76  69.86 
6 747 CSC Khera_WRS 2014-Aksh-BHARATPUR Village - Khera Block - Nadbai Dist. - Bharatpur  9057975797  10  Active  07-08-2014    81.99  9.51 
7 748 CSC Janoothar_WRS 2014-Aksh-BHARATPUR Village - Janoothar Block - Deeg Dist. Bharatpur  9602813066  165  Active  07-08-2014    8.41  644.75 
8 752 Ravindra Kumar Sharma 2014-Aksh-BHARATPUR Near Khadi Vastra Bhandar   8696844133  736  Active  07-08-2014    575.04  0.00 
9 753 CSC Siras_WRS 2014-Aksh-BHARATPUR Village - Siras Block - Weir Dist. - Bharatpur  7732872541  22  Active  07-08-2014    10.5  718.46 
10 788 Ravi Saini 2014-Aksh-BHARATPUR Near Buis Stand Rarah Tehsil Kumher Dist. Bharatpur  9785056392  236  Active  21-08-2014    44.46  165.26 
11 791 Mahendra Kumar 2014-Aksh-BHARATPUR Court Campus Tehsil, Bayana Dist. - Bharatpur  9461100334  1601  Active  21-08-2014    3112.16  4887.33 
12 797 Pavnesh Kumar 2014-Aksh-BHARATPUR Near PNB bank Khanua Teh. Rupwas Dist. Bharatpur  9928771440  942  Active  21-08-2014    7291.84  24.52 
13 807 Dinesh Kumar Sharma 2014-Aksh-BHARATPUR Shyam Nagar  Colony Behind Central School Bharatpur  7790898199  1721  Active  22-08-2014    1192.59  189.08 
14 810 Nateen Singh 2014-Aksh-BHARATPUR Main Market Old Post  Office Pahari Tehsil  Disst. - Bharatpur  9783715200  12  Active  23-08-2014    5877.45  55.42 
15 811 Laxmi Narayan 2014-Aksh-BHARATPUR 760 Kalakar Mohalla Jurahra Tehsil Kaman Disst. - Bharatpur  9982906461  3301  Active  23-08-2014    17914.99  209.96 
16 816 Ghanshyam Saini 2014-Aksh-BHARATPUR Main Market Sikri Tehisl - Nagar Disst. - Bharatpur  9785508730  39284  Active  27-08-2014    2.69  1525.22 
17 817 Sher Singh 2014-Aksh-BHARATPUR Hospital Ke Pass Uchchain Road Sear Bharatpur  9828607228  6406  Active  27-08-2014    1082.69  1265.09 
18 818 Rakesh Kumar Sharma 2014-Aksh-BHARATPUR Prince Attachi House Deewan Mohalla  Kaman Bharatpur  9529480001  10000  276  Active  27-08-2014    532.44  424.52 
19 819 Ashok Kumar 2014-Aksh-BHARATPUR VPO Bidyari  Tehsil 0 Bayana Bharatpur  9351939397  24  Active  27-08-2014    63.09  21.20 
20 855 Kamlesh Prasad Sharma 2014-Aksh-BHARATPUR Reliance Medicals Goal Baug road Bharatpur  8104525131  Active  08-09-2014    76.28  718.73 
21 856 Fatte Krishna Gaur 2014-Aksh-BHARATPUR Bus Stand Jurhere  Tehsil - Kaman Disst. - Bharatpur  9649340809  1509  Active  08-09-2014    39.37  28.50 
22 865 Nakul Raj 2014-Aksh-BHARATPUR Single Window E Sugam Kumher  Dist. Jaipur  9785037811  2190  Active  11-09-2014    3000.42  8342.36 
23 866 Vishnu Kumar Sharma 2014-Aksh-BHARATPUR Single Window E Sugam tehsil bayana Dist. - Bharatpur  7877699329  Active  11-09-2014    0.00 
24 895 Meena Devi 2014-Aksh-BHARATPUR Near Court  Deeg Bharatpur  9414584015  10000  2086  Active  16-09-2014    .83  3947.28 
25 897 Mayuri emitra 2014-Aksh-BHARATPUR opposite govt.  hospital weir Bharatpur  9928585402  307  Active  16-09-2014    442.19  2440.17 
26 898 Mina Devi 2014-Aksh-BHARATPUR BNRGSK Panchayat Samiti DeeG Bharatpur  9829333108  1613  Active  16-09-2014    .88  5482.00 
27 899 Sachin Khandelwal 2014-Aksh-BHARATPUR Near Devi Ram Kachori wala Choburja Market Bharatpur  9461695960  1813  Active  16-09-2014    .38  2020.48 
28 901 Santosh Kumar 2014-Aksh-BHARATPUR Surajmal Nagar Near Center School Bharatpur  9887112441  40000  24189  Active  17-09-2014    5880.9  168.82 
29 919 KRISHNA KANT 2014-Aksh-BHARATPUR Ram Nagar Colony Bhartpur   7792001955  20  Active  19-09-2014    305.85  43.74 
30 932 Zuber Khan 2014-Aksh-BHARATPUR Cheetha Wali Gali Chaburja Bazar Bharatpur  9462484927  22700  Active  25-09-2014    .21  3658.91 
31 933 Ashok Kumar 2014-Aksh-BHARATPUR Mastana Music Center Old Post Office  Bharatpur  9887102523  1187  Active  25-09-2014    6676.27  5.58 
32 934 Vinita 2014-Aksh-BHARATPUR Khaluja Hospital Ke pass Jawahar Nagar Bharatpur  7597156959  114  Active  25-09-2014    86.47  6.72 
33 966 Gulap Khandelwal 2014-Aksh-BHARATPUR Peer Mohalla  kaman Bharatpur  05640250100  40000  3794  Active  09-10-2014    .66  1275.58 
34 982 Manoj sharma 2014-Aksh-BHARATPUR Peer mohalla ward no 17 Kama Kaman Bharatpur  05640-251101  1736  Active  13-10-2014    30.31  201.01 
35 999 SUNIL KUMAR 2014-Aksh-BHARATPUR A32 JAWAHAR NAGAR  BHARATPUR   9414303388  1860  Active  22-10-2014    .01  564.69 
36 1000 ABHAY KUMAR JAIN 2014-Aksh-BHARATPUR INFRONT OF COURT BKAMAN  BHARATPUR   9875000161  4275  Active  22-10-2014    5000.88  187.06 
37 1002 Vishnu Kumar 2014-Aksh-BHARATPUR Tehsil Campus Bayana  Bharatpur   9672086606  41  Active  27-10-2014    167.2  0.00 
38 1003 Suresh Sharma 2014-Aksh-BHARATPUR Tehsil Parisar  Kaman Bharatpur  9413672361  2457  Active  27-10-2014    .92  333.22 
39 1004 RITESH GARG 2014-Aksh-BHARATPUR Teshsil Campus Weir    9509489583  1634  Active  27-10-2014    192.2  2365.81 
40 1005 Surendra Sharma 2014-Aksh-BHARATPUR Tehsil- Bhusawar Bharatpur- 321406   05643271000  1763  Active  27-10-2014    .15  3655.23 
41 1006 MEENA DEVI 2014-Aksh-BHARATPUR Tehsil Campus Deeg   8058565580  Active  27-10-2014    2724.07  0.00 
42 1008 Deepak Kumar Jain 2014-Aksh-BHARATPUR Tehsil Office Bharatpur    9929929920  12257  Active  27-10-2014    2702.29  5447.78 
43 1029 Jitendra Kumar 2014-Aksh-BHARATPUR near bank of baroda  bayana Bharatpur  9783283874  103  Active  03-11-2014    .01  72.25 
44 1030 Amit Sharma 2014-Aksh-BHARATPUR Near Railway Station Bharatpur   9461582799  90000  61034  Active  03-11-2014    38.93  6584.40 
45 1031 Gaurav Sharma 2014-Aksh-BHARATPUR New Santan Dharam  Market Bharatpur  9414375500  40000  25532  Active  03-11-2014    .89  1194.83 
46 1038 Dharam Chand 2014-Aksh-BHARATPUR OLD PAHADI ROAD BILOD STAND KAMAN BHARATPUR    9950659910  2356  Active  06-11-2014    27.59  754.85 
47 1046 Sanjeev Kumar Sharma 2014-Aksh-BHARATPUR MUDGAL DIGITAL STUDIO NEW MANDI BHARATPUR    9166944376  42  Active  20-11-2014    .69  53.30 
48 1048 Purshottam 2014-Aksh-BHARATPUR NEAR PANCHAYAT SAMITI ROOPWAS DIST BHARATPUR RAJASTHAN    8058252616  36330  Active  20-11-2014    26917.14  6875.03 
49 1052 Dinesh Kumar Sharma 2014-Aksh-BHARATPUR JAIN MANDIR SE SAMNE PAHADI DIST BHARATPUR    9610107548  8886  Active  21-11-2014    5.24  126.62 
50 1073 Ram Kunwar 2014-Aksh-BHARATPUR MAIN MARKET SATAVADI DIST BHARATPUR RAJASTHAN    9001660241  3892  Active  26-11-2014    38156.3  106.45 
51 1075 Mayank Jain 2014-Aksh-BHARATPUR NEAR JAIN MANDIR SEWAR ROAD BHARATPUR RAJASTHAN    9166772669  1856  Active  27-11-2014    .99  1725.41 
52 1079 Aksh Optifibre 2014-Aksh-BHARATPUR Room No.55  Dist. collectrate  Bharatpur  9414059654  175  Active  27-11-2014    .29  1587.22 
53 1081 Dharmveer Singh 2014-Aksh-BHARATPUR In front of Santoshi Temple Surajpole Gate Bharatpur  9529040674  10000  21976  Active  27-11-2014    .31  5308.05 
54 1082 Aksh Rajeev Gandhi Seva Kendra Bharatpur 2014-Aksh-BHARATPUR Bharat Nirmaan Rajeev Gandhi Seva Kendra Bharatpur   9414059654  20000  78  Active  27-11-2014    .29  1620.21 
55 1092 Jyoti Sharma 2014-Aksh-BHARATPUR TEHSIL NADBAI BHARATPUR    9024903752  452  Active  01-12-2014    2500.37  5307.16 
56 1093 Parwesh Kumar 2014-Aksh-BHARATPUR SHOP NO 1 PNB ATM KE UPAR JAWAHAR NAGAR CIRCLE BHARATPUR RAJASTHAN    8890458315  126  Active  01-12-2014    2.87  0.43 
57 1094 Rajeswari Devi 2014-Aksh-BHARATPUR MAIN MARKET UCHCHAIN TEH ROOPWAS DIST BHARATPUR RAJASTHAN    9887433476  1019  Active  01-12-2014    .41  490.13 
58 1095 Ghanshyam Singhal 2014-Aksh-BHARATPUR BAPU MARKET NAGAT DIST BHARATPUR RAJASTHAN    9983956579  2951  Active  01-12-2014    1.29  228.17 
59 1097 Umesh Tiwari 2014-Aksh-BHARATPUR MURWARA ROAD SUBHASH NAGAR BHARATPUR RAJASTHAN    9413300272  484  Active  01-12-2014    .22  604.88 
60 1098 Vineet Kumar 2014-Aksh-BHARATPUR BIHARI GALI RUDAWAL DIST BHARATPUR RAJASTHAN    9649013300  4753  Active  02-12-2014    .09  575.05 
61 1099 Parul 2014-Aksh-BHARATPUR KARTAR COLONY NEAR NEW TEHSIL KAMAN BHARATPUR RAJASTHAN    7597755001  Active  02-12-2014    538.25  479.45 
62 1105 Aksh Optifibre Limited 2014-Aksh-BHARATPUR BNSK HQ TEHSIL ROOPWAS DISTRICT BHARATPUR     9694420125  1307  Active  05-12-2014    2.97  904.71 
63 1112 Mohit Kumar Gupta 2014-Aksh-BHARATPUR 122 RAJENDRA NAGAR BHARATPUR RAJASTHAN    9414692950  153  Active  11-12-2014    82.61  678.02 
64 1113 Durga Prasad 2014-Aksh-BHARATPUR RADHA COLONY, NEAR RADHA BALLABH TEMPLE  KAMAN, BHARATPUR undefined  9829121852  725  Active  11-12-2014    141.48  26.13 
65 1121 Hemant Kumar Garg 2014-Aksh-BHARATPUR SHOP N0 97 NEAR OLD COLLECTARY BHARATPUR    9782505764  4351  Active  17-12-2014    .19  1123.10 
66 1131 Naeem Khan 2014-Aksh-BHARATPUR ANAND NAGAR COLONY BHARATPUR RAJASTHAN    9694946814  4395  Active  19-12-2014    72  771.51 
67 1141 Lekhraj Bhardwaj 2014-Aksh-BHARATPUR Kaliki Bageechi Bharatpur Rajasthan-321001   9875228260  40000  40000  Active  22-12-2014    88.88  32.40 
68 1142 Anil Kumar jindal 2014-Aksh-BHARATPUR In front of Sindhi dharmashala Gate Road  Bharatpur  9694139121  240000  48549  Active  22-12-2014    890.6  2636.19 
69 1143 Dilip Kumar Pahadia 2014-Aksh-BHARATPUR Old Anaj Mandi Bhusawar Bharatpur  9875057615  90000  1810  Active  22-12-2014    430.95  629.74 
70 1145 Rama eMitra Centre 2014-Aksh-BHARATPUR Basan Gate Chouraha Bharatpur   9667621874  120000  38312  Active  22-12-2014    .36  10007.20 
71 1146 Gurumeet eMitra 2014-Aksh-BHARATPUR Bizli Ghar Collectrate Road  Bharatpur  05644220610  40000  8791  Active  22-12-2014    76.99  14142.77 
72 1147 Aditiya emitra kiosk 2014-Aksh-BHARATPUR Near Devi Temple Ranjeet Nagar Bharatpur  05644236851  40000  9628  Active  22-12-2014    206.61  5893.61 
73 1148 Jeetendra Emitra Center 2014-Aksh-BHARATPUR Golpura Road, Subhash nagar behind central bus stand Bharatpur  9414893789  90000  31606  Active  22-12-2014    16108  1175.94 
74 1150 Lokesh Sharma 2014-Aksh-BHARATPUR Infront of RTO Office Anah Bharatpur  9887959411  90000  4866  Active  22-12-2014    580.82  750.68 
75 1152 Manish emitra Center 2014-Aksh-BHARATPUR Manish emitra center Mahal khas road kila  Bharatpur  9982920850  50000  22590  Active  22-12-2014    1547.37  3154.31 
76 1153 Manoj Chahar 2014-Aksh-BHARATPUR Infornt of MSJ College 23-Geeta Colony  Bharatpur  9680838811  50000  29395  Active  22-12-2014    .52  3470.74 
77 1154 Manoj Khandelwal 2014-Aksh-BHARATPUR Near Kiran Niwas home ke  goverdhan gate  Bharatpur  9783001714  40000  6392  Active  22-12-2014    5896.85  4169.60 
78 1155 Manoj emitra Center 2014-Aksh-BHARATPUR Pratap colony Kumer gate Bharatpur  8058079654  660  Active  22-12-2014    38.7  13.69 
79 1156 Mohit Khandelwal 2014-Aksh-BHARATPUR Chhote Ramji ke samne Kumher  Bharatpur  8875075750  2562  Active  22-12-2014    18.78  1159.69 
80 1157 Narendra kumar Jindal 2014-Aksh-BHARATPUR Behind of ganga Mandir Chohara near Budh ki hat Bharatpur  9414344163  140000  4285  Active  22-12-2014    416.53  828.69 
81 1158 Paritosh 2014-Aksh-BHARATPUR 28, shoping center  Krishna Nagar Bharatpur  9828102544  10000  4974  Active  22-12-2014    638.24  95.06 
82 1160 Vinay Goyal 2014-Aksh-BHARATPUR Kumher Road Bus Stand ke Samne katra Nadbai Bharatpur  9785615572  90000  1031  Active  22-12-2014    20  247.64 
83 1161 Atul Emitra 2014-Aksh-BHARATPUR Gandhi Chowk  Bayana Bharatpur  9414485885  40000  572  Active  22-12-2014    .62  382.65 
84 1162 Banvari Shrama Emitra Bayana 2014-Aksh-BHARATPUR Cachari Road  Bayana Bharatpur  9887241956  7033  Active  22-12-2014    209.17  2014.65 
85 1163 Bhoodev Goyal Emitra Center Nadbai 2014-Aksh-BHARATPUR Near APS School ware House Road nadbai Bharatpur  9024920267  40000  2402  Active  22-12-2014    .69  182.91 
86 1164 Chandra Shekhar Sharma 2014-Aksh-BHARATPUR Near Panchayat Samiti  Sewar Bharatpur  9782565377  30000  3124  Active  22-12-2014    240.4  555.33 
87 1165 Mukesh emitra Center 2014-Aksh-BHARATPUR Near Ghanta Ghar Deeg Bharatpur  9414870877  40000  1555  Active  22-12-2014    73.96  1335.14 
88 1167 Nidhi eMitra Center 2014-Aksh-BHARATPUR Krishna Nagar Bharatpur   9828265217  40000  30553  Active  22-12-2014    68.91  1422.25 
89 1169 Rohit eMitra Center 2014-Aksh-BHARATPUR Arya Samaj Road Bharatpur   9252066443  40000  871  Active  22-12-2014    80.43  687.14 
90 1170 Chankee Arora 2014-Aksh-BHARATPUR Ridhi Sidhi complex infront of thana  Nadbai Bharatpur  9166437449  1789  Active  22-12-2014    19.61  515.06 
91 1172 Deepak Emitra Center 2014-Aksh-BHARATPUR Tehsil parisar ke andar Nagar Bharatpur  9887835434  1650  Active  22-12-2014    12.53  1062.87 
92 1173 Suresh Sharma emitra Center 2014-Aksh-BHARATPUR Near New Tehsil Kaman Bharatpur   9413672361  580  Active  22-12-2014    1123.58  5599.87 
93 1174 Mahesh Sharma 2014-Aksh-BHARATPUR New Road  Deeg Bharatpur  05641220820  90000  6630  Active  22-12-2014    .12  1269.82 
94 1177 Yatendra Kumar 2014-Aksh-BHARATPUR Nomish Road Bharatpur   9667179064  60000  61118  Active  22-12-2014    6.99  71.99 
95 1178 Deepak Gupta 2014-Aksh-BHARATPUR Middle School Ki Gali Deeg Bharatpur  9887228511  2305  Active  22-12-2014    .5  889.85 
96 1179 Pramod Singh 2014-Aksh-BHARATPUR Near Saini Mishtan Bhandar Bus stand, Bharatpur   9887764466  90000  23  Active  22-12-2014    .96  156.23 
97 1180 Lalit Khatri 2014-Aksh-BHARATPUR Near Shamshan Ghat Subhash Colony Bharatpur  9413303004  10800  Active  22-12-2014    55.87  916.06 
98 1181 Pankaj Jain 2014-Aksh-BHARATPUR Jain Computers Katra Nadbai Bharatpur  05643276714  40000  2377  Active  22-12-2014    71.17  1328.59 
99 1182 Rachna Sharma 2014-Aksh-BHARATPUR Anah Gate Bajariya Bharatpur   9785099684  30000  915  Active  22-12-2014    .51  579.96 
100 1183 MOHAN LAL GUPTA 2014-Aksh-BHARATPUR MELA GROUND NAGAR NAGAR, BHARATPUR  9928352201  40000  19800  Active  22-12-2014    13940.35  5.07 
101 1185 Deepak Verma 2014-Aksh-BHARATPUR Near P N B Bank Kumher Bharatpur  9887512513  15000  268  Active  22-12-2014    127.12  702.75 
102 1186 Madan Mohan 2014-Aksh-BHARATPUR New Bust Stand Weir Bharatpur   9468664073  15000  33  Active  22-12-2014    27610.91  1787.68 
103 1187 Rakesh Sharma 2014-Aksh-BHARATPUR Madarpur Road Infront of Podar Kothi Bharatpur   9887353542  90000  1584  Active  22-12-2014    .49  1640.83 
104 1188 Neeraj 2014-Aksh-BHARATPUR Super Market  GPF Office Ke Samne Bharatpur  9680702196  40000  28  Active  22-12-2014    .7  472.50 
105 1189 Deepak Raj 2014-Aksh-BHARATPUR 109 Sewar Bazar Sewar Bharatpur  9928328689  10000  25577  Active  22-12-2014    .82  947.22 
106 1191 Pooja Khandelwal 2014-Aksh-BHARATPUR B 4 Jawahar Nagar Bharatpur   05644220008  324  Active  22-12-2014    .12  1254.57 
107 1192 Rupesh Kumar 2014-Aksh-BHARATPUR Ram Singh Ka Nagla Bajariya Bharatpur  9785362498  5000  5915  Active  22-12-2014    12.06  560.13 
108 1194 Manoj Kumar 2014-Aksh-BHARATPUR Saharai Road Deeg Bharatpur  9983406728  1979  Active  22-12-2014    69.54  801.23 
109 1195 Ravi Shankar Sharma 2014-Aksh-BHARATPUR Goverdhan Road Deeg Bharatpur  8058568722  10000  924  Active  22-12-2014    .95  729.43 
110 1196 Veerendra Singh 2014-Aksh-BHARATPUR Near S.P. Office Bharatpur   9887002112  420  Active  22-12-2014    .6  524.26 
111 1197 Ritvis Cyber World 2014-Aksh-BHARATPUR 475 SPM Nagar Bharatpur   9784648494  34  Active  22-12-2014    66.88 
112 1199 Sudhir Kumar Sharma 2014-Aksh-BHARATPUR BNRGSK Panchayat Samiti Nadwai  9887982284  419  Active  22-12-2014    11804.63  2919.18 
113 1201 Hitesh Kumar 2014-Aksh-BHARATPUR BNRGSK Panchayat Samiti Kaman  9887242675  15000  1296  Active  22-12-2014    10120.24  2457.73 
114 1202 Honey Saraswat 2014-Aksh-BHARATPUR BNRGSK Panchayat Smiti Bayana  9414942200  1943  Active  22-12-2014    19.6  13877.07 
115 1203 Manvendra 2014-Aksh-BHARATPUR 36, Shopping Center Krishna Nagar Bharatpur   9799348952  1411  Active  22-12-2014    26.12  3395.64 
116 1204 Pankaj Yadav 2014-Aksh-BHARATPUR Near Suraj Pole Gate Gopal Garh Bharatpur   9782597856  13298  Active  22-12-2014    185.26  379.14 
117 1207 Rajendra Goyal 2014-Aksh-BHARATPUR Near Power House Bharatpur   9530445152  952  Active  22-12-2014    .92  4165.51 
118 1208 Pradeep Kaushik 2014-Aksh-BHARATPUR Nabab Gali Mathura Gate Bharatpur   9413304237  471  Active  22-12-2014    103.27  58.32 
119 1210 Dinesh Kumar Goyal 2014-Aksh-BHARATPUR Sadar Bazar Kaman  Bharatpur   9351721784  839  Active  22-12-2014    2000.32  1150.62 
120 1211 Ravi Prakash 2014-Aksh-BHARATPUR Old Sabji Mandi Near Main Post Office Bayana Bharatpur  9460174979  2494  Active  22-12-2014    17.2  751.04 
121 1212 Sushil Shukla 2014-Aksh-BHARATPUR A-12 Ranjeet Nagar Bharatpur   9460012395  2170  Active  22-12-2014    4450.39  596.59 
122 1213 Hirendra Kumar 2014-Aksh-BHARATPUR Near S.B.I. Bank  Kumhar Gate  Bharatpur  9667153781  Active  22-12-2014    .91  409.84 
123 1215 Praveen Kumar 2014-Aksh-BHARATPUR Infornt of Police Station  Nadbai Bharatpur  9461694089  11287  Active  22-12-2014    79.57  1069.70 
124 1216 Devendra Pal 2014-Aksh-BHARATPUR Kasgang Road Nadabi Bharatpur   9785467573  2942  Active  22-12-2014    .18  375.41 
125 1217 Arun Kumar Saxena 2014-Aksh-BHARATPUR Near Mahaveer Public School Rundhiya Nagar Bharatpur  9468885839  1449  Active  22-12-2014    10.77  802.76 
126 1230 Aslam 2014-Aksh-BHARATPUR BNRGSK Panchayat Samiti Nagar  9982090666  714  Active  25-12-2014    116.46  3702.21 
127 1255 Ganesh Dutt Mishra 2014-Aksh-BHARATPUR GOPALGHAR BHARATPUR    9680714485  2110  Active  09-01-2015    1132.99  983.76 
128 1258 Ram Mohan 2014-Aksh-BHARATPUR ANHA  GATE BAJARIYA BHARATPUR    8387978336  4569  Active  09-01-2015    .7  915.25 
129 1259 Daniel 2014-Aksh-BHARATPUR OUTSIDE  SURAJ POLE GATE BHARATPUR   9783863436  2737  Active  09-01-2015    .44  439.67 
130 1260 Pankaj Kumar Koli 2014-Aksh-BHARATPUR RAJEEV GNADHI SEVA KENDRA  AKHAIGAR NADBAI BHARATPUR   9785196307  1185  Active  09-01-2015    622.2  463.30 
131 1265 Satyendra Singh 2014-Aksh-BHARATPUR VEAR HOUSE ROAD NEAR POST  OFFICE, NADABI BHARATPUR   9875200277  1553  Active  10-01-2015    .41  0.00 
132 1266 Rajkumari Rajora 2014-Aksh-BHARATPUR COMPUTECH COMPUTER CENTER  NEAR KHADHI A SHARAM WEIR DIST BHARATPUR  9001733488  4648  Active  10-01-2015    11.4  140.31 
133 1267 Pavan Kumar 2014-Aksh-BHARATPUR ANHA GATE BAJARIYA BHARATPUR    9414000016  2173  Active  10-01-2015    51.6  1586.09 
134 1271 Azad Khan 2014-Aksh-BHARATPUR TESHIL CAMPUS NAGAR BHARATPUR    9887712794  8866  Active  16-01-2015    36.61  695.87 
135 1281 JIYA RAHMAN 2014-Aksh-BHARATPUR Jiya rahaman emitra center babu bazar Bhartpur   9829753722  360  Active  20-01-2015    2000.97  1871.11 
136 1282 Ashok Kumar Sharma 2014-Aksh-BHARATPUR MAIN MARKET NEAR POLICE CHOKI DEEG BHARATPUR    9351329943  421  Active  20-01-2015    134.74  1422.79 
137 1307 Bhupendra Agrawal 2014-Aksh-BHARATPUR AGRAWAL COMPUTER POINT, NEAR AGRAWAL DHARMSHALA   KAMAN BHARATPUR RAJASTHAN   7877030711  408  Active  28-01-2015    500.86  270.35 
138 1310 Naresh Chand Agarwal 2014-Aksh-BHARATPUR MORI CHAR BAGH OPP. EYE HOSPITAL BHARATPUR RAJASTHAN    9414307673  1286  Active  28-01-2015    520.12  29.26 
139 1311 Radha Kumari 2014-Aksh-BHARATPUR VILLAGE BANSI PHADPUR TEHSIL RUPBAS BHARATPUR RAJASTHAN    9875003256  143  Active  28-01-2015    .15  78.28 
140 1316 Dinesh Chand 2014-Aksh-BHARATPUR ATAL SEWA KENDRA JAGHINA SEWAR BHARATPUR RAJASTHAN    9784114403  227  Active  29-01-2015    .17  44.94 
141 1317 Bholu Ram Sharma 2014-Aksh-BHARATPUR ATAL SEWA KENDRA AKTA BHARATPUR RAJASTHAN    8058200671  1103  Active  29-01-2015    161.18  148.79 
142 1331 Lalit Mohan 2014-Aksh-BHARATPUR NEAR PNB BANK OLD BYEPASS ROAD NAGAR BHARATPUR RAJASTHAN    9024528958  1305  Active  03-02-2015    1211.16  401.57 
143 1332 Praveen Kumar 2014-Aksh-BHARATPUR ATAL SAMPARK KENDRA USRANI KUMHER BHARATPUR RAJASTHAN    9785506082  2746  Active  03-02-2015    98.95  2786.93 
144 1339 Bijendra Singh Gurjar 2014-Aksh-BHARATPUR GANDHI CHAUK BAYANA  BHARATPUR RAJASTHAN   9351950965  5540  Active  04-02-2015    6806.49  18.25 
145 1340 Sanjay Kumar 2014-Aksh-BHARATPUR LAXMAN MANDIR BHARATPUR RAJASTHAN    9414200200  1608  Active  04-02-2015    660.27  575.59 
146 1341 Sanjay Kumar Saini 2014-Aksh-BHARATPUR OUT SIDE SOORAJPOL GATE BHARATPUR RAJASTHAN    9529192492  57  Active  04-02-2015    601.28  45.67 
147 1378 Veerendra Kumar 2014-Aksh-BHARATPUR VPO KALSARA TEH BAYANA BHARATPUR RAJASTHAN    9783335317  556  Active  09-02-2015    738.94  89.24 
148 1389 Rajesh Kumar 2014-Aksh-BHARATPUR KUMHER ROAD NADBAI BHARATPUR RAJASTHAN    9782848895  1963  Active  18-02-2015    .11  2187.54 
149 1390 Shyam Sundar Gupta 2014-Aksh-BHARATPUR ATAL SEWA KENDRA JANOOTHAR DEEG BHARATPUR RAJASTHAN    00000000000000  465  Active  18-02-2015    .65  215.14 
150 1391 Varish 2014-Aksh-BHARATPUR RAJEEV GANDHI KENDRA  GULPARA NAGAR BHARATPUR RAJASTHAN   9772003536  7238  Active  18-02-2015    5.22  153.76 
151 1392 Mausam Khan 2014-Aksh-BHARATPUR RAJEEV GANDHI Kendra Samler Pahari Nagar Bharatpur Rajasthan    8094101616  790  Active  18-02-2015    19.24  58.10 
152 1393 Prateek Singhal 2014-Aksh-BHARATPUR STATE BANK KI GALI  DEEVAN MOHALLA KAMANSTATE BANK KI GALI DEEVAN MOHALLA KAMAN BHARATPUR RAJAS   9529208400  363  Active  18-02-2015    2.23  26.23 
153 1394 Krishan Murari 2014-Aksh-BHARATPUR MADHUR COMPUTERS ANAH GATE BHARATPUR RAJASTHAN    9414376540  37  Active  18-02-2015    .84  1253.09 
154 1395 Shyam Sundar 2014-Aksh-BHARATPUR KISHORI PAYASA MOHALLA KAMAN BHARATPUR RAJASTHAN    8290431006  16  Active  18-02-2015    1.89  199.59 
155 1425 Umesh Chand 2014-Aksh-BHARATPUR ATAL SEWA KENDRA MATUKI TEH. KAMAN DIST BHARATPUR RAJASTHAN    9828130014  1536  Active  27-02-2015    .37  95.24 
156 1428 Anil Kumar Sharma 2014-Aksh-BHARATPUR KAMLA ROAD BASAN GATE BHARATPURRAJASTHAN    9782505905  1649  Active  02-03-2015    17.04  969.05 
157 1429 Jagdish Prasad Sharma 2014-Aksh-BHARATPUR NEAR GIRLSSCHOOL PAHARI ROAD KAMAN BHARATPUR RAJASTHAN    05640251351  569  Active  02-03-2015    .96  239.90 
158 1431 Bharat Singh 2014-Aksh-BHARATPUR ATAL SEWA KENDRA SIRAS TEH. WEIR DIST BHARATPUR RAJASTHAN    9660347923  1552  Active  02-03-2015    16015.84  587.41 
159 1432 Anuj Agarwal 2014-Aksh-BHARATPUR INFRONT OF GOAL GATE ARYA SAMAJ BHARATPUR    9928941555  668  Active  02-03-2015    .75  198.88 
160 1433 Daulat Singh 2014-Aksh-BHARATPUR BRIJ NAGAR BHARATPUR RAJASTHAN    9667844838  72  Active  02-03-2015    .82  344.13 
161 1442 Shakir 2014-Aksh-BHARATPUR RAJEEV GANDHI KENDRA KAKRALA NAGAR BHARATPUR RAJASTHAN    9828197456  71  Active  03-03-2015    816.54  10.45 
162 1443 Dharmendra Singh 2014-Aksh-BHARATPUR ATAL SEWA KENDRA DAURDA TEHSIL ROOPWAS Bharatpur    9587363073  81  Active  03-03-2015    4955.32  202.93 
163 1444 Brij Mohan 2014-Aksh-BHARATPUR ATAL SAMPARK KENDRA KHOH DEEG Bharatpur    9887685567  Active  03-03-2015    3.7  1101.15 
164 1451 Aksh Optifibre Limited 2014-Aksh-BHARATPUR BAYANA, PHARASO District- BHARATPUR (Rajasthan    9414377104  1550  Active  11-03-2015    1167.82  90.10 
165 1452 Omprakash 2014-Aksh-BHARATPUR BANSI KALAN BUS STAND Teh Sewar Dist Bharatpur Rajasthan    9887493560  2302  Active  11-03-2015    .32  936.81 
166 1453 Hitesh Kumar 2014-Aksh-BHARATPUR SINGLE WINDOW E SUGAM TEHSIL PAHARI DISST BHARATPUR    9251002005  398  Active  12-03-2015    80.42  7464.41 
167 1455 Yahaya 2014-Aksh-BHARATPUR ATAL SEWA KENDRA NOGAWAN BAMNI TEH KAMAN BHARATPUR RAJASTHAN    9828412828  11  Active  13-03-2015    19.64  153.11 
168 1459 Kuldeep Singh 2014-Aksh-BHARATPUR ATAL SEWA KENDRA GANGROLI TEH. WEIR DIST BHARATPUR    9667234914  5492  Active  16-03-2015    3715.44  334.63 
169 1464 Rekha 2014-Aksh-BHARATPUR Atal Sewa Kendra,Gangroly Weir   8696805758  3273  Active  19-03-2015    .53  346.68 
170 1465 Jagdish Singh 2014-Aksh-BHARATPUR ATAL SEWA KENDRA CHICHANA    7691036392  9208  Active  19-03-2015    4461.66  1456.53 
171 1466 Nyaj Mohammad 2014-Aksh-BHARATPUR Nagar,Fatehpur Kala Fatehpur Kala   9549890604  943  Active  19-03-2015    11465.85  167.02 
172 1467 Deepak Singh 2014-Aksh-BHARATPUR ATAL SEWA KENDRA JALALAPUR TEH. NAGAR BHARATPUR    9928319699  Active  19-03-2015    11216.5  373.36 
173 1468 Babu Lal 2014-Aksh-BHARATPUR Atal Sewa Kendra,Sihawali Nagar   8239112676  749  Active  19-03-2015    11317.81  1171.06 
174 1469 Naresh Kumar Dhadoriya 2014-Aksh-BHARATPUR ATAL SEWA KENDRA ANDHIYARI TEH. RUPBAS Bharatpur    8058984002  325  Active  19-03-2015    2931.26  537.93 
175 1470 Neeraj 2014-Aksh-BHARATPUR ATAL SEWA KENDRA SONGAWN TEH.DEEG    8058222137  4158  Active  19-03-2015    5196.76  39.54 
176 1472 Aksh Optifibre Limited 2014-Aksh-BHARATPUR A.En Office,Old Power House Bharatpur   9887877254  100000  25074  Active  20-03-2015    2339.84  9148.70 
177 1477 Ramvir Singh 2014-Aksh-BHARATPUR ATAL SEWA KENDRA KHEDA BRAHAMAN TEH. DEEG BHARATPUR RAJASTHAN    7733916667  4561  Active  23-03-2015    601.28  45.63 
178 1478 Lakhan Singh 2014-Aksh-BHARATPUR ATAL SEWA KENDRA BADANGARH TEH. DEEG BHARATPUR    9982665647  400  Active  23-03-2015    324.86  340.44 
179 1479 Dileep Kumar Sharma 2014-Aksh-BHARATPUR ATAL SEWA KENDRA NAROLI     7568593912  55  Active  23-03-2015    63.56  179.74 
180 1505 Pushapendra Kumar Sharma 2014-Aksh-BHARATPUR ATAL SEWA KENDRA PICHUNA     9694806607  2041  Active  25-03-2015    4892.52  405.32 
181 1506 Brijmohan Singh Maggo 2014-Aksh-BHARATPUR ANAH GATE BAJARIYA BHARATPUR Rajasthan    7615801777  6896  Active  25-03-2015    .96  610.53 
182 1507 Gurmeet Singh 2014-Aksh-BHARATPUR WARD N0 24 GOLBAG ROAD MATHURA GATE BHARATPUR    9587000115  9825  Active  25-03-2015    2095.56  1467.90 
183 1508 Ajeet Singh 2014-Aksh-BHARATPUR ATAL SEWA KENDRA PATHENA THE. WEIR BHARATPUR RAJASTHAN    9887515038  1010  Active  25-03-2015    38.76  513.04 
184 1509 Vishnu Kumar Gupta 2014-Aksh-BHARATPUR ATAL SEVA KENDRA RARAH    9950780243  100  Active  25-03-2015    .71  250.23 
185 1510 Radhe Shyam Rajpoot 2014-Aksh-BHARATPUR ATAL SEWA KENDRA GOGERA TEH .BHUSAWAR    9413837008  865  Active  25-03-2015    10477.58  385.32 
186 1795 Hari Mohan 2014-Aksh-BHARATPUR ATAL SEWA KENDRA UBAR TEH KUMHER BHARATPUR    7023396261  74  Active  06-04-2015    7.27  67.65 
187 1798 Lokesh Kumar 2014-Aksh-BHARATPUR ATAL SEWA KENDRA KHESTI    9024062105  1988  Active  06-04-2015    12771.84  308.99 
188 1799 Harnam Singh 2014-Aksh-BHARATPUR ATAL SEWA KENDRA SADHPURI TEH. NAGAR    8502807926  500  Active  06-04-2015    13246.31  191.66 
189 1802 Deshraj Singh 2014-Aksh-BHARATPUR VILLAGE POST PATHENA TEH. WEIR Bharatpur    9587740216  154  Active  07-04-2015    589.41  11.40 
190 1819 Harmeet Singh 2014-Aksh-BHARATPUR ATAL SEWA KENDRA BASBURJA TEH. NAGAR Bharatpur    8426020062  16314  Active  11-04-2015    16705.21  442.54 
191 1822 Yashwant Singh 2014-Aksh-BHARATPUR VILLAGE POST PATHENA BABEKHAR TEH.BHUSAWAR BHARATPUR    9413027496  217  Active  11-04-2015    1.55  839.80 
192 1823 Gaurav Agrawal 2014-Aksh-BHARATPUR 29 STC HOUSING BOARD COLONEY BHARATPUR    9680399300  783  Active  11-04-2015    .43  65.84 
193 1824 Veerendra Singh 2014-Aksh-BHARATPUR POST GOPALGARH THESIL PAHARI Bharatpur    9461623407  12  Active  11-04-2015    104.16  64.04 
194 1825 Bhavnesh Kumar 2014-Aksh-BHARATPUR ATAL SEWA KENDRA JAHANGEERPUR TEH.NADBAI Bharatpur Rajasthan    8426924549  206  Active  11-04-2015    2278.02  252.07 
195 1826 Tufail Khan 2014-Aksh-BHARATPUR ATAL SEWAKENDRA GHOSINGA TEH. PAHARI    8058533192  50  Active  11-04-2015    11651.84  75.01 
196 1827 Samay Singh 2014-Aksh-BHARATPUR ATAL SEWA KENDRA DHADHAIN TEH BAYANA    9950486489  61  Active  11-04-2015    828.46  63.08 
197 1829 Chandra Sekhar Sharma 2014-Aksh-BHARATPUR ATAL SEWA KENDRA SHEESHWADA TEH. DEEG    9672327226  8576  Active  11-04-2015    .14  123.94 
198 1830 Yashpal Singh 2014-Aksh-BHARATPUR ATAL SEWA KENDRA SALEMPUR KALAN TEH.BHUSAWAR    7891508503  1312  Active  11-04-2015    242.11  497.85 
199 1879 Harish Chand 2014-Aksh-BHARATPUR SURAJ BAGH COLONY KAMAN BHARATPUR    9460963151  1614  Active  15-04-2015    .05  105.11 
200 1924 Pavan Kumar 2014-Aksh-BHARATPUR ATAL SEWA KENDRA MAHMADPURA THE. BAYANA Bharatpur Rajasthan    9785300376  8323  Active  17-04-2015    20200.57  146.25 
201 1925 Surendra Singh 2014-Aksh-BHARATPUR ATAL SEWA KENDRA BHARAMDA THE. NADBAI Bharatpur Rajasthan    9680480465  Active  17-04-2015    1609.16  119.00 
202 1936 Nadeem 2014-Aksh-BHARATPUR ANAJ MANDI KE SAMNE  KOSI ROAD KAMAN Bharatpur   9001409058  13788  Active  17-04-2015    619.7  28.70 
203 1938 Santosh Kumar 2014-Aksh-BHARATPUR NERA DURGA TEMPLE RANJEET  NAGAR BHARATPUR   9887039878  693  Active  17-04-2015    .08  222.32 
204 1940 Mukesh Saini 2014-Aksh-BHARATPUR NAGAR ROAD, DEEG Bharatpur Rajasthan    9636585941  274  Active  17-04-2015    912.03  547.10 
205 1944 Raghvendra Sharma 2014-Aksh-BHARATPUR RADHA KRISHNA MANDIR WALI GALI B- NARAYAN GATE BHARATPUR     9828856009  30079  Active  18-04-2015    .26  470.02 
206 1945 Mukesh Chand 2014-Aksh-BHARATPUR IN FRONT OF NAGAR PALIKA NADBAI BHARATPUR RAJASTHAN     9887963208  3913  Active  18-04-2015    11.81  293.38 
207 1946 Lakhan Singh 2014-Aksh-BHARATPUR PADAM VIHAR COLONY SEWAR ROAD BHARATPUR    9468681247  Active  18-04-2015    .96  71.80 
208 1949 Raju Singh 2014-Aksh-BHARATPUR 52, JATAV MOHALLA SADPURI THE. NAGAR Bharatpur Rajasthan    8094133729  298  Active  18-04-2015    767.02  593.58 
209 1950 Mukesh Chand Sharma 2014-Aksh-BHARATPUR RADHA SWAMI SCHOOL KE SAMNE KHERLI  ROAD NAGAR BHARATPUR   9460646954  3112  Active  18-04-2015    29.86  867.03 
210 1951 Pushpendra Kumar 2014-Aksh-BHARATPUR ATAL SEWA KENDRA FARSO THE. BAYANA BHARATPUR RAJASTHAN    9887740044  2801  Active  18-04-2015    399.74  99.38 
211 1964 Vinod Kumar Sharma 2014-Aksh-BHARATPUR MAIN MARKET SEWAR BHARATPUR    9649644179  804  Active  22-04-2015    9.82  114.74 
212 2014 Mousam 2014-Aksh-BHARATPUR NEAR GOVT. HOSPITAL PAHARI Bharatpur Rajasthan    9887812410  2375  Active  29-04-2015    637.17  438.08 
213 2015 Suveer Chhonkar 2014-Aksh-BHARATPUR NEW CIVIL LINES WARD N0. 39 BHARATPUR    8560087478  2385  Active  29-04-2015    .52  374.19 
214 2017 Jal Singh 2014-Aksh-BHARATPUR KHERLI GADASIYA TEH. BAYANA Bharatpur    9784913377  3851  Active  29-04-2015    9603.21  191.35 
215 2031 Yashpal Singh 2014-Aksh-BHARATPUR ATAL SEWA KENDRA ,BACHHRAIN TEH. WEIR BHARATPUR.    9680771458  3054  Active  30-04-2015    9090.45  925.51 
216 2035 Vikram Singh 2014-Aksh-BHARATPUR ATAL SEWA KENDRA BARAI THE.DEEG, Bharatpur    9680467064  1002  Active  30-04-2015    3434.08  581.31 
217 2036 Narayan Singh 2014-Aksh-BHARATPUR ATAL SEWA KENDRA RASIYA THE. NAGAR, Bharatpur    9785386110  350  Active  30-04-2015    3206.94  9.13 
218 2038 Ijhar 2014-Aksh-BHARATPUR ATAL SEWA KENDRA DHOULET THE. PAHARI Bharatpur    8058657171  Active  30-04-2015    3202.05  32.12 
219 2040 Ved Prakash 2014-Aksh-BHARATPUR ATAL SEWA KENDRA TERHIYA THE.RUPWAS BHARATPUR    05648277021  1962  Active  30-04-2015    950.41  169.43 
220 2041 Ramveer Singh 2014-Aksh-BHARATPUR ATAL SEWA KENDRA BARSO BHARATPUR    9887493642  108  Active  30-04-2015    19.21  98.48 
221 2043 Pushpendra Kumar 2014-Aksh-BHARATPUR PUSHPENDRA EMITRA CENTRE GOPALGARH BHARATPUR RAJASTHAN    9413303160  2238  Active  30-04-2015    816.85  102.81 
222 2044 Nitin Kumar Sachdeva 2014-Aksh-BHARATPUR BABA PHOTOSTATE JUREHRA THE. KAMAN Bharatpur    9667069627  45  Active  30-04-2015    1.65  62.70 
223 2046 Rinku Kumar Rawat 2014-Aksh-BHARATPUR MOROLI DAHAR TEH. RUPWAS, Bharatpur    9927130712  1527  Active  30-04-2015    5356.25  42.44 
224 2048 Ashok Kumar 2014-Aksh-BHARATPUR 135, RUNDHIYA NAGAR NEAR GIRRAJ KENAL BHARATPUR Rajasthan    9828370901  12104  Active  01-05-2015    1691.26  706.81 
225 2059 Hemant Kumar Sharma 2014-Aksh-BHARATPUR PURABAI KHERA TEH. BAYANA DIST BHARATPUR    9772739816  113  Active  04-05-2015    12904.53  93.23 
226 2070 Rajpal Yadav 2014-Aksh-BHARATPUR KALYAN MOHALLA KAMAN BHARATPUR RAJASTHAN    8058657957  345  Active  05-05-2015    4844.14  5.23 
227 2071 Khem Singh 2014-Aksh-BHARATPUR ATAL SEWA KENDRA SALABAD THE. BAYANA    9887368362  164  Active  05-05-2015    .28  103.18 
228 2072 Subham Khandelwal 2014-Aksh-BHARATPUR PAWAN KUNJ COLONY WARD N024 KAMAN Bharatpur Rajasthan    8387872670  1758  Active  05-05-2015    1841.34  255.55 
229 2073 Pankaj Kumar 2014-Aksh-BHARATPUR GOPALGARH PAHARI BHARATPUR RAJASTHAN    9828551252  341  Active  05-05-2015    9430.19  14.35 
230 2095 Dhramvir Singh 2014-Aksh-BHARATPUR ATAL SEWA KENDRA FULWARA THE. BHARATPUR Dist Bharatpur Rajasthan    8094802622  Active  06-05-2015    66.07  0.00 
231 2096 Arun Singh 2014-Aksh-BHARATPUR ATAL SEWA KENRDAR NEWARA THE. WEIR BHARATPUR RAJASTHAN    9001686769  431  Active  06-05-2015    3000.77  740.38 
232 2098 Shree Ram 2014-Aksh-BHARATPUR ATAL SEWA KENDRA SABORA THE. KUMHER Bharatpur Rajasthan    9929169030  3177  Active  06-05-2015    377.17  352.01 
233 2099 Radharaman Sharma 2014-Aksh-BHARATPUR ATAL SEWA KENDRA PARAUA THE.RUPWAS Bharatpur Rajasthan    9887196436  2204  Active  06-05-2015    604.79  2659.19 
234 2100 Gopal Prasad 2014-Aksh-BHARATPUR ATAL SEWA KENDRA GOVINDPURA WEIR BHARATPUR RAJASTHAN    8696367636  630  Active  06-05-2015    461.12  237.56 
235 2132 Bhupendra Singh 2014-Aksh-BHARATPUR DEEP COMPUTER CENTRE PAHUA THE. KUMHER, Bharatpur    9828815751  1478  Active  14-05-2015    716.39  440.51 
236 2133 Pankaj Agarwal 2014-Aksh-BHARATPUR PURANI ANAJ MANDI WEIR Bharatpur Rajasthan    9461966250  903  Active  14-05-2015    1383.88  556.73 
237 2135 Anil Kumar 2014-Aksh-BHARATPUR ATAL SEWA KENDRA BIDIYARI TEH. BAYANA BHARATPUR RAJASTHAN    9414226716  91  Active  14-05-2015    4025.23  89.78 
238 2144 Roopkishor Yadav 2014-Aksh-BHARATPUR Atal Seva Kendra Berro Nagar Bharatpur Rajasthan    9799180017  172  Active  20-05-2015    3020.32  572.74 
239 2145 Surjeet Singh 2014-Aksh-BHARATPUR ATAL SEWA KENDRA SAHSAN THE. PAHARI BHARATPUR RAJASTHAN    8441058009  1940  Active  20-05-2015    1374.33  176.68 
240 2146 Fareed Khan 2014-Aksh-BHARATPUR 115 JATAV MOHALLA MUDIYA THE. NAGAR BHARATPUR RAJASTHAN    9587727320  17  Active  20-05-2015    1296.3  381.01 
241 2147 Akhlesh Kumar Sharma 2014-Aksh-BHARATPUR ATAL SEWA KENDRA JAGGIVANPUR THE. WEIR BHARATPUR RAJASTHAN    9950251165  377  Active  20-05-2015    2.22  31.17 
242 2148 Devendra Prasad Sharma 2014-Aksh-BHARATPUR ATAL SEWA KENDRA BHARATPUR Rajasthan    9782248942  55  Active  20-05-2015    1189.56  1.76 
243 2149 Vinod Kumar Sain 2014-Aksh-BHARATPUR ATAL SEWA KENDRA MAINAPURA TEH. BHUSAWAR BHARATPUR RAJASTHAN    9549586750  977  Active  20-05-2015    12377.9  938.49 
244 2160 Jyoti Gupta 2014-Aksh-BHARATPUR CM PRINTERS EMITRA CENTRE BHARATPUR RAJASTHAN    9166834100  5796  Active  26-05-2015    .36  445.39 
245 2164 Arun Kumar 2014-Aksh-BHARATPUR INFRONT OF PNB BANK DEEG ROAD BHARATPUR Rajasthan    9887887202  474  Active  26-05-2015    62065.99  107.60 
246 2168 Rajkumar 2014-Aksh-BHARATPUR Gram Panchayat LAKHAN THESILKUMHER, Bharatpur    9983684578  74  Active  26-05-2015    651.22  531.62 
247 2173 Pushpendra Singh 2014-Aksh-BHARATPUR PLOT N0 Q INDRA NAGAR HEERADAS BHARATPUR RAJASTHAN    8561037440  22  Active  27-05-2015    809.77  0.00 
248 2174 Amit Chawla 2014-Aksh-BHARATPUR INFRONT OF SDM COURT KAMAN BHARATPUR RAJASTHAN    9610376376  Active  27-05-2015    .14  4.33 
249 2176 Bhupendra Kumar Dixit 2014-Aksh-BHARATPUR GANDHI NAGAR ROAD SEWAR ROAD BHARATPUR RAJASTHAN    9887503135  1970  Active  27-05-2015    5.78  1365.43 
250 2258 Balram Yadav 2014-Aksh-BHARATPUR CHURI BAZAR TEH. NAGAR BHARATPUR    9352777935  558  Active  10-06-2015    35.75  1112.86 
251 2261 Iliyas Khan 2014-Aksh-BHARATPUR ATAL SEWA KENDRA TODA THESIL DEEG    9772391011  13006  Active  10-06-2015    22.95  755.32 
252 2262 Jeetendra Kumar Gurjar 2014-Aksh-BHARATPUR ATAL SEWA KENDRA BRAHMABAD THE. BAYANA Bharatpur    9587517354  51  Active  10-06-2015    25.1  463.98 
253 2265 Satyendra Kumar 2014-Aksh-BHARATPUR Vpo Sikri Teh Nagar Bharatpur    9413994113  424  Active  15-06-2015    .85  247.08 
254 2290 Samsuddin 2014-Aksh-BHARATPUR Viil- Jhantli Teh. Nagar Dist. Bhartpur Rajasthan    7665913436  1697  Active  18-06-2015    11.46  262.58 
255 2302 Dharm Singh 2014-Aksh-BHARATPUR SUNDRAWALI THESIL NAGAR BHARATPUR RAJASTHAN    9887586072  115  Active  20-06-2015    7882.42  633.91 
256 2304 Chet Ram 2014-Aksh-BHARATPUR NEAR BUS STAND KHOH TEHSIL DEEG BHARATPUR    9928272289  4658  Active  20-06-2015    9.62  356.35 
257 2306 Ramavatar 2014-Aksh-BHARATPUR KHORKI ROAD TEHSIL NAGAR BHARATPUR RAJASTHAN    9571765235  3285  Active  20-06-2015    7.29  216.08 
258 2307 Santosh Kumar 2014-Aksh-BHARATPUR MAIN MARKET SEWAR BHARATPUR RAJASTHAN    9887002180  563  Active  20-06-2015    .53  1574.73 
259 2308 Arun Kumar Jain 2014-Aksh-BHARATPUR BUDH KI HAAT BHARATPUR    9782505757  1634  Active  20-06-2015    .05  305.71 
260 2309 Meghraj 2014-Aksh-BHARATPUR NEAR SDM OFFICE BHUS AWAR BHARATPUR RAJASTHAN   8094670022  2096  Active  20-06-2015    1.14  454.63 
261 2312 Navneet Kumar 2014-Aksh-BHARATPUR GLOBAL EMITRA VILL.SAIDPURA TESIL RUPWAS BHARATPUR    9414694403  5447  Active  23-06-2015    899.73  23.48 
262 2314 Sanju Sharma 2014-Aksh-BHARATPUR PAI BAGH, BHARATPUR    9461867091  5137  Active  27-06-2015    16.98  2502.09 
263 2326 Ravi Kumar 2014-Aksh-BHARATPUR Kaman Bharatpur Rajasthan    7891212512  543  Active  03-07-2015    137.99  22.28 
264 2327 Babli Arya 2014-Aksh-BHARATPUR SAINI MOHALLA KUMHER GATE BHARATPUR RAJASTHAN    9024747685  5612  Active  03-07-2015    121.79  145.39 
265 2363 Lokesh Kumar Sharma 2014-Aksh-BHARATPUR NEAR SBI BANK , HINDOUN ROAD   BHUSAWAR , BHARATPUR RAJASTHAN undefined  8058681832  23  Active  24-07-2015    35.35  33.63 
266 2364 Tarun Dayal Katara 2014-Aksh-BHARATPUR JASWANT NAGAR NEAR JASWANT SCHOOL BHARATPUR RAJASTHAN    9414945210  Active  24-07-2015    119.82  225.72 
267 2370 Akeel Ahmed 2014-Aksh-BHARATPUR Tehsil CampusNagar,Bharatpur    9982090666  1420  Active  24-07-2015    2.76  1815.08 
268 2374 Vishesh Kumar Sharma 2014-Aksh-BHARATPUR NEAR BHUMIYA BURJ GOPINAAT MAUHLLA KAMAN BHARATPUR RAJASTHAN    7891868653  758  Active  24-07-2015    81.36  100.39 
269 2375 Narendra 2014-Aksh-BHARATPUR MAIN ROAD UCCHAIN THESIL RUPBAS BHARATPUR RAJASTHAN    8952963617  401  Active  24-07-2015    1534.43  39.28 
270 2376 Harveer Singh 2014-Aksh-BHARATPUR ATAL SEWA KENDRA GAHLAU TEH RUPBAS BHARATPUR RAJASTHAN    7665861616  505  Active  24-07-2015    685.2  13.00 
271 2378 Aksh Optifibre Limired 2014-Aksh-BHARATPUR VARDHMAN MAHAVEER  OPEN UNIVERSITY BHARATPUR   9782179998  755  Active  27-07-2015    .15  113.91 
272 2388 Sanjeev Kumar Saini 2014-Aksh-BHARATPUR Nagar Bharatpur Rajasthan    9672792484  482  Active  30-07-2015    1791.27  33.44 
273 2393 Rakesh Kumar Garg 2014-Aksh-BHARATPUR D-26 SHOPING CENTER JAWAHAR NAGAR  BHARATPUR RAJASTHAN  9352777798  6264  Active  04-08-2015    189.76  202.07 
274 2397 Mukand Bihari 2014-Aksh-BHARATPUR CITY SCHOOL KE PASS BAPU BAZAR NAGAR BHARATPUR RAJASTHAN    9024564343  2768  Active  05-08-2015    405.18  720.07 
275 2399 Ramesh Chand Jha 2014-Aksh-BHARATPUR NEEM KA NEECHE GUD KI MANDI KUMHER BHARATPUR RAJASTHAN    9782514178  868  Active  05-08-2015    1406.49  868.35 
276 2430 Pawan Kumar 2014-Aksh-BHARATPUR ATAL SEWA KENDRA KURKA THE. RUPBAS BHARATPUR    9785135761  173  Active  10-08-2015    2.75  830.12 
277 2431 Asad Malik 2014-Aksh-BHARATPUR ATAL SEWA KENDRA KAKRALA THE. NAGAR BHARATPUR    9887669070  Active  10-08-2015    8820.46  6.62 
278 2432 Ram Ratan Kaushik 2014-Aksh-BHARATPUR EMPLOYEMENT OFFICE BHARATPUR RAJASTHAN    9672900243  1315  Active  10-08-2015    .31  2674.10 
279 2434 Nitish Kumar 2014-Aksh-BHARATPUR MAIN MARKET JANUTHAR TH. DEEG BHARATPUR RAJASTHAN    9799752268  21  Active  14-08-2015    2.45  8.36 
280 2454 MANOJ KUMAR 2014-Aksh-BHARATPUR Village Uncha Nagla Post Behnera Bharatpur  9001708405  314  Active  25-08-2015    69.58  117.88 
281 2467 Rakesh Tiwari 2014-Aksh-BHARATPUR SAUNALI EMITRA CENTRE BRAHMAWAD THESIL BAYANA BHARATPUR RAJASTHAN    8003603730  19  Active  27-08-2015    4081.88  58.34 
282 2496 Subhash Singh 2014-Aksh-BHARATPUR ATAL SEWA CENTRE MADARPUR BHARATPUR RAJASTHAN    9001004584  592  Active  01-09-2015    418.54  183.97 
283 2500 Praveen Kumar Jangid 2014-Aksh-BHARATPUR MAINAPURA THESIL BHUSAWAR WEIR BHARATPUR RAJASTHAN    8058947094  2190  Active  03-09-2015    896.25  78.57 
284 2501 Bhagawan Swaroop Pandey 2014-Aksh-BHARATPUR ATAL SEWA KENDRA WEIR BHARATPUR RAJASTHAN    8829834999  267  Active  03-09-2015    .63  529.34 
285 2516 Vijay Singh 2014-Aksh-BHARATPUR VIJAY E-MITRA NEAR MAIN GATE THANA NADBAI BHARATPUR    9782319241  537  Active  11-09-2015    .19  1125.79 
286 2517 Surendra Singh 2014-Aksh-BHARATPUR SDM COURT KE SAMNE THESIL NAGAR BHARATPUR RAJASTHAN    9785004476  269  Active  11-09-2015    827.15  0.00 
287 2519 Rajesh Singh 2014-Aksh-BHARATPUR RAJESH EMITRA CENTRE BHUSAWAR BHARATPUR RAJASTHAN    9667230074  4948  Active  11-09-2015    .08  208.73 
288 2525 Aksh Optifibre Limited 2014-Aksh-BHARATPUR A.EN. OFFICE (O&M), BAYANA BHARATPUR    9414485885  100000  43  Active  16-09-2015    .37  13827.44 
289 2526 Jagveer Singh 2014-Aksh-BHARATPUR PARUL EMITRACENTRE KATARA NADBAI BHARATPUR RAJASTHAN    8384961669  586  Active  17-09-2015    18.73  364.30 
290 2528 Bhuvnesh Katara 2014-Aksh-BHARATPUR Dahina Ganv, GP Dahina Ganv, PS Roopwas    8432325507  Active  18-09-2015    9379  0.00 
291 2530 Rohit Barhguzar 2014-Aksh-BHARATPUR ROHIT EMITRA NEAR SBI BANK STATION ROAD BAYANA BHARATPUR    9783878131  1706  Active  28-09-2015    14.17  15.68 
292 2531 Vipin Kumar Jain 2014-Aksh-BHARATPUR SARAFA BAZAR JUREHRA TEH.- KAMA DIST.- BHARATPUR RAJASTHAN    9414716155  3952  Active  29-09-2015    31.14  182.53 
293 2533 Dharmendra Singh 2014-Aksh-BHARATPUR OPPSITE GREEN GARDEN KRISHNA NAGAR BHARATPUR    7597156563  179  Active  29-09-2015    461.4  0.00 
294 2534 Piyush Kumar Goyal 2014-Aksh-BHARATPUR MAIN MARKET ROOPWAS BHARATPUR RAJASTHAN    9667765197  94  Active  29-09-2015    11.87  0.00 
295 2552 Krishna Kant 2014-Aksh-BHARATPUR KRISHI TAYARS KE PASS DEEG ROAD BHARATPUR    9024281316  1674  Active  01-10-2015    2366.38  427.48 
296 2582 Yogesh Kumar 2014-Aksh-BHARATPUR SABLANA TEHSIL KAMAN BHARATPUR RAJASTHAN    9057464748  1481  Active  14-10-2015    74.42  483.33 
297 2583 Sushila Agrawal 2014-Aksh-BHARATPUR COURT CAMPAS BHARATPUR RAJASTHAN    9461033105  15  Active  14-10-2015    .44  348.77 
298 2588 Dal Chand 2014-Aksh-BHARATPUR NEAR PANCHYAT KE PASS SIKRI BHARATPUR RAJASTHAN    9672135624  2125  Active  16-10-2015    7702.12  154.99 
299 2589 Bhoori Singh 2014-Aksh-BHARATPUR MUDHERA ROOPWAS BHARATPUR    9610041014  1663  Active  17-10-2015    32.46  319.21 
300 2601 Kavishwar Kant 2014-Aksh-BHARATPUR DEVRAJ EMITRA COMPUTER CENTRE MATHURA JAIPUR BAIPASS BHARATPUR    8386909066  1090  Active  28-10-2015    366.18  2700.68 
301 2602 Mohan Swroop Sharma 2014-Aksh-BHARATPUR INFRONT OF GURUKULSCHOOL NADBAI BHARATPUR    8559856204  100  Active  28-10-2015    117.5  0.00 
302 2603 Deepak Garg 2014-Aksh-BHARATPUR MAIN MARKET ROOPWAS BHARATPUR RAJASTHAN    9549786858  1299  Active  28-10-2015    .19  1593.26 
303 2604 Dharmendra Singh 2014-Aksh-BHARATPUR YASH COMPUTERS CENTRE DEEG BHARATPUR RAJASTHAN    9636602060  123  Active  28-10-2015    398.17  0.00 
304 2605 Hemant Kumar Jain 2014-Aksh-BHARATPUR NEAR HANUMAN MANDIR GOPALGARH BHARATPUR    9667004985  1450  Active  28-10-2015    12.27  642.57 
305 2608 Atar Singh 2014-Aksh-BHARATPUR ATAL SEVA KENDRA JAISHRI TEH. NAGAR BHARATPUR    9983740637  Active  30-10-2015    8537.64  0.00 
306 2613 Avinesh Garg 2014-Aksh-BHARATPUR B- 93 SUBHASH NAGAR BHARATPUR    9694545963  1037  Active  02-11-2015    283.12  1581.30 
307 2638 Lokesh Baswada 2014-Aksh-BHARATPUR MSJ COLLAGE KE SAMNE BHARATPUR    9636841153  1273  Active  07-11-2015    852.86  29.56 
308 2639 Surendra Singh 2014-Aksh-BHARATPUR NEAR BUS STAND KALSARA TEH. BAYANA BHARATPUR    8502881401  Active  07-11-2015    1211.75  1.08 
309 2645 Vishnu Kumar Sharma 2014-Aksh-BHARATPUR ATAL SEWA KENDR PALI DANG TH. BAYANA BHARATPUR RAJASTHAN    8239531975  718  Active  20-11-2015    292.01  12.41 
310 2646 Kuldeep 2014-Aksh-BHARATPUR SURAJ POLE GATE BHARATPUR    8503920549  68  Active  21-11-2015    8.28  12.54 
311 2720 Artee Kumari 2014-Aksh-BHARATPUR GAYATRI PHOTO STATE COLLECTRECT ROAD BHARATPUR    7742507865  3291  Active  09-12-2015    2711.12  250.98 
312 2721 Vivek Mangal 2014-Aksh-BHARATPUR NAGAR NIGAM OFFICE BHARATPUR    9509543973  1961  Active  09-12-2015    1116.26  0.00 
313 2722 Praveen Kumar 2014-Aksh-BHARATPUR PRAVEEN E-MITRA NEW PUSHPVATIKA COLONY BHARATPUR    9414980248  5948  Active  09-12-2015    .03  276.93 
314 2723 Shahid Khan 2014-Aksh-BHARATPUR NEAR KISAN BHAWAN DEEG ROAD BHARATPUR    9785989270  Active  09-12-2015    95.48  17.49 
315 2724 Neeraj Saini 2014-Aksh-BHARATPUR KRISHNA E-MITRA SURAJPOLE GATE BHARATPUR    7733869060  Active  09-12-2015    .08  1123.00 
316 2749 Kamal Dass 2014-Aksh-BHARATPUR INDRA NAGAR NALE KE PASS BHARATPUR    9785180936  1761  Active  19-12-2015    .23  208.19 
317 2751 Devki Dixit 2014-Aksh-BHARATPUR KATARA MARKET RUPBAS BHARATPUR    8387943416  1713  Active  22-12-2015    1503.68  14.35 
318 2752 Banay Singh 2014-Aksh-BHARATPUR HARE KRISHNA EMITRA MAHAHADPURA TEHSIL BAYANA Bharatpur    9982322322  51  Active  22-12-2015    779  406.33 
319 2753 Peetam Singh Saini 2014-Aksh-BHARATPUR BHARTI EMITRA CENTRE NEAR TEHSIL BHUSAWAR BHARATPUR    8502805851  1010  Active  22-12-2015    1202.99  670.81 
320 2789 Dilawer Khan 2014-Aksh-BHARATPUR KHERLI GUMANI TEH. KAMAN DIST.- BHARATPUR RAJASTHAN    8502079191  Active  05-01-2016    1720.63  0.00 
321 2809 Pushpendra 2014-Aksh-BHARATPUR BEENA E-MITRA CENTRE ROJVILLA COLONY SARAS CHAURAHA, BHARATPUR    9887959823  195  Active  06-01-2016    32.42  0.00 
322 2810 Hakim Singh 2014-Aksh-BHARATPUR Atal Sewa Kendra Lahachorakalan Bayana Bharatpur    9057616307  440  Active  06-01-2016    400.18  577.28 
323 2811 Ravi Katheriya 2014-Aksh-BHARATPUR Saksham E-Mitra Centre, Jaghina Gate  Gopal Garh, Bharatpur undefined  7062452805  95  Active  06-01-2016    800.05  293.27 
324 2812 Vishnu Sharma 2014-Aksh-BHARATPUR LAVANIYA E-MITRA CENTRE, SEWAR FORT KE SAMENE  SEWARVROAD, BHARATPUR undefined  8947921593  Active  06-01-2016    24.58  170.86 
325 2814 Jeetendra Singh 2014-Aksh-BHARATPUR OM - SHAI E-MITRA CENTRE, V- RARAH  TEH. - KUMHER, BHARATPUR undefined  9680990299  1903  Active  06-01-2016    540.98  510.09 
326 2815 Prasoon Singhal 2014-Aksh-BHARATPUR BAUJI TELECOME & E-MITRA CENTRE SURAJPOLE CHAURAHA GOPAL GARH , BHARATPUR    8559826434  1595  Active  06-01-2016    .92  257.87 
327 2862 Asjad Khan 2014-Aksh-BHARATPUR ASJAD EMITRA CENTRE SIKRI VILLAGE BHUHAPUR THE. NAGAR    8239103850  24  Active  21-01-2016    47.77  93.74 
328 2863 Rakesh Kumar 2014-Aksh-BHARATPUR BARAULI CHHAR TEHSIL NADBAI Bharatpur    9887120040  Active  22-01-2016    127.5  0.00 
329 2884 Sonu Bansal 2014-Aksh-BHARATPUR SABORA TEHSIL KUMHER Bharatpur Rajasthan     9571390022  Active  30-01-2016    -.27  132.34 
330 2885 Neeraj Kumar 2014-Aksh-BHARATPUR BAROLICHHAR TEH. NADBAI (PAY POINT)Bharatpur     9660985921  Active  30-01-2016    0.00 
331 2887 Yogesh Kumar 2014-Aksh-BHARATPUR VILLAGE - SABLAN, TEHSIL - KAMAN  BHARATPUR   9887878542  Active  30-01-2016    34.5  0.00 
332 2890 Devendra Kumar 2014-Aksh-BHARATPUR ANKIT PHOTO STATE GAYATRI COLLONY NADBAI Bharatpur    8947841656  Active  30-01-2016    34.5  0.00 
333 2922 Soop Ram Jatav 2014-Aksh-BHARATPUR Paypoint PASOPA Deegbharatpur     9001596884  Active  04-02-2016    -.1  0.00 
334 2923 Naresh Kumar 2014-Aksh-BHARATPUR Paypoint BELARA KALA TEHSIL KUMHER Bharatpur     9413995932  Active  04-02-2016    0.00 
335 2924 Ram Singh 2014-Aksh-BHARATPUR CHULERA TEHSIL DEEG Bharatpur     8503085433  Active  04-02-2016    -.05  0.00 
336 2927 Narendra Singh 2014-Aksh-BHARATPUR Pay Point BEDHAM TEHSIL DEEG Bharatpur     8561067043  Active  04-02-2016    0.00 
337 2930 Susheel Kumar 2014-Aksh-BHARATPUR BADANGHAR, DEEG  BHARATPUR   9887905192  Active  04-02-2016    -.21  4.56 
338 2932 Taiyyab Khan 2014-Aksh-BHARATPUR NEAR MASJID, GARHI MEWAT  BEDHAM, BHARATUR undefined  9610299014  Active  04-02-2016    -.15  0.00 
339 2934 Pramod Kumar 2014-Aksh-BHARATPUR VILLAGE - GIRSE, TEHSIL - DEEG  BHARATPUR   9950101060  Active  04-02-2016    -.16  0.00 
340 2949 Ravi Lawaniya 2014-Aksh-BHARATPUR GOVERDHAN GATE, BHARATPUR    9667420119  478  Active  05-02-2016    6.75  201.69 
341 2959 Vipin Bansal 2014-Aksh-BHARATPUR Paypoint KHERIA PUROHIT SONGAON DEEG BHARATPUR    9024484998  Active  09-02-2016    0.00 
342 2960 Jeetendra Kumar 2014-Aksh-BHARATPUR Pay Point Shripur,Deeg Bharatpur    8058334322  Active  09-02-2016    .27  59.32 
343 2961 Dhanesh Kumar 2014-Aksh-BHARATPUR EMITRA PAYPOINT SINSINI, BHARATPUR    9983301011  Active  09-02-2016    0.00 
344 2962 Surendra Singh 2014-Aksh-BHARATPUR EMITRA PAYPOINT KHEMRA BHARATPUR    9828434242  Active  09-02-2016    0.00 
345 2963 Baboo Lal 2014-Aksh-BHARATPUR EMITRA PAYPOINT UMRA, DEEG  BHARATPUR    9460740002  Active  09-02-2016    0.00 
346 2964 Ajay Singh 2014-Aksh-BHARATPUR EMITRA PAYPOINT SUKHAWALI, BHARATPUR    9414718383  Active  09-02-2016    0.00 
347 2965 Rinku Kumar 2014-Aksh-BHARATPUR EMITRA PAYPOINT VILLAGE - TUHIYA, TYONGA  BHARATPUR   8058561420  Active  09-02-2016    0.00 
348 2966 Asjad Khan 2014-Aksh-BHARATPUR Emitra Paypoint BHUAPUR GARHI TEHSIL NAGAR Bharatpur     9529709046  Active  09-02-2016    0.00 
349 2967 Manoj Kumar Saini 2014-Aksh-BHARATPUR EMITRA PAYPOINT SAINI MOHALLA, BEWAR  HALENA, BHARATPUR undefined  9660253382  Active  09-02-2016    0.00 
350 2968 Rajesh Kumar Gupta 2014-Aksh-BHARATPUR EMITRA PAYPOINT VILLAGE - AJROUNDA, TEHSIL - WEIR  BHARATPUR    8290136831  Active  09-02-2016    -.05  0.00 
351 2969 Sushil Kumar 2014-Aksh-BHARATPUR EMITRA PAYPOINT BANI KUMHAR, BHARATPUR     9587999024  Active  09-02-2016    0.00 
352 2970 Pramod Kumar Sharma 2014-Aksh-BHARATPUR EMITRA Paypoint BAI,WEIR  BHARATPUR   9414526914  Active  09-02-2016    0.00 
353 2971 Brijesh Kumar 2014-Aksh-BHARATPUR EMITRA PAYPOINT KUTAKPUR, CHIRAWALMALI  NAGAR, BHARATPUR  undefined  8058976432  Active  09-02-2016    0.00 
354 2972 Gopal Prasad 2014-Aksh-BHARATPUR EMITRA PAYPOINT GOVINDPURA GP MUHARI THE. WEIR Bharatpur     8696367635  Active  09-02-2016    -.05  13.69 
355 2973 Jaswant Singh 2014-Aksh-BHARATPUR EMITRA PAYPOINT KASODA GP MADAHONI THE. BHARATPUR    9001649139  Active  09-02-2016    -.05  0.00 
356 2974 Kuldep Singh 2014-Aksh-BHARATPUR EMITRA PAYPOINT GANGROLI POST HISHAMDA TEH WEIR Bharatpur     9667234915  Active  09-02-2016    -.1  0.00 
357 2975 Bharat Singh 2014-Aksh-BHARATPUR EMITRA PAYPOINT NAHREPUR GP SIRAS TEHSIL WEIR BHARATPUR    9660347922  Active  09-02-2016    -.05  4.56 
358 2976 Manoj Kumar 2014-Aksh-BHARATPUR EMITRA PAYOINT SHYAMDHAK, BAROLI CHAUTH  DEEG, BHARATPUR undefined  9413309325  Active  09-02-2016    0.00 
359 2977 Hariom 2014-Aksh-BHARATPUR EMITRA PAYPOINT GUHANA, DEEG  BHARATPUR   9414449940  Active  09-02-2016    0.00 
360 2978 Sumit Singh 2014-Aksh-BHARATPUR EMITRA PAYPOINT Bahnera Sewar Bharatpur     7297895400  Active  09-02-2016    -.05  73.01 
361 2979 Vipin Kumar 2014-Aksh-BHARATPUR EMITRA PAYPOINT SEHU GP PADMADRA TEH. DEEG Bharatpur     9694805536  Active  09-02-2016    -.05  0.00 
362 2980 Nagendra Singh 2014-Aksh-BHARATPUR EMITRA PAYPOINT NARENA CHOTH GP PASTA TEH. DEEG Bharatpur     9785350540  Active  09-02-2016    -.05  0.00 
363 2981 Kehar Singh 2014-Aksh-BHARATPUR EMITRA PAYPOINT SHAYPUR GP BARAI TEH. DEEG Bharatpur     9887327743  Active  09-02-2016    -.16  0.00 
364 2986 Indrajeet Boudh 2014-Aksh-BHARATPUR EMITRA PAYPOINT JHEETREDI  GP SEMLA KALAN TEH. NAGAR Bharatpur    7891847732  Active  09-02-2016    0.00 
365 2987 Nem Singh 2014-Aksh-BHARATPUR EMITRA PAYPOINT  PIRAKA GP SAIMLAKALAN TEH. NAGAR Bharatpur    9024459580  Active  09-02-2016    -.21  0.00 
366 2988 Prem Prakash 2014-Aksh-BHARATPUR POOLICE THANE KE GATE KE PASS TEHSIL NADBAI Bharatpur    8947841512  1655  Active  10-02-2016    .46  137.54 
367 2990 Sonu Bansal 2014-Aksh-BHARATPUR VILLAGE And POST - SABORA, TEHSIL - KUMHER  DISTRICT- BHARATPUR   9785537341  3810  Active  10-02-2016    1358.99  46.69 
368 2992 Vinod Kumar Agrawal 2014-Aksh-BHARATPUR UNCLE G EMITRA A-93RANJEET NAGAR BHARATPUR    9413113575  1023  Active  10-02-2016    3.38  54.34 
369 2993 Kshitij Singh 2014-Aksh-BHARATPUR EMITRA Paypoint MADARPUR, CHIKSANA  SEWAR, BHARATPUR undefined  8946830750  Active  11-02-2016    0.00 
370 2994 Sahil Khan 2014-Aksh-BHARATPUR EMITRA PAYPOINT BHUTA GP MUDIYA TEH. NAGAR    9785709285  Active  11-02-2016    0.00 
371 2995 Rasid Khan 2014-Aksh-BHARATPUR EMITRA PAYPOINT BALKHEDHA GP KHKHABALI TEH. NAGAR Bharatpur     9828254582  Active  11-02-2016    -.1  0.00 
372 2996 Soran 2014-Aksh-BHARATPUR EMITRA PAYPOINT NARANA GP BANDHA CHOTH TEH. DEEG Bharatpur     9214065753  Active  11-02-2016    0.00 
373 2997 Anil Goyam 2014-Aksh-BHARATPUR EMITRA PAYPOINT ROJKI GP PENDKA TEH. NAGAR Bharatpur     9694896625  Active  11-02-2016    0.00 
374 2998 Ajab Singh Beekarwar 2014-Aksh-BHARATPUR EMITRA PAYPOINT MAI KA NAGLA GP MAI TEH. NADBAI Bharatpur     9929499299  Active  11-02-2016    -.1  4.56 
375 2999 Ankur Thanua 2014-Aksh-BHARATPUR EMITRA PAYPOINT NAUHGAYA , HATHENI  SEWAR, BHARATPUR undefined  9414208208  Active  11-02-2016    0.00 
376 3017 Satnam Singh Sandhu 2014-Aksh-BHARATPUR EMITRA Paypoint BARRPURA , AGHAPUR  CHIKSANA, SEWAR  BHARATPUR  9694565465  Active  13-02-2016    0.00 
377 3022 Ashwani Singh 2014-Aksh-BHARATPUR EMITRA PAY POINT VIJAY NAGAR, RUNDH HELAK  KUMHER, BHARATPUR undefined  9829159955  Active  15-02-2016    0.00 
378 3023 Siddharth Agre 2014-Aksh-BHARATPUR Emitra Paypoint Vijaynagar Khumer Bharatpur Rajasthan     9694837688  Active  15-02-2016    0.00 
379 3024 Ram Singh 2014-Aksh-BHARATPUR EMITRA PAY POINT GHATOLI POST KHANSURJAPUR TEH. RUPBAS BHARATPUR    9929404345  Active  15-02-2016    -.1  0.00 
380 3025 Chandra Prakash Yadav 2014-Aksh-BHARATPUR EMITRA PAY POINT MAHCHAULI PIPLA BLOCK SEWAR BHARATPUR    8769060087  663  Active  15-02-2016    26.24  28.29 
381 3029 Neeru Singh 2014-Aksh-BHARATPUR EMITRA PAY POINT BHAHRABALI GP BHESHA TEH. RUPBAS BHARATPUR    9166676846  Active  16-02-2016    -.05  0.00 
382 3030 Ravi Kumar 2014-Aksh-BHARATPUR EMITRA PAY POINT KARMUKABAAS GP LEHRSAR TEH. KAMAN BHARATPUR    7891212511  Active  16-02-2016    0.00 
383 3032 Manoj Kumar 2014-Aksh-BHARATPUR EMITRA PAY POINT LODHAHEDI GP GHANKAR TEH. NAGAR BHARATPUR    8058260315  Active  16-02-2016    0.00 
384 3034 Narendra Kumar 2014-Aksh-BHARATPUR EMITRA PAY POINT JATOLI GHANA GP BACHAMDI SEWAR BHARATPUR    9461841710  Active  16-02-2016    0.00 
385 3035 Chhote Lal 2014-Aksh-BHARATPUR EMITRA PAY POINT SUPAWAS GP RETHOTI TEH. KUMHER BHARATPUR    9636282236  Active  16-02-2016    0.00 
386 3036 Ramveer Gurjar 2014-Aksh-BHARATPUR EMITRA PAY POINT RANOTA GP MORAKA TEH. NAGAR BHARATPUR    9785438001  Active  16-02-2016    0.00 
387 3037 Ramchand 2014-Aksh-BHARATPUR EMITRA PAY POINT RAVIDASPURA GP GANGABAK TEH NAGAR BHARATPUR     9929797614  Active  16-02-2016    0.00 
388 3038 Ramavtar Gurjar 2014-Aksh-BHARATPUR EMITRA PAY POINT GHATA GP PALLA TEH. KAMAN BHARATPUR    9468682522  Active  16-02-2016    -.05  0.00 
389 3039 Mohammad Irashad 2014-Aksh-BHARATPUR EMITRA PAY POINT ANGRAWALI GP BILONG TEH. KAMAN BHARATPUR    9828282183  Active  16-02-2016    0.00 
390 3040 Lakhan Singh 2014-Aksh-BHARATPUR EMITRA PAY POINT JURHARI GP PAAI TEH. KAMAN BHARATPUR    9887539321  Active  16-02-2016    0.00 
391 3041 Narayan Singh 2014-Aksh-BHARATPUR Emitra Pay Point Badhipur Gp Satwas Teh. Kaman Bharatpur    7792951767  Active  16-02-2016    -.1  13.69 
392 3042 Rajesh Kumar 2014-Aksh-BHARATPUR EMITRA PAY POINT BAJHRA GP SUNHERA TEH. KAMAN BHARATPUR    9927238301  Active  16-02-2016    13.69 
393 3047 Mohammad Javed 2014-Aksh-BHARATPUR FARHAN EMITRA CENTRE MEEL MADARSH SIKRI THE.PAHADI    9672963909  Active  17-02-2016    625.5  0.00 
394 3058 Bachchu Singh 2014-Aksh-BHARATPUR NEAR GANDHI MANDIR, PANCHYAT SAMITI ROAD  BAYANA, BHARATPUR undefined  9414446200  16  Active  17-02-2016    59.07  342.91 
395 3063 Jagdish Kumar 2014-Aksh-BHARATPUR EMITRA PAY POINT BADHRIPUR TEHSIL DEEG BHARATPUR    9694546972  Active  19-02-2016    0.00 
396 3064 Akash Agre 2014-Aksh-BHARATPUR EMITRA PAY POINT SATYAPURA, RUNDH HELAK  KUMHER , BHARATPUR undefined  9782123003  Active  19-02-2016    0.00 
397 3070 Mohammad Salim 2014-Aksh-BHARATPUR EMITRA PAYPOINT PEEPROLI SIKRI NAGHAR Bharatpur     8107165786  Active  23-02-2016    0.00 
398 3071 Ashok Kumar 2014-Aksh-BHARATPUR EMITRA PAY POINT BOOLKHERA KA BASS GP BOOLKHERA TEH. KAMAN     9950292638  Active  23-02-2016    0.00 
399 3082 Vajid Ali 2014-Aksh-BHARATPUR Vill.Dwarakapur Suketi (Suketi) Se Panchayat  Padalwas Block Teh. Nagar Dist. Bharatpur   8107157786  Active  25-02-2016    0.00 
400 3091 Deepak Katara 2014-Aksh-BHARATPUR PRIYA EMITRA CENTRE KATRA MOHALLA KUMHER Bharatpur    8952865050  Active  29-02-2016    8.25  0.00 
401 3092 Asloop 2014-Aksh-BHARATPUR EMITRA PAYPOINT NEEMKI GP FATEHPURKALAN TEH. NAGAR Bharatpur     9828675581  Active  29-02-2016    0.00 
402 3110 Hakim Singh 2014-Aksh-BHARATPUR EMITRA PAY POINT AJNOULI GP LAHCHORAKALAN TEH. BAYANA BHARATPUR    7615999265  Active  01-03-2016    -.1  27.38 
403 3113 Rahul Kumar 2014-Aksh-BHARATPUR EMITRA PAY POINT KARBAN GP SUHARI TEH. BHUSAWAR BHARATPUR    9694772267  Active  01-03-2016    0.00 
404 3114 Sarpu Khan 2014-Aksh-BHARATPUR EMITRA PAY POINT RAYAPUR SUKETI GP PALKA TEH NAGAR BHARATPUR    8696530760  Active  01-03-2016    0.00 
405 3115 Govind Singh 2014-Aksh-BHARATPUR EMITRA PAY POINT MADANPUR GP DHADREN TEH. BAYANA BHARATPUR    8003062401  Active  01-03-2016    0.00 
406 3117 Rijwan Khan 2014-Aksh-BHARATPUR EMITRA PAY POINT RASULPUR GP KAKRALA TEH. NAGAR BHARATPUR    9982157989  Active  01-03-2016    0.00 
407 3120 Bahadur Singh 2014-Aksh-BHARATPUR Emitra Pay Point Vill Hingota Deeg Bharatpur    9828713071  Active  01-03-2016    2155.5  0.00 
408 3152 Naval Singh 2014-Aksh-BHARATPUR VILLAGE - BAJHERA, POST - BACHHAMADI NOH  TEHSIL And DISTRICT - BHARATPUR   8233007554  820  Active  04-03-2016    24.31  708.40 
409 3153 Ravi Kumar 2014-Aksh-BHARATPUR NEAR BSNL TELEPHONE EXCHANGE, KRISHNA NAGAR  BHARATPUR   8058573640  1977  Active  04-03-2016    102.11  711.45 
410 3154 Mukesh Chaturvedi 2014-Aksh-BHARATPUR KANJOLI LINE BHARATPUR    9024718864  490  Active  04-03-2016    3.56  929.00 
411 3155 Lukman Hakeeem 2014-Aksh-BHARATPUR VILL.DAYANAWAS POST KHOHRI TEHSIL NAGAR Bharatpur     9828485035  Active  04-03-2016    600  0.00 
412 3156 Yadvendra Singh 2014-Aksh-BHARATPUR EMITRA PAY POINT MILKIPURA GP KHAGRI TEH. NADBAI BHARATPUR    7240724818  Active  04-03-2016    36.51 
413 3157 Mukhiya Singh 2014-Aksh-BHARATPUR EMITRA PAY POINT BARABALI GP SONGAWON TEH. DEEG BHARATPUR    9660011940  Active  04-03-2016    261.75  0.00 
414 3158 Rajendra Singh 2014-Aksh-BHARATPUR EMITRA PAY POINT GULBANEE GP JAISHREE TEH. NAGAR BHARATPUR    9166177097  Active  04-03-2016    0.00 
415 3192 Mahesh Chand 2014-Aksh-BHARATPUR EMITRA PAYPOINT SANDUGAR GP PEPAL KEHDA TEH. PAHADI BHARATPUR    9983446060  Active  11-03-2016    0.00 
416 3193 Prakash Chand 2014-Aksh-BHARATPUR EMITRA PAY POINT MEHRAMPUR GP RAISHEES TEH. NADBAI BHARATPUR    9694206895  Active  11-03-2016    0.00 
417 3194 Santoshi Lal 2014-Aksh-BHARATPUR Emitra Pay Point UNDRA GP GUSYAARI TEH BHARATPUR    8947064553  Active  11-03-2016    -.05  0.00 
418 3195 Narayan Singh 2014-Aksh-BHARATPUR RAJPOOT EMITRA INDRA COLONEY TEHSIL KAMAN Bharatpur     9680813030  209  Active  12-03-2016    58.55  28.79 
419 3196 Amit Kumar 2014-Aksh-BHARATPUR VILL & POST PEEPLA TEH BHARATPUR    8426960798  495  Active  12-03-2016    883.34  0.46 
420 3197 Jeetendra Kumar 2014-Aksh-BHARATPUR EMITRA PAY POINT JOGIPURA GP BAROLIRAAN TEH. NADBAI BHARATPUR    9694471104  Active  14-03-2016    0.00 
421 3198 Sagar Kirad 2014-Aksh-BHARATPUR EMITRA PAY POINT UNEAR GP ECHARA TEH. NADBAI BHARATPUR    8058300769  Active  14-03-2016    0.00 
422 3199 Sonu Rawat 2014-Aksh-BHARATPUR EMITRA PAY POINT SIKRORA GP SIKRORI TEH. KUMHER BHARATPUR    9785171759  Active  14-03-2016    0.00 
423 3200 Prakash Chand 2014-Aksh-BHARATPUR EMITRA PAY POINT JAHRLA GP BALABGARD TEH. WEIR BHARATPUR    9784958550  Active  14-03-2016    0.00 
424 3201 Sanjay Singh 2014-Aksh-BHARATPUR EMITRA PAY POINT LULHAARO GP PAHERSAR THE. NADBAI BHARATPUR    9413301358  Active  14-03-2016    0.00 
425 3202 Anil Singh 2014-Aksh-BHARATPUR EMITRA PAY POINT UDPURI GP SAADPURI TEH. NAGAR BHARATPUR    8440082546  Active  14-03-2016    0.00 
426 3203 Rinku Singh 2014-Aksh-BHARATPUR EMITRA PAY POINT VILLAGE - DIDWARI, Gram Panchayat -  TALPHARA TEHSIL - NAGAR  BHARATPUR  7690045154  Active  14-03-2016    0.00 
427 3204 Hargovind Singh 2014-Aksh-BHARATPUR Emitra Pay Point Village - Bailara, Gram Panchayat - Kedi Devi Singh  Tehsil - Nadbai, Bharatpur undefined  9785338413  Active  14-03-2016    -.05  22.82 
428 3205 Hemu Rawat 2014-Aksh-BHARATPUR EMITRA PAY POINT SITARA GP PALA TEH. KUMHER BHARATPUR    9983022353  Active  15-03-2016    0.00 
429 3206 Vijendra Singh 2014-Aksh-BHARATPUR Vill.-Higota Deeg Bharatpur Rajasthan     9928225945  327  Active  15-03-2016    .75  164.28 
430 3230 Rajesh Kumar 2014-Aksh-BHARATPUR RAJESH EMITRA CENTRE VIIL. &POST SUNHERA TH. KAMAN Bharatpur     9521192113  60  Active  22-03-2016    1982.42  36.84 
431 3231 Bansal Emitra Centre 2014-Aksh-BHARATPUR BANSAL EMITRA CENTER OPPOSITE STADIUM JASWANT NAGAR BHARATPUR    9414716464  Active  22-03-2016    0.00 
432 3232 Raj Kumar 2014-Aksh-BHARATPUR Vill. Sanwler Teh Pahari Dist Bharatpur    9610072407  Active  22-03-2016    0.00 
433 3233 Shiv Kumar 2014-Aksh-BHARATPUR Bapu Bazar Nagar Bharatpur    9414610952  1875  Active  22-03-2016    209.83  2121.95 
434 3241 Vijay Pal Singh 2014-Aksh-BHARATPUR EMITRA PAY POINT KEALURI GP RONIJA TEH. NADBAI BHARATPUR    9982130413  Active  22-03-2016    0.00 
435 3242 Shaheed 2014-Aksh-BHARATPUR EMITRA PAY POINT MOOTHUKA GP DIMARI TEH. PHADHI BHARATPUR    9783873062  Active  22-03-2016    0.00 
436 3263 Saurabh Kumar 2014-Aksh-BHARATPUR Vpo Jatmasi Tehsil Rupwas Bharatpur    9694854784  Active  29-03-2016    0.00 
437 3303 Vishnu Kumar 2014-Aksh-BHARATPUR SAMOGAR TEHSIL BAYANA BHARATPUR    8386879606  Active  11-04-2016    59.25  0.00 
438 3348 Usaman 2014-Aksh-BHARATPUR Emitra Pay Point Targama, Gram Panchayat - Ghatri Weir  Bharatpur, Rajasthan undefined  9785563535  Active  14-04-2016    0.00 
439 3349 Haricharan Singh 2014-Aksh-BHARATPUR Emitra Pay Point Village Dhanipura, Gram Panchayat - Nayavas Nadbai  Bharatpur, Rajasthan undefined  7665178638  Active  14-04-2016    0.00 
440 3350 Govind Sharan 2014-Aksh-BHARATPUR Bhetana Gram Panchayat - Kuchawati Deeg, Bharatpur  Rajasthan   8290540930  Active  14-04-2016    0.00 
441 3351 Narayan Singh 2014-Aksh-BHARATPUR EMITRA PAY POINT JHARKAI GP BHOUSINGATEH NADBAI BHARATPUR    8441957123  Active  14-04-2016    9.13 
442 3352 Faiji Khan 2014-Aksh-BHARATPUR EMITRA PAYPOINT CHANDUKADA NAGAR BHARATPUR     8107174788  Active  14-04-2016    0.00 
443 3353 Ramfal 2014-Aksh-BHARATPUR NAGLA KHATKA BAYANA, BHARATPUR  RAJASTHAN   8741004024  Active  14-04-2016    0.00 
444 3354 Sanju Kumar 2014-Aksh-BHARATPUR CHHKAJI BARPURA GP AGAHAPUR TEH BHARATPUR    9571924821  Active  14-04-2016    0.00 
445 3355 Jagannath Sharma 2014-Aksh-BHARATPUR EMITRA PAY POINT KHOHARI DEEG, BHARATPUR  RAJASTHAN   9782074037  Active  14-04-2016    0.00 
446 3356 Chandra Prakash 2014-Aksh-BHARATPUR EMITRA PAY POINT CHAK CHEALUA GRAM  PANCHAYAT- FATEHPUR KALAN NAGAR, BHARATPUR   9667805875  Active  14-04-2016    0.00 
447 3357 Vinay Garg 2014-Aksh-BHARATPUR EMITRA PAY POINT ATARIPURA (PAY POINT) GRAM PANCHAYAT- BAROLI, WEIR  BHARATPUR,RAJASTHAN undefined  8441086608  Active  14-04-2016    0.00 
448 3418 Junaid Khan 2014-Aksh-BHARATPUR Emitra Pay Point Village - Khohra, Gram  Panchayat - Olanda Kaman. Bharatpur   9983855001  Active  27-04-2016    0.00 
449 3421 Pankaj Kumar 2014-Aksh-BHARATPUR JANGID E-MITRA CENTRE V-P LAITA MUDIA TEH. WEIR BHARATPUR    9549662601  1480  Active  27-04-2016    500  0.00 
450 3422 Girdhari Lal 2014-Aksh-BHARATPUR EMITRA PAY POINT BADHAKA GP ALAMSHA TEH. NAGAR BHARATPUR    9024997554  Active  27-04-2016    0.00 
451 3469 Krishan Kant Katara 2014-Aksh-BHARATPUR Mahalpur Kachhi, Dhahina Gaon  Rudawal, Roopwas  Bharatpur - 321402  9680163635  Active  06-05-2016    0.00 
452 3475 Nagendra Kumar 2014-Aksh-BHARATPUR Ashi E-Mitra, Subhash Nagar  Bharatpur   9166376312  2891  Active  10-05-2016    201.80 
453 3492 Arsad 2014-Aksh-BHARATPUR Emitra Paypoint DUDAWAL GP DUDAWAL TEH. NAGAR Bharatpur Rajasthan     9929229003  Active  18-05-2016    0.00 
454 3493 Hari Singh 2014-Aksh-BHARATPUR EMITRA PAY POINT VILLAGE - GOBRA, Gram Panchayat- JHANGEERPUR  TEHSIL - NADBAI, BHARATPUR undefined  8290043324  Active  18-05-2016    0.00 
455 3516 Shyam Sunder Yadav 2014-Aksh-BHARATPUR Village-Berroo Teh.-Nagar, Bharatpur (321024)    8824797575  Active  24-05-2016    0.00 
456 3517 Koushal Kumar 2014-Aksh-BHARATPUR Plot No. 55, 56 Tilak Nagar  Bharatpur   9460013498  Active  24-05-2016    0.00 
457 3518 Murari Lal Gurjar 2014-Aksh-BHARATPUR Vill-Kela Ka Bas,Teh.-Jamwa Ramgarh Jaipur   9636372761  Active  24-05-2016    0.00 
458 3519 Aarif Khan 2014-Aksh-BHARATPUR VILL &Post THOON TEHSIL NAGAR BHARATPUR    8769549027  Active  25-05-2016    0.00 
459 3520 Rajesh Kumar 2014-Aksh-BHARATPUR Pragya E-Mitra Centre Village And Post - Pipla, Bharatpur    8875100026 Active  25-05-2016    0.00 
460 3521 Pradeep Kumar 2014-Aksh-BHARATPUR Village- PAHARI BHARATPUR Rajasthan     8094797171  Active  25-05-2016    0.00 
461 3528 Gajendra Singh 2014-Aksh-BHARATPUR House No. - 44/560, Gandhi Nagar  Near Railway Colony, Bharatpur undefined  9610279875  Active  26-05-2016    0.00 
462 3529 Ramesh Chand Saini 2014-Aksh-BHARATPUR Ramesh E-Mitra Centre Halena Road, Nadbai  Bharatpur   9887337792  Active  26-05-2016    0.00 
463 3531 Maneesh Kumar 2014-Aksh-BHARATPUR Atal Seva Kendra, Saheda  Kaman, Bharatpur undefined  8502987604  Active  27-05-2016    0.00 
464 3537 Sonu Singh 2014-Aksh-BHARATPUR Village- Naroli, Tehsil - Bayana  Bharatpur   9462927787  Active  27-05-2016    0.00 
465 3539 Rohatash Singh 2014-Aksh-BHARATPUR Infront Of Arya Agencies, Shiv Nagar  Bharatpur   9667431175  Active  27-05-2016    0.00 
466 814 Aqeela Parveen 2014-Comtech Institute of Technology-Bharatpur In Front of New  Tehsil Kaman Bharatpur  9001892350  370  Active  26-08-2014    95.49  1404.70 
467 840 Amarjeet Singh 2014-Comtech Institute of Technology-Bharatpur V+P Sahasan  Tehsil - Pahari Disst. - Bharatpur  8503801959  Active  03-09-2014    1948.61  0.00 
468 867 Sanjay Singh 2014-Comtech Institute of Technology-Bharatpur INFRONT OF STADIUM, JASWANT     9660718564  515  Active  15-09-2014    .86  1510.80 
469 868 Nobat Singh 2014-Comtech Institute of Technology-Bharatpur Nobat E - Mitra Center Ibrahimpur Roopwas Bharatpur  9694407982  10  Active  15-09-2014    1544.82  0.00 
470 960 DEEPAK KUMAR 2014-Comtech Institute of Technology-Bharatpur Village-RUPBAS BLOCK -RUPBAS DIS- BHARATPUR  9549786858  436  Active  08-10-2014    .52  595.74 
471 990 Amit Kumar 2014-Comtech Institute of Technology-Bharatpur PNB Ke Pass Kumher Bharatpur  9784592620  931  Active  14-10-2014    131.65  0.00 
472 1053 Yogesh Kumar 2014-Comtech Institute of Technology-Bharatpur KALYAN MOHALLA WORD NO.15 KAMAN BHARTAPUR    9875114960  118  Active  21-11-2014    .24  560.69 
473 1067 Shiv Kuamr 2014-Comtech Institute of Technology-Bharatpur SHARMA COMPUTERS NEAR GEETA MANDIR, PAI BAGH BHARATPUR (RAJ.)  9530033717  40  Active  26-11-2014    1808.51  0.26 
474 1069 Ram Niwas Saini 2014-Comtech Institute of Technology-Bharatpur NEAR GOVT. HOSPITAL, BHUWASAR  DISTT- BHARATPUR   9587082198  4762  Active  26-11-2014    51.74  305.74 
475 1108 Ravi Kumar Holker 2014-Comtech Institute of Technology-Bharatpur VILL-BORAI,TEHSIL-KUMHER DISTRICT-BHARATPUR   8952827211  1112  Active  10-12-2014    9178.27  304.05 
476 1117 Rohit Sharma 2014-Comtech Institute of Technology-Bharatpur A - 270 Jawahar Nagar Bharatpur   9828844867  368  Active  15-12-2014    48.75  440.61 
477 1119 Jeetendra singh Dagur 2014-Comtech Institute of Technology-Bharatpur Vill -Purabai khera The - Bayana Dist - Bharatpur  9928690092  391  Active  15-12-2014    7940.61  189.83 
478 1123 Jeetu Goyal 2014-Comtech Institute of Technology-Bharatpur NAGAR ROAD, KOTWALI K SAMNE  DEEG, DISTT- BHARATPUR undefined  05641224021  859  Active  17-12-2014    10.27  5.23 
479 1237 Vishambar 2014-Comtech Institute of Technology-Bharatpur VILLAGE.POST.KHANUA TH.RUPBAS DIST.BHARTAPUR    9887622305  157  Active  29-12-2014    1098.37  265.61 
480 1457 Samim Khan 2014-Comtech Institute of Technology-Bharatpur Seekri Chak No. 1 Sikri Nagar Bharatpur    9929337831  9836  Active  14-03-2015    4116.53  352.88 
481 1484 Mukesh Chand 2014-Comtech Institute of Technology-Bharatpur Atal Seva Kendra Khemra Kalan    9694775375  88  Active  23-03-2015    1010.98  127.77 
482 1514 Mohan Singh 2014-Comtech Institute of Technology-Bharatpur CHHONKAWADA BHUSWAR BHARATPUR    8385834352  202  Active  25-03-2015    3967.95  49.50 
483 1515 Sonu Ram Saini 2014-Comtech Institute of Technology-Bharatpur OLD SABZI MANDI BHUSAWARBHARATPUR    9785004950  238  Active  25-03-2015    4139.01  12.20 
484 1801 Akash Parewa 2014-Comtech Institute of Technology-Bharatpur Infront Of R.K Marbels Behind Pawan Auto Parts Bharatpur    8440901849  Active  06-04-2015    .16  260.79 
485 1817 Ankit Kuntal 2014-Comtech Institute of Technology-Bharatpur G.P Talphara Tehsil Kumher Bharatpur    9785717239  Active  08-04-2015    1.28  122.91 
486 1851 Shokeen 2014-Comtech Institute of Technology-Bharatpur ATAL SEWA KENDRA , BAMANWARI, PAHADI BHARATPUR   BHARATPUR  7877919161  984  Active  14-04-2015    5805.12  0.00 
487 1852 Ved Prakash 2014-Comtech Institute of Technology-Bharatpur G.P. PHULWARA, SEWAR  BHARATPUR   9982594077  268  Active  14-04-2015    137.21  0.00 
488 1853 Omprakash 2014-Comtech Institute of Technology-Bharatpur V&P MAI, NADBAI  BHARATPUR   9001126308  721  Active  14-04-2015    .2  571.50 
489 1855 Yogesh Kumar 2014-Comtech Institute of Technology-Bharatpur V&P IBRAHIMPUR, ROOPBAS  BHARATPUR   8058990788  75  Active  14-04-2015    2946.1  36.51 
490 1963 Chhitar 2014-Comtech Institute of Technology-Bharatpur V&P MAI, NADBAI  BHARATPUR   9636674391  364  Active  20-04-2015    65.65  750.09 
491 2170 Hakmu 2014-Comtech Institute of Technology-Bharatpur ATAL SEVA KENDRA, DHAULET  PAHARI, BHARATPUR undefined  9694786724  Active  26-05-2015    3836.81  124.35 
492 2452 Tej Singh 2014-Comtech Institute of Technology-Bharatpur BARAULI RAN, NADBAI  BHARATPUR   9929996128  870  Active  24-08-2015    168.82  0.26 
493 2493 Bhagat Singh 2014-Comtech Institute of Technology-Bharatpur PAWAN KUNJ COLONY, KAMAN  BHARATPUR   9571816262  100  Active  31-08-2015    937.66  19.07 
494 2494 Dayachand 2014-Comtech Institute of Technology-Bharatpur INDROLI, CHHICHHARWADI  KAMAN, BHARATPUR undefined  8058248257  820  Active  31-08-2015    5450.49  0.00 
495 2566 Geetam Singh 2014-Comtech Institute of Technology-Bharatpur ROOPWAS, MILSVA  KHERIYA BILLOCH   9001115145  1486  Active  08-10-2015    3623.07  73.46 
496 2609 Sunil Kumar 2014-Comtech Institute of Technology-Bharatpur B-NARAYAN GATE DHOBI MOHALLA BHARATPUR    8946908790  961  Active  30-10-2015    577.64  69.98 
497 2610 Bharat Saini 2014-Comtech Institute of Technology-Bharatpur PURANA BUY PASS ROAD NAGAR BHARATPUR    8562010240  2299  Active  30-10-2015    773.02  91.27 
498 2611 Dashrath 2014-Comtech Institute of Technology-Bharatpur RUDABAL ROAD JUHGLA PATTI,UCHCHAIN  RUPBAS BHARATPUR    8504085436  230  Active  30-10-2015    8.36  568.08 
499 2629 Gulshan Singal 2014-Comtech Institute of Technology-Bharatpur B.NARAYAN GATE,ATAL BANDH ROAD BHARATPUR   7791033074  818  Active  05-11-2015    3.44  168.84 
500 2630 Hitesh Kumar 2014-Comtech Institute of Technology-Bharatpur WARD NO. 19, SONPURA TILAK NAGAR BHARATPUR   9587827377  1789  Active  05-11-2015    .94  301.18 
501 2631 Tulsi Das 2014-Comtech Institute of Technology-Bharatpur PANDURI,CHENKARA RUPWAS,BHARATPUR undefined  9166693895  Active  05-11-2015    421.5  0.00 
502 2632 Prem Chand Saini 2014-Comtech Institute of Technology-Bharatpur KANJALI LINE DEEG ROAD BHARATPUR    9680883288  1140  Active  05-11-2015    .74  1521.39 
503 2641 Yunus Khan 2014-Comtech Institute of Technology-Bharatpur VPO-BHATPUR,TECH-NAGAR BHARATPUR   7073793419  1430  Active  10-11-2015    7470.94  0.00 
504 2652 Vikas Agarwal 2014-Comtech Institute of Technology-Bharatpur NEAR GANDHI PARK, PAL BAGH  BHARATPUR   8441982575  36  Active  24-11-2015    .4  495.53 
505 2655 Madhvendra Kumar 2014-Comtech Institute of Technology-Bharatpur BEHIND OLD LAXMAN MANDIR, BHARATPUR    7610921914  103  Active  24-11-2015    .19  269.05 
506 2716 Gokulesh Katara 2014-Comtech Institute of Technology-Bharatpur SUBHASH NAGAR NEAR ADITI CLINIC, GOLPURA ROAD BHARATPUR    7740818852  349  Active  08-12-2015    298.4  0.82 
507 2741 Mazzal Khan 2014-Comtech Institute of Technology-Bharatpur VILL- JATWAS, UDKI DALLA  NAGAR, BHARATPUR undefined  9672281484  6697  Active  14-12-2015    .91  226.01 
508 2743 Indrajeet Singh 2014-Comtech Institute of Technology-Bharatpur Santruk Kumher Bharatpur    9785615761  23  Active  14-12-2015    265.69  119.03 
509 2767 Laxman Singh 2014-Comtech Institute of Technology-Bharatpur AGRASEN SCHOOL KE PASS, SUBHASH NAGAR   BHARATPUR   8058202702  13915  Active  04-01-2016    87.26  420.68 
510 2768 Gulab Singh 2014-Comtech Institute of Technology-Bharatpur GP- GULPADA, BLOCK- NAGARR  BHARATPUR   8741081160  66  Active  04-01-2016    2693.81  108.12 
511 2793 Anil Kumar 2014-Comtech Institute of Technology-Bharatpur WARD NO- 13, NEAR SOLANKI HOSPITAL  BHARATPUR   8503940935  171  Active  06-01-2016    10.13  0.00 
512 2795 Teerath Raj 2014-Comtech Institute of Technology-Bharatpur SALPURPATHI , SIKARI NAGAR, BHARATPUR undefined  9549083991  190  Active  06-01-2016    974.83  6.93 
513 2796 Umesh Chand Saini 2014-Comtech Institute of Technology-Bharatpur VILL- NAYAMADPUR, POST- DHARSONI  WEIR , BHARATPUR undefined  9571805384  Active  06-01-2016    2285.4  0.45 
514 2797 Hitesh Goyal 2014-Comtech Institute of Technology-Bharatpur SUB TEHSIL OFFICE PARAH, BHARATPUR    7891307585  155  Active  06-01-2016    808.39  0.00 
515 2798 Jeetesh Kumar 2014-Comtech Institute of Technology-Bharatpur VPO- KHARERA, UCHAIN   ROOPWAS, BHARATPUR undefined  9887546526  258  Active  06-01-2016    638.4  237.29 
516 2799 Sanjay Singh Yadav 2014-Comtech Institute of Technology-Bharatpur VILL- GULPADA, NAGAR  BHARATPUR   9928795656  1722  Active  06-01-2016    .19  13.69 
517 2800 Harvendra Kumar 2014-Comtech Institute of Technology-Bharatpur Atal Sewa Kendra, Gram Pachayat Dumariya Tehsil Roopwas, Bharatpur   9983939425  740  Active  06-01-2016    1360.93  16.89 
518 2801 Munfaid Khan 2014-Comtech Institute of Technology-Bharatpur JUMMA BANAINI DHONLKA, PADALWAS  TEH-NAGAR, BHARATPUR undefined  9610567110  15  Active  06-01-2016    432.39  105.62 
519 2802 Vishnu Kumar 2014-Comtech Institute of Technology-Bharatpur GP- SOUMKA, TEH- KAMAN  BHARATPUR   9672439280  Active  06-01-2016    1518  0.00 
520 2803 Shailendra Singh 2014-Comtech Institute of Technology-Bharatpur NEAR BUS STAND, SUBHASH NAGAR  BHARATPUR   8947070110  484  Active  06-01-2016    12.21  0.00 
521 2804 Parshottam 2014-Comtech Institute of Technology-Bharatpur KANWARA , TEHSIL- KAMAN  BHARATPUR   8740976447  2182  Active  06-01-2016    .67  27.38 
522 2805 Sirajuddin 2014-Comtech Institute of Technology-Bharatpur ATAL SEWA KENDRA SOMKA, KAMAN  BHARATPUR   8696614061  10  Active  06-01-2016    435.54  0.00 
523 2807 Gordhan Prasad 2014-Comtech Institute of Technology-Bharatpur VILL- SIRROND, RUPWAS  BHARATPUR   7726854458  Active  06-01-2016    0.00 
524 2808 Ravindra Singh 2014-Comtech Institute of Technology-Bharatpur NEAR KANNI GURJAR CIRCLE, BHARATPUR    9928902445  1804  Active  06-01-2016    8.13  345.17 
525 2860 Uttamchand Sharma 2014-Comtech Institute of Technology-Bharatpur ATAL SEVA KENDRA PAR, SEWAR  BHARATPUR   9828356142  17  Active  19-01-2016    806.59  0.93 
526 2861 Devendra Sharma 2014-Comtech Institute of Technology-Bharatpur ATAL SEVA KENDRA PINGORA, NADBAI  BHARATPUR   8739826723  83  Active  19-01-2016    1576.56  879.67 
527 2868 Veerendra Kumar 2014-Comtech Institute of Technology-Bharatpur BYANA ROAD JARILA, BHAWANPURA  ROOPBAS, BHARATPUR undefined  9772300192  Active  25-01-2016    73.01 
528 2869 Omprakash 2014-Comtech Institute of Technology-Bharatpur EMITRA PAY POINT NAGLA MAI, GP- MAI  NADMAI, BHARATPUR undefined  9001126308  Active  25-01-2016    25.71  0.46 
529 2875 Bajib 2014-Comtech Institute of Technology-Bharatpur VILL DUNAWAL, NAGAR   BHARATPUR   9057977653  Active  28-01-2016    .75  0.00 
530 2876 Lavesh Mudgal 2014-Comtech Institute of Technology-Bharatpur SHARMA EMITRA KENDRA, KHEDIYA MODE  NADBAI, BHARATPUR undefined  7737303119  13  Active  28-01-2016    .73  5.23 
531 2877 Rajveer Singh 2014-Comtech Institute of Technology-Bharatpur NET WEB SOFT EMITRA CENTER, NEAR SARAS HOTEL  VIJAYNAGAR, BHARATPUR undefined  8233196869  Active  28-01-2016    .16  0.00 
532 2878 Balram Singh 2014-Comtech Institute of Technology-Bharatpur BAJRANG ROJGAR CENTER, BACHHAMADI  SEWAR, BHARATPUR undefined  9549959201  15  Active  28-01-2016    76.79  82.14 
533 2880 Mubeen Khan 2014-Comtech Institute of Technology-Bharatpur ATAL SEVA KENDRA PAPRA, TEH- PAHARI  BHARATPUR   9887345240  Active  28-01-2016    3243.75  0.00 
534 2881 Vivek Kumar 2014-Comtech Institute of Technology-Bharatpur ATAL SEVA KANDRA DAHINA GAUV,ROOPBAS BHARATPUR   8058329140  387  Active  28-01-2016    64.03  0.00 
535 2882 Pramod Yadav 2014-Comtech Institute of Technology-Bharatpur ATAL SEWA KENDRA JHAROLI, SEWAR  BHARATPUR   8432182838  Active  28-01-2016    425.78  0.92 
536 2895 Shokeen 2014-Comtech Institute of Technology-Bharatpur E-MITRA PAY POINT KUKARPURI GP:BAMANWARI PANCHYAT SAMITI:-PAHADI, BHARATPUR    7877919161  Active  30-01-2016    -.2  0.00 
537 2902 Anil Kumar 2014-Comtech Institute of Technology-Bharatpur NEAR BUS STAND PAHARI,BHARATPUR    9509274849  10  Active  02-02-2016    1653.3  417.68 
538 2904 Pramod Kumar 2014-Comtech Institute of Technology-Bharatpur VPO EAWARA KUMHER,BHARATPUR    9667429101  Active  02-02-2016    68.25  0.00 
539 2905 Satyendra Singh 2014-Comtech Institute of Technology-Bharatpur VILL-MUDHERA,BHARATPUR    9460925072  5688  Active  02-02-2016    .87  336.49 
540 2936 Jitendra Kumar 2014-Comtech Institute of Technology-Bharatpur E-MITRA PAY POINT JURHARIGP:PAI, KAMAN BHARATPUR    8440810723  Active  04-02-2016    -.21  36.51 
541 2985 Susheela Devi 2014-Comtech Institute of Technology-Bharatpur E-MITRA PAY POINT BIRAR GP:SABLANA KAMAN BHARATPUR    9680135253  Active  09-02-2016    -.16  9.13 
542 3005 Robin Kumar 2014-Comtech Institute of Technology-Bharatpur ROBIN EMITRA CENTER, NEAR BUS STAND  KHUMHER, BHARATPUR undefined  7691804811  Active  11-02-2016    3.56  54.76 
543 3008 Dharm Singh 2014-Comtech Institute of Technology-Bharatpur CHHOTE RAM JI MANDIR, HIGH SCHOOL KE PASS  KAMAN, BHARATPUR undefined  9549914172  1930  Active  12-02-2016    23.58  18.25 
544 3010 Bhola Ram 2014-Comtech Institute of Technology-Bharatpur NIKKI COMPUTERS & EMITRA CENTER NAJDEEKI PETROL PUMP KE SAMNE, PAHARI  BHARATPUR   9529825570  Active  12-02-2016    563.25  0.00 
545 3011 Tej Singh Yadav 2014-Comtech Institute of Technology-Bharatpur GP-BERRU,TEH-NAGAR BHARATPUR   9772676379  Active  12-02-2016    206.68  3.40 
546 3012 Abhay Singh Chaudhary 2014-Comtech Institute of Technology-Bharatpur ATAL SEVA KENDRA , WEIR  BHARATPUR   9929452588  180  Active  12-02-2016    0.00 
547 3013 Monu Kumar 2014-Comtech Institute of Technology-Bharatpur ATAL SEWA KENDRA KHEDI DEVI SINGH, NADBAI  BHARATPUR   8386840056  189  Active  12-02-2016    13.02  0.00 
548 3014 Manoj Kumar Yadav 2014-Comtech Institute of Technology-Bharatpur ATAL SEWA KENDRA, BERRO  BHARATPUR   9828741131  1591  Active  12-02-2016    71.64  0.00 
549 3049 Santosh Kumar 2014-Comtech Institute of Technology-Bharatpur VPO- KHAKHAWALI, NAGAR  BHARATPUR   9828622644  Active  17-02-2016    0.00 
550 3050 Kumarpal 2014-Comtech Institute of Technology-Bharatpur VPO- BARAHI, DEEG  BHARATPUR   9887691796  90  Active  17-02-2016    57.75  283.66 
551 3051 Neha Jain 2014-Comtech Institute of Technology-Bharatpur INDRA CHOWK KUMHER,TEH-KUMHER BHARATPUR   9460877077  1887  Active  17-02-2016    .42  317.06 
552 3052 Bhagat Singh 2014-Comtech Institute of Technology-Bharatpur SONKH ROAD, KUMHER  BHARATPUR   9414483985  Active  17-02-2016    0.00 
553 3072 Ramgopal Singh 2014-Comtech Institute of Technology-Bharatpur E-MITRA PAY POINT KARUA GP:TAMRER, KUMHER BHARATPUR    8426919293  Active  23-02-2016    84.75  0.00 
554 3096 Zakir Husain 2014-Comtech Institute of Technology-Bharatpur EMITRA PAY POINT RANIYALA,GP-JAISHREE PS-NAGAR,BHARATPUR undefined  9772307016  Active  29-02-2016    0.00 
555 3097 Rajender Kumar 2014-Comtech Institute of Technology-Bharatpur SHIVAM STUDIO , SAHYOG NAGAR  BHARATPUR   9785613357  107  Active  29-02-2016    .41  157.70 
556 3111 Sajid Khan 2014-Comtech Institute of Technology-Bharatpur VILL- BILOND, KAMAN   BHARATPUR   7691828384  Active  01-03-2016    0.00 
557 3143 Nagendra Singh 2014-Comtech Institute of Technology-Bharatpur Heeradas Central Bus Stand Ke Samne, Khadi Bhandar Ki Bagal Main  Bharatpur   9166862393  1337  Active  03-03-2016    .8  588.67 
558 3144 Tahir Mohammad 2014-Comtech Institute of Technology-Bharatpur ATAL SEVA KENDRA LADAMKA, PS- PAHARI  BHARATPUR   9828554381  Active  03-03-2016    0.00 
559 3160 Harish Khan 2014-Comtech Institute of Technology-Bharatpur Village ,Bhori Bhartpur    9996395786  Active  09-03-2016    0.00 
560 3161 Imran 2014-Comtech Institute of Technology-Bharatpur VILL-SIKRI,PS-NAGAR BHARATPUR   7732861901  Active  09-03-2016    0.00 
561 3162 Lokesh Mahavar 2014-Comtech Institute of Technology-Bharatpur UCHAIN,RUPBAS BHARATPUR   9950324410  Active  09-03-2016    0.00 
562 3284 Sirajuddin 2014-Comtech Institute of Technology-Bharatpur VILL-DHANA,GP-SOMKA TEH-PAHARI,BHARATPUR undefined  8696614061  Active  01-04-2016    0.00 
563 3285 Mustufa 2014-Comtech Institute of Technology-Bharatpur EMITRA PAY POINT KHERIL NANOO,GP-GHOSEENGA PS-PAHAI,BHARATPUR undefined  8058532828  Active  01-04-2016    0.00 
564 3360 Saurabh Kumar 2014-Comtech Institute of Technology-Bharatpur NEAR BAGARWALA SHOWROOM,OLD LAXMAN MANDIR BHARATPUR   8058577992  714  Active  14-04-2016    35.37  226.70 
565 3361 Deepak Mishra 2014-Comtech Institute of Technology-Bharatpur R.D. GIRLS COLLEGE, NEAR GAYATRI TEMPLE  KILA, BHARATPUR undefined  8386803247  Active  14-04-2016    0.00 
566 3362 Yogesh Kumar 2014-Comtech Institute of Technology-Bharatpur V&P-KURKA,TEH-ROOPBAS BHARATPUR   9982768963  Active  14-04-2016    0.00 
567 3363 Sintoo Singh 2014-Comtech Institute of Technology-Bharatpur V&P-MADHONI,BLOCK-SEWAR BHARATPUR   8875557735  Active  14-04-2016    0.00 
568 3393 Satyapal Harsainia 2014-Comtech Institute of Technology-Bharatpur TODAY INFORMATICS CENTER, INDRA NAGAR  HEERADAS, BHARATPUR undefined  7597412603  355  Active  21-04-2016    41.07 
569 3459 Savir 2014-Comtech Institute of Technology-Bharatpur SAVIR EMITRA CENTER, JURHERA   PAHARI, BHARATPUR undefined  9587689025  Active  05-05-2016    0.00 
570 3460 Bhawani Singh Yadav 2014-Comtech Institute of Technology-Bharatpur VPO- PALKA, TEH- NAGAR  BHARATPUR   9672831095  Active  05-05-2016    0.00 
571 3461 Yogesh 2014-Comtech Institute of Technology-Bharatpur BEHIND ANAND SCHOOL, SHASTRI NAGAR   BHARATPUR   8385999640  140  Active  05-05-2016    1500  9.13 
572 3470 Manish 2014-Comtech Institute of Technology-Bharatpur ATAL SEVA KENDRA BARAI, DEEG  BHARATPUR   8440017001  Active  10-05-2016    0.00 
573 3509 Mahendra Kumar 2014-Comtech Institute of Technology-Bharatpur SIKARI CHAK NO 1,VILL-SIKARI PS-NAGAR,BHARATPUR undefined  9667935096  Active  24-05-2016    0.00 
574 3510 Ajay Singh 2014-Comtech Institute of Technology-Bharatpur NIDHI EMITRA CENTER, VILL- MAHARAIPUR  POST- JHANJHAR, TEH- NAGAR  BHARATPUR  9610081240  Active  24-05-2016    0.00 
575 3511 Manga Ram Saini 2014-Comtech Institute of Technology-Bharatpur BHARATI EMITRA CENTER, VPO- SIKARI  TEH- NAGAR, BHARATPUR undefined  7891822503  Active  24-05-2016    0.00 
576 3512 Pankaj Sharma 2014-Comtech Institute of Technology-Bharatpur 351, RAJENDRA NAGAR  BHARATPUR   9024151282  Active  24-05-2016    0.00 
577 3513 Rajesh Kumar Gaur 2014-Comtech Institute of Technology-Bharatpur NEAR PNB BANK JURHERA, KAMAN  BHARATPUR   9460318717  Active  24-05-2016    0.00 
578 3514 Lokendra Singh 2014-Comtech Institute of Technology-Bharatpur LOKENDRA EMITRA CENTER, DEEG WALI CHUNGI  NAGAR, BHARATPUR undefined  9785134192  Active  24-05-2016    0.00 
579 3525 Love Kumar 2014-Comtech Institute of Technology-Bharatpur EMITRA PAY POINT JAREELA,GP- BHAVANPURA  RUPBAS, BHARATPUR  undefined  9982751032  Active  25-05-2016    0.00 
580 3530 Shivjeet 2014-Comtech Institute of Technology-Bharatpur ANAND NAGAR, SEWAR BYPASS  BHARATPUR   9460911616  Active  26-05-2016    0.00 
581 3533 Than Singh 2014-Comtech Institute of Technology-Bharatpur ATAL SEWA KENDRA, SOGAR  KUMHER, BHARATPUR undefined  9782063329  Active  27-05-2016    0.00 
582 3538 Ranjit Singh 2014-Comtech Institute of Technology-Bharatpur NEAR RTO OFFICE, KESHAV NAGAR  BHARATPUR   9785265908  Active  27-05-2016    0.00 
583 3542 Pradeep Kumar Saini 2014-Comtech Institute of Technology-Bharatpur BANKEY BIHARI EMITRA CENTER, NEAR CANERA BANK  NADBAI, BHARATPUR undefined  8963891892  Active  30-05-2016    0.00 
584 1434 Pushpendra Kumar 2014-CMS eMitra-Bharatpur Main Kachari Road Bayana Dis. Bharatpur    05648-225122  164  Active  02-03-2015    239.37  84.11 
585 1435 Yashwant Yadav 2014-CMS eMitra-Bharatpur GARM BISDA POST JHAROLI SEWAR BHARATPUR    8432182838  14  Active  02-03-2015    6199.18  45.21 
586 1511 Mahesh Chand 2014-CMS eMitra-Bharatpur Gram Sendhli Weir Bharatpur    9887091919  388  Active  25-03-2015    1700.61  396.43 
587 1512 Bhagwan Singh 2014-CMS eMitra-Bharatpur Gram Itamda Bhusawar Bharatpur    9887847501  3310  Active  25-03-2015    24669.73  126.83 
588 2134 Naresh Chand Gupta 2014-CMS eMitra-Bharatpur KAKAJI MARKET KE PASS CHOUBURJA BAZAR BHARATPUR    9413650001  95  Active  14-05-2015    1507.28  359.90 
589 2221 Indar Singh 2014-CMS eMitra-Bharatpur GRAM-GIVINDPURA POST-MUHARI WEIR BHARATPUR    05643272582  2214  Active  29-05-2015    3906.97  342.25 
590 2223 Jitendra Prakash 2014-CMS eMitra-Bharatpur Jawahar Nagar Bharatpur     8829839877  Active  29-05-2015    23.32  117.54 
591 2481 Govind Singh 2014-CMS eMitra-Bharatpur BAGHEL PHOTO STATE,HELAK CHORAHA  SAVER, BHARATPUR undefined  9785139859  2364  Active  28-08-2015    364.63  606.22 
592 2592 Prabhu Dayal 2014-CMS eMitra-Bharatpur GRAM PANHORI TEH. DEEG BHARATPUR    9785622773  7950  Active  19-10-2015    25.5  0.00 
593 2634 Manoj Kumar Katara 2014-CMS eMitra-Bharatpur Ganpati Market Anah Gate Bharatpur Raj.    9461462215  26  Active  06-11-2015    257.92  50.93 
594 3057 Rajkumar 2014-CMS eMitra-Bharatpur Umra,Au.Deeg Bharatpur   9982240193  Active  17-02-2016    0.00 
595 3374 Vishal 2014-CMS eMitra-Bharatpur Vishal Emitra Center Binarayan Gate Bharatpur    8502879450  245  Active  18-04-2016    129.10 
596 3375 Shiv Prasad 2014-CMS eMitra-Bharatpur Emitra Center Kumher Bharatpur    8696014571  Active  18-04-2016    0.00 
597 3429 Suresh Chand 2014-CMS eMitra-Bharatpur Emitra Pay PointGram Arauda Hantra Nadbai Bharatpur    9057778495  Active  29-04-2016    0.00 
598 3430 Pooran Singh 2014-CMS eMitra-Bharatpur Emitra Pay PointGram Sadhpura Purwai Kheda Bayana Bharatpur    7690951414  Active  29-04-2016    0.00 
599 3431 Ramveer Singh 2014-CMS eMitra-Bharatpur Emitra Pay PointGram Thikariya Brodha Bayana Bharatpur    8696546769  Active  29-04-2016    0.00 
600 3432 Jawahar Singh 2014-CMS eMitra-Bharatpur Emitra Pay PointGram Bhootka Muriya Nagar Bharatpur    9929816348  Active  29-04-2016    0.00 
601 3433 Sunil Kumar 2014-CMS eMitra-Bharatpur Emitra Pay PointGram Sasaina Weir Bharatpur    8094505869  Active  29-04-2016    0.00 
602 3434 Anju Kumar 2014-CMS eMitra-Bharatpur Emitra Pay Point Gram Dharsoni Weir Bharatpur    9460649964  Active  29-04-2016    0.00 
603 3435 Rajendra Singh 2014-CMS eMitra-Bharatpur Vill. Moraka, Teh. Nagar  Bharatpur   9001922197  Active  29-04-2016    0.00 
604 3436 Meghraj 2014-CMS eMitra-Bharatpur Emitra Pay PointGram Kurkain Aalamshah Nagar Bharatpur    8058912838  Active  29-04-2016    0.00 
605 3437 Lakhan Singh 2014-CMS eMitra-Bharatpur Emitra Pay PointGram Khanpur Jarothi Weir Bharatpur    9549126940  Active  29-04-2016    0.00 
606 3438 Pankaj Kumar Verma 2014-CMS eMitra-Bharatpur Emitra Pay PointGram+Post Bachhren Wair Bharatpur    8441809880  Active  29-04-2016    0.00 
607 3439 Pankaj Kumar Verma 2014-CMS eMitra-Bharatpur Emitra Pay PointGram+Post Bachhren Wair Bharatpur    8441809880  Active  29-04-2016    0.00 
608 3440 Arif Khan 2014-CMS eMitra-Bharatpur Emitra Pay PointGram Arsi Nagar Bharatpur    9672204915  Active  29-04-2016    0.00 
609 3480 Jaiveer Singh 2014-CMS eMitra-Bharatpur Emitra Pay PointGram Habeebpur Post Par Sewar Bharatpur    9460454182  Active  17-05-2016    0.00 
610 3481 Ravindra Kumar Verma 2014-CMS eMitra-Bharatpur Emitra Pay PointGram  Salempur Khurd Post Salempur Khurd The. Bhusawar Bharatpur    8058947783  Active  17-05-2016    0.00 
611 3482 Salman Khan 2014-CMS eMitra-Bharatpur Emitra Pay Point Gram Chak Cheluwa, Fatehpur Nagar Bharatpur    8058481135  Active  17-05-2016    0.00 
612 3483 Jaikam Khan 2014-CMS eMitra-Bharatpur Vill. Semla Kalan, Teh. Nagar  Bharatpur.   9887156024  Active  17-05-2016    0.00 
613 3484 Lekhraj 2014-CMS eMitra-Bharatpur Emitra Pay PointGram Kumharedi Chirawal Mali Nagar Bharatpur    8440029807  Active  17-05-2016    0.00 
614 3485 Islam 2014-CMS eMitra-Bharatpur Emitra Pay PointGram Vadhaka Aalamshah Nagar Bharatpur    9672106851  Active  17-05-2016    0.00 
615 3486 Lakhan Singh 2014-CMS eMitra-Bharatpur Emitra Pay PointGram Nagla Khatka NahroliRudawal Bayana Bharatpur    8058673074  Active  17-05-2016    0.00 
616 3487 Ramveer Singh 2014-CMS eMitra-Bharatpur Emitra Pay PointGram Jaghina Sewar Bharatpur    7222877701  Active  17-05-2016    0.00 
617 3488 Soran Singh 2014-CMS eMitra-Bharatpur Emitra Pay Point Gram Ravidaspura Gangwak Nagar Bharatpur    9772656530  Active  17-05-2016    0.00 
618 3489 Vahid Khan 2014-CMS eMitra-Bharatpur Emitra Pay Point Gram Gahankar Pandaka Nagar Bharatpur    9549811391  Active  17-05-2016    0.00 
619 3490 Shashi Kumar 2014-CMS eMitra-Bharatpur Emitra Pay Point Gram Rund Helak Bari Rund Helak Kumher Bharatpur    8560934380  Active  17-05-2016    0.00 
620 3494 Bhedram 2014-CMS eMitra-Bharatpur V PO Bhandara Teh. Kaman Bharatpur    9672110566  Active  20-05-2016    0.00 
621 3495 Mohammad Ali Khan 2014-CMS eMitra-Bharatpur Emitra Pay PointGram Birgawan Fetehpur Kalan Nagar Bharatpur    9610567121  Active  23-05-2016    0.00 
622 3496 Aslam Khan 2014-CMS eMitra-Bharatpur Emitra Pay PointGram Somsi Fetehpur Kalan Nagar Bharatpur    7665375275  Active  23-05-2016    0.00 
623 3497 Dharam Singh 2014-CMS eMitra-Bharatpur Salempur Khurd, Bharatpur.    7665905955  Active  23-05-2016    0.00 
624 3498 Puspendra Singh 2014-CMS eMitra-Bharatpur Vill. Bagh Ka Nagla.Talphara,Kumher  Bharatpur.   8890666151  Active  23-05-2016    0.00 
625 3499 Gopesh Kumar Jatav 2014-CMS eMitra-Bharatpur Emitra Pay PointGram Uloo Kamalpura Bhusawar Bharatpur    9166708911  Active  23-05-2016    0.00 
626 3500 Omprakash 2014-CMS eMitra-Bharatpur Emitra Pay PointGram Jindpura Baridha Roopwas Bharatpur     8740052097  Active  23-05-2016    0.00 
627 3501 Bachchu Singh 2014-CMS eMitra-Bharatpur Emitra Pay Point Bhagora Lakhanpur Weir Bharatpur    9602599476  Active  23-05-2016    0.00 
628 3502 Ajeet Kumar 2014-CMS eMitra-Bharatpur Emitra Pay PointGram Gunsara Kumher Bharatpur    7792826642  Active  23-05-2016    0.00 
629 3503 Mahendra Singh 2014-CMS eMitra-Bharatpur Emitra Pay Point Gram Vijay Nagar Rundh Helak Bharatpur     9783184960  Active  23-05-2016    0.00 
630 3504 Asalam Khan 2014-CMS eMitra-Bharatpur Emitra Pay Point Gram Veerthala Mudoti Nagar Bharatpur    9928212380  Active  23-05-2016    0.00 
631 833 pradlad shing 2014-Vakrangee-Bharatpur jaya usrani kumher bharatpur   9667039751  23  Active  02-09-2014    2477.7  91.27 
632 834 moti ram 2014-Vakrangee-Bharatpur khan khera dist:- bharatpur   8890214708  318  Active  02-09-2014    12879.77  1110.48 
633 836 pushp lata 2014-Vakrangee-Bharatpur vpo-jharonti block-weit bharatpur  9414681595  Active  02-09-2014    39.82  150.94 
634 837 Shyambeer Chauhan 2014-Vakrangee-Bharatpur vpo-kharera block:-rupbas bharatpur  9414975080  2104  Active  02-09-2014    342.65  75.24 
635 838 radhe shyam 2014-Vakrangee-Bharatpur singhara block bayana bharatpur  9887368316  1717  Active  02-09-2014    44.13  1199.37 
636 839 Pramod Kumar 2014-Vakrangee-Bharatpur VPO - Siras BLOCK - Weirs Dist - Bharatpur  9887223330  1382  Active  03-09-2014    18.9  127.77 
637 844 Raj kumar 2014-Vakrangee-Bharatpur VPO - Reethauthi Block - Kunher Dist - Bharatpur  9783924366  28  Active  03-09-2014    826.28  275.41 
638 848 Ravindra Kumar Meena 2014-Vakrangee-Bharatpur VPO- Chaintoli, Block - Weir Dist. - Bharatpur  9468666284  430  Active  04-09-2014    5803.83  643.08 
639 849 Ashok Lawaniya 2014-Vakrangee-Bharatpur VPO- Halena,  Block - Weir Dist. - Bharatpur  9414903955  963  Active  04-09-2014    80.59  1829.89 
640 851 Vipin Kumar 2014-Vakrangee-Bharatpur sikandara Block - Bayana Disst. - Bharatpur  8094283058  127  Active  04-09-2014    8.1  242.29 
641 852 Raju Singh 2014-Vakrangee-Bharatpur Takha, G/P - Ta Kha  block - Kumher Disst. - Bharatpur  9694341720  3562  Active  04-09-2014    3114.49  156.96 
642 853 Lokesh Kumar 2014-Vakrangee-Bharatpur Kot  Bayana Bharatpur  9799320408  10  Active  04-09-2014    732.65  18.25 
643 854 Prathveeraj 2014-Vakrangee-Bharatpur Baroda Ayana Disst. - Bhartpur  8003686804  398  Active  04-09-2014    7197.5  427.04 
644 903 Gaurav Kumar 2014-Vakrangee-Bharatpur VPO- Khandewla Block - Nagar Dist. - Bharatpur  9461080611  185  Active  17-09-2014    9788.85  168.52 
645 904 Haripal 2014-Vakrangee-Bharatpur Ward No. 13  Naharganj mohalla Kumher Bharatpur  9460659190  17933  Active  17-09-2014    3.82  355.94 
646 905 Naresh Kumar Sharma 2014-Vakrangee-Bharatpur Gangora, Nagar Bharatpur  8094577032  5598  Active  17-09-2014    1324.17  127.37 
647 906 Rajesh Kumar 2014-Vakrangee-Bharatpur Nagla Heeradas, Opp Numaish Ground Bharatpur  9309314407  307  Active  17-09-2014    .96  447.20 
648 922 PRADEEP SINGH 2014-Vakrangee-Bharatpur Ward no 16 Neeraj Mishthan Bhandhar Ke Pichhe Kumher Bhartpur   9166545061  915  Active  19-09-2014    .66  1079.59 
649 925 Poonam Chand Saini 2014-Vakrangee-Bharatpur Barauli  Weir,Bharatpur   9782754965  958  Active  20-09-2014    .37  59.32 
650 926 Rajendra Kumar Sharma 2014-Vakrangee-Bharatpur Sharma Computers, Khodi Mod Deeg Road, Nagar Bharatpur  9828537748  12635  Active  20-09-2014    .71  333.12 
651 935 Bhagwan Singh Meena 2014-Vakrangee-Bharatpur Barkhera  Bayana Bharatpur  9414890478  1472  Active  26-09-2014    9128.4  896.03 
652 936 Anil Kumar Mathur 2014-Vakrangee-Bharatpur Mathur Internet & Emitra Center Basan Gate Kotwali Bharatpur  9571511899  4235  Active  26-09-2014    .75  2627.40 
653 937 Khushi Ram 2014-Vakrangee-Bharatpur Nagla Beeja Rupbas Bharatpur  9784309994  761  Active  26-09-2014    118.47  38.51 
654 938 RAJENDRA DAGUR 2014-Vakrangee-Bharatpur Dagur emitra V/P nagar Teh- nagar near govt hospital Bhartpur   9667175659  15595  Active  26-09-2014    .82  69.18 
655 939 Sanjay Singh 2014-Vakrangee-Bharatpur Peepla Sewar Bharatpur  9782599434  629  Active  26-09-2014    5.45  74.96 
656 941 SHER SINGH 2014-Vakrangee-Bharatpur Cheema emitra Nand Hotel ke pass ward no 19 Bhartpur   9828580712  8902  Active  26-09-2014    68.57  938.48 
657 943 JUGAL BIHARI 2014-Vakrangee-Bharatpur Purohit emitra center kotwali bazar near sitaramji mandir Bhartpur   9783319205  306  Active  26-09-2014    1.23  15.68 
658 945 SANJAY KUMAR 2014-Vakrangee-Bharatpur Sanjay emitra Ward no 05 Near Panchyat Samiti Sewar Bhartpur   9928816222  603  Active  26-09-2014    5.76  31.18 
659 946 JITENDRA KUMAR 2014-Vakrangee-Bharatpur Jitendra emitra center Kumher Bhartpur   8003601746  2596  Active  26-09-2014    .03  187.76 
660 959 Shiv Kumar Sharma 2014-Vakrangee-Bharatpur Marauli, Rupbas Bharatpur   9785719204  1152  Active  08-10-2014    18.81  1310.75 
661 968 Rohit Sharma 2014-Vakrangee-Bharatpur Tilak Nagar Bharatpur   8003391909  16070  Active  09-10-2014    607.39  21.28 
662 969 Paras Ram Saini 2014-Vakrangee-Bharatpur Near Bus Stand Deeg Bharatpur   9529003555  2147  Active  09-10-2014    657.07  139.64 
663 1024 Manoj Kumar 2014-Vakrangee-Bharatpur Kumher Road Bohra Market,Bharatpur    9983664711  2397  Active  29-10-2014    50.34  798.21 
664 1025 Kali Charan 2014-Vakrangee-Bharatpur Jahangeerpur,Nadbai,Bharatpur     9602761341  946  Active  29-10-2014    28028.36  101.68 
665 1026 Parasram 2014-Vakrangee-Bharatpur Talchhera,Nadbai,Bharatpur    9667865574  Active  29-10-2014    9234.68  1.21 
666 1049 Bhupendra Singh 2014-Vakrangee-Bharatpur Padawali,Bayana Bharatpur   9636059531  76  Active  21-11-2014    .37  94.05 
667 1054 Hemendra Kumar 2014-Vakrangee-Bharatpur VPO-Dandoo,Block-Kumher Distt.-Bharatpur   9785202112  368  Active  21-11-2014    4.47  37.06 
668 1055 Jitendra Singh 2014-Vakrangee-Bharatpur VPO-Thana Dang,Block-Bayana Distt.-Bharatpur   8740979934  897  Active  22-11-2014    5199.88  237.53 
669 1056 Irfan 2014-Vakrangee-Bharatpur VPO-Nagla Kundan,Block-Kaman Distt.-Bharatpur   9982562793  1355  Active  22-11-2014    10.6  74.01 
670 1063 Jagat Singh 2014-Vakrangee-Bharatpur VPO-Karwari,Block-Bayana Distt.-Bharatpur   9875036609  Active  25-11-2014    -23.36  1.88 
671 1070 Anil Kumar 2014-Vakrangee-Bharatpur Anil Emitra,Bapu Bazar Nagar,Bharatpur undefined  9784397159  5182  Active  26-11-2014    36.12  709.02 
672 1071 Saurabh Godha 2014-Vakrangee-Bharatpur Near Kotwali,Chauturja Bharatpur   9509618018  1395  Active  26-11-2014    .43  2279.83 
673 1084 Sarita 2014-Vakrangee-Bharatpur Bahra Rekhapur,Rupbas Bharatpur   8058592215  11  Active  27-11-2014    659.32  0.00 
674 1085 Kapil Goyal 2014-Vakrangee-Bharatpur BAYANA, BHARATPUR   RAJASTHAN,PIN CODE NO - 321401 undefined  9667548958  42  Active  27-11-2014    43.14  109.18 
675 1087 Hemant Kumar 2014-Vakrangee-Bharatpur Nigohi,Deeg Bharatpur   8239774703  Active  27-11-2014    1631.26  0.00 
676 1089 Raju Pachahara 2014-Vakrangee-Bharatpur Bandha Chauth,Deeg Bharatpur   9413590442  1085  Active  27-11-2014    656.48  14.35 
677 1091 Ravi Kumar 2014-Vakrangee-Bharatpur Nahroli Deshwar,Shishwada Deeg,Bharatpur undefined  8875023730  8918  Active  27-11-2014    635.68  82.96 
678 1103 Pushpendra Singh 2014-Vakrangee-Bharatpur Piprau,Block-NAdbai Distt.-BharatpUr   9166662311  Active  04-12-2014    0.00 
679 1104 Narendra Kumar 2014-Vakrangee-Bharatpur VPO-Sedpura,Block-Rupbas Distt.-Bharatpur   05645276427  1252  Active  04-12-2014    4136.88  359.98 
680 1114 Bhag Chand Saini 2014-Vakrangee-Bharatpur Chak Dharsoni,Block-Weir Distt.-BhAratpur   9414758409  14  Active  11-12-2014    .57  73.01 
681 1115 Pradeep Kumar 2014-Vakrangee-Bharatpur Agarwal Printer,Weir Bharatpur   9414713614  862  Active  11-12-2014    1244.88  5.23 
682 1116 Rajkumar 2014-Vakrangee-Bharatpur Malipura,Sewar Bharatpur   9782734407  187  Active  11-12-2014    967.78  0.00 
683 1128 Harish Kumar 2014-Vakrangee-Bharatpur VPO-Rarah,Block-Kumher Distt.-Bharatpur   9782506026  4349  Active  18-12-2014    134.31  443.33 
684 1129 Areef Khan 2014-Vakrangee-Bharatpur Malki,Nagar Bharatpur   9828171290  10  Active  18-12-2014    20.32  71.69 
685 1136 Jitendra Singh 2014-Vakrangee-Bharatpur Village Nonera Thesil Kaman    7690908990  43  Active  19-12-2014    173.99  118.87 
686 1137 Rahul Bansal 2014-Vakrangee-Bharatpur Mangal Colony Rudaval    9875203203  351  Active  19-12-2014    .91  18.25 
687 1138 Hardev Singh 2014-Vakrangee-Bharatpur Village Januthar Deeg Bharatpur    8504925138  Active  19-12-2014    .41  199.56 
688 1139 Ved Prakash Saini 2014-Vakrangee-Bharatpur Near Tehsil Kaman    05641230758  852  Active  19-12-2014    .77  4.56 
689 1140 Hitesh Garg 2014-Vakrangee-Bharatpur Jurhera Kaman    9549677294  465  Active  19-12-2014    11100.48  406.14 
690 1219 Rajveer Singh 2014-Vakrangee-Bharatpur RARODA , KHAN KHEDA  BAYANA ,BHARATPUR undefined  9828835905  311  Active  22-12-2014    3866.7  132.17 
691 1221 Shailender Kumar Saini 2014-Vakrangee-Bharatpur Nai Sadak Deeg    05641220230  1083  Active  23-12-2014    .43  816.81 
692 1232 Ashish Kumar 2014-Vakrangee-Bharatpur VPO-Gurdha Nadi,Block-Bayana Distt.-Bharatpur   8290557872  34  Active  26-12-2014    77.47  85.26 
693 1238 Ram Babu 2014-Vakrangee-Bharatpur Near Chotala Ki Shop  Subhash Nagar Bharatpur   9680834848  5341  Active  29-12-2014    294.59  2178.06 
694 1239 Hem Kumar 2014-Vakrangee-Bharatpur Bhuda Gate Deeg    05641220016  5467  Active  29-12-2014    .11  1968.77 
695 1240 Gulshan Sharma 2014-Vakrangee-Bharatpur Rajiv Gandhi Seva Kendra Village Post Bachhmadi(Noh)Bharatpur    7611851998  14  Active  29-12-2014    335.24  275.62 
696 1242 Suneel Kumar 2014-Vakrangee-Bharatpur INFRONT OF SBBJ BANK, ARYA SAMAJ ROAD  BAYANA, BHARATPUR undefined  8432663479  185  Active  07-01-2015    53.2  421.83 
697 1243 Subran Singh 2014-Vakrangee-Bharatpur JANOOTHAR, TEHSIL - DEEG  BHARATPUR   9829547617  1023  Active  07-01-2015    .1  78.24 
698 1247 Navdeep Singh 2014-Vakrangee-Bharatpur RAJIV GANDHI KENDRA KHER,BAYANA BHARATPUR(RAJASTHAN)   9694716874  9925  Active  07-01-2015    2047.12  648.03 
699 1248 Raju Lal 2014-Vakrangee-Bharatpur Ghor Mahua Sawer    7891035727  5473  Active  07-01-2015    .47  1682.07 
700 1262 Manish Chhabra 2014-Vakrangee-Bharatpur SHIV NAGAR, BEHING SINGHAL OIL MILL  BHARATPUR   8854878487  2409  Active  10-01-2015    .53  160.81 
701 1264 Akhalesh Kumar 2014-Vakrangee-Bharatpur GARG CYBER ZONE, ATALBAND  BHARATPUR   9549973808  459  Active  10-01-2015    .56  144.79 
702 1268 Mohit Kumar 2014-Vakrangee-Bharatpur Near Pashu Hosptal, Kachahari Road  Bharatpur   9461868469  4755  Active  12-01-2015    .6  2486.27 
703 1280 Girish Kumar 2014-Vakrangee-Bharatpur INFRONT OF SAMUDAYAK BHAWAN, RIICO ROAD  BHARATPUR   8952043136  933  Active  16-01-2015    .01  423.92 
704 1289 Dharmender Singh 2014-Vakrangee-Bharatpur VPO-Pali,Block-Weir Distt.-Bharatpur   9928134310  13715  Active  21-01-2015    .97  96.49 
705 1290 Sakir Husain 2014-Vakrangee-Bharatpur Ladamka,Nagar Bharatpur   9772603960  49  Active  21-01-2015    2412.37  2111.16 
706 1291 Ganga Singh Yadav 2014-Vakrangee-Bharatpur VPO-Dhilawati,Block-Kaman Distt.-Bharatpur   7568257478  199  Active  21-01-2015    50.88  234.71 
707 1292 Ram Gopal 2014-Vakrangee-Bharatpur INFRONT OF MSJ COLLAGE, BHARATPUR    9782290010  13647  Active  21-01-2015    24.25  68.45 
708 1295 Mohini Dubey 2014-Vakrangee-Bharatpur Behind Kendriya Bus Stand, Bharatpur    8058276502  1068  Active  22-01-2015    6.64  654.18 
709 1298 Sachin Khandelwal 2014-Vakrangee-Bharatpur Deeg Road Kumher    9024221353  5993  Active  22-01-2015    .02  726.48 
710 1299 Lokesh Singh 2014-Vakrangee-Bharatpur Village Toda Post Hingota Deeg Bharatpur     8441097557  830  Active  22-01-2015    1707.83  0.26 
711 1300 Nagendra Singh 2014-Vakrangee-Bharatpur Village Jatoli Thoon Deeg Bharatpur    8239320003  1842  Active  22-01-2015    .85  14.35 
712 1301 Akhalesh Kumar 2014-Vakrangee-Bharatpur Near Lal Darbaja Bayana Bharatpur    9672575195  1816  Active  22-01-2015    164.32  254.99 
713 1302 Manoj Kumar 2014-Vakrangee-Bharatpur Ward-08,Vijay Nagar Colony Bharatpur   9785050703  428  Active  22-01-2015    250.14  599.04 
714 1303 Ramendra Singh 2014-Vakrangee-Bharatpur NEAR COLLECTRATE CAMPUS, BHARATPUR    8058468405  3345  Active  22-01-2015    .21  267.07 
715 1304 Ranjeet Singh 2014-Vakrangee-Bharatpur IT KENDRA, HATHAINI  BLOCK- SEWAR, BHARATPUR undefined  9887962044  800  Active  22-01-2015    10164.44  445.95 
716 1305 Rameshwar 2014-Vakrangee-Bharatpur IT KENDRA, GHUSHYARI  BLOCK- SEWAR, BHARATPUR undefined  8290556585  11  Active  22-01-2015    2284.41  22.00 
717 1306 Gaurav Kumar 2014-Vakrangee-Bharatpur Anah Gate Pather Ki Taal Bharatpur    9887126355  1156  Active  23-01-2015    .71  5500.82 
718 1318 Govind 2014-Vakrangee-Bharatpur SHERGADH,BAYANA BHARATPUR   9413312658  348  Active  30-01-2015    53.1  1264.96 
719 1319 Mukesh Kumar Dubey 2014-Vakrangee-Bharatpur WARD-02,BEHIND BUS DEPOT HELAR HOUSE,SUBHASH NAGAR BHARATPUR  9414889065  98  Active  30-01-2015    2219.47  0.00 
720 1326 Niranjan Lal Gauttam 2014-Vakrangee-Bharatpur 31,Kalyan Mauhlla Kaman,Bharatpur undefined  9828025135  376  Active  03-02-2015    120.38  13.69 
721 1327 Ramesh Singh 2014-Vakrangee-Bharatpur VIL-KHANSWARA POST -PAPRERA TEH-KUMHER DIST-BHARATPUR    9636191024  14  Active  03-02-2015    6723.99  33.56 
722 1328 Dinesh Kumar 2014-Vakrangee-Bharatpur Dinesh Emitra,Infront Of MSJ Collage Bharatpur,Bharatpur undefined  9649103299  9384  Active  03-02-2015    115.96  150.59 
723 1330 Prem Singh 2014-Vakrangee-Bharatpur IT KENDRA, JHAROLI  BLOCK - SEWAR, BHARATPUR undefined  8952013367  122  Active  03-02-2015    4172.62  0.00 
724 1336 Mubarik 2014-Vakrangee-Bharatpur VPO Bhonri The. Pahari Bharatpur    9587773344  810  Active  03-02-2015    32787.78  343.24 
725 1337 Rashid 2014-Vakrangee-Bharatpur Village Nandera Teh. Kaman Bharatpur    8094509630  15  Active  03-02-2015    8.86  9.96 
726 1362 Hari Das 2014-Vakrangee-Bharatpur BEHIND PHOOL SINGH TANT HOUSE, HEERADAS  BHARATPUR   9887540721  515  Active  05-02-2015    .61  136.90 
727 1363 Ajay Singh 2014-Vakrangee-Bharatpur IT KENDRA, MOROLI KALAN  TEH. & DISTRICT - BHARATPUR   9694235107  205  Active  05-02-2015    6812.24  1.36 
728 1364 Prashan Kumar 2014-Vakrangee-Bharatpur IT KENDRA, BILOTHI  TEHSIL & DISTRICT - BHARATPUR   8696620636  10  Active  05-02-2015    778.23  4.31 
729 1365 Rohtash Kumar 2014-Vakrangee-Bharatpur KASAI MOHALLA, PAHARI  BHARATPUR   8058273926  175  Active  06-02-2015    463.21  39.19 
730 1366 Neeraj Kumar Sharma 2014-Vakrangee-Bharatpur Kaman Bypass Road Neem Ghata Mohalla Deeg    9414695025  743  Active  06-02-2015    856.7  21.90 
731 1367 Kapil Khandelwal 2014-Vakrangee-Bharatpur SHRI RADHE COMMUNICATION, NEW MANDI  BHARATPUR   8890525962  700  Active  06-02-2015    8.68  95.16 
732 1368 Anand Kumar 2014-Vakrangee-Bharatpur SHASHTRI SHALA ROAD, NAGAR  BHARATPUR   Active  06-02-2015    2210.53  45.63 
733 1369 Rajendra Singh 2014-Vakrangee-Bharatpur AZADPURA, CHAK DHARSONI  WEIR, BHARATPUR undefined  9694508308  3635  Active  06-02-2015    14649.57  547.60 
734 1370 Surjeet Singh 2014-Vakrangee-Bharatpur NEWADA, WEIR  BHARATPUR   9928002775  446  Active  06-02-2015    10469.26  51.11 
735 1371 Braj Gopal 2014-Vakrangee-Bharatpur ALIPUR, BHUSAWAR BHARATPUR   8290853081  9410  Active  06-02-2015    6852.76  374.22 
736 1372 Rakesh Kumar 2014-Vakrangee-Bharatpur RUNDH IKRAN,SEWAR  BHARATPUR   8432670342  135  Active  06-02-2015    73.82  0.00 
737 1373 Harish Kumar 2014-Vakrangee-Bharatpur V & P - JAGHINA, BHARATPUR    9509847007  7625  Active  06-02-2015    62.25  359.21 
738 1374 Vishambhar Singh 2014-Vakrangee-Bharatpur Tyohari,Weir Bharatpur   9414388760  361  Active  06-02-2015    .58  162.82 
739 1375 Govind Sharan 2014-Vakrangee-Bharatpur MAIN BAZAR, OLD SABJI MANDI  DEEG, BHARATPUR undefined  8290540930  21  Active  06-02-2015    20.17  0.00 
740 1380 Ramakant Sharma 2014-Vakrangee-Bharatpur Sirrond,Rupbas Bharatpur   9982679225  90  Active  11-02-2015    9090.57  512.03 
741 1382 Rahul Saini 2014-Vakrangee-Bharatpur VPO-Jhanjhar,Block-Nagar Distt.-Bharatpur   8875023726  Active  12-02-2015    18.53  175.21 
742 1388 Lalit Kumar 2014-Vakrangee-Bharatpur NEAR SARAS CHAURAHA, VIJAY NAGAR  BHARATPUR   8058845059  1880  Active  18-02-2015    27.87  239.94 
743 1400 Dharmendra Kumar 2014-Vakrangee-Bharatpur VPO Pahari Teh. Pahari Bharatpur    9694816516  9404  Active  19-02-2015    8202.71  8.36 
744 1401 Gajendra Singh Chandel 2014-Vakrangee-Bharatpur Rajiv Gandhi Seva Kendra Guhana    9694826177  428  Active  19-02-2015    1689  293.54 
745 1402 Rahul Dev 2014-Vakrangee-Bharatpur WARD NO. 03, PAHARI  BHARATPUR   950953507  309  Active  19-02-2015    11675.36  2285.94 
746 1404 Ram Kishan 2014-Vakrangee-Bharatpur V&P- JATOLI RATHBHAN, BLOCK- SEWAR  BHARATPUR   8432422135  10  Active  19-02-2015    71.89  0.00 
747 1409 Vikas Kumar Khandelwal 2014-Vakrangee-Bharatpur Rajiv Gandhi Seva Kendra Panhori    8058926340  Active  19-02-2015    4511.99  9.13 
748 1410 Umesh Chand 2014-Vakrangee-Bharatpur V&P PAR, BLOCK- SEWAR  BHARATPUR   9887750088  137  Active  19-02-2015    6.16  44.17 
749 1411 Dhanpal Singh 2014-Vakrangee-Bharatpur V&P- KATHAUL, PAHARI  BHARATPUR   9680428449  218  Active  19-02-2015    13758.12  408.10 
750 1417 Pavan Kumar 2014-Vakrangee-Bharatpur RANG REG GALI, RUDAWAL  RUPBAS, BHARATPUR undefined  8505083434  3986  Active  20-02-2015    .17  377.15 
751 1436 Saikool 2014-Vakrangee-Bharatpur Village-Nagla Kulwana Teh.-Kaman Bharatpur    9660560986  120  Active  02-03-2015    2441.41  0.00 
752 1441 Deshraj Saini 2014-Vakrangee-Bharatpur NEAR RAM MANDIR, KHERLI ROAD  NAGAR, BHARATPUR undefined  7891390330  15  Active  02-03-2015    2759.26  0.00 
753 1448 Mahendra Singh 2014-Vakrangee-Bharatpur VPO-HATEEJAR TEH WEIR DIST BHARATPUR    9414654341  2411  Active  11-03-2015    2493.1  5.23 
754 1462 Manoj Kumar 2014-Vakrangee-Bharatpur Pingora, Nadbai  Bharatpur   9166679417  623  Active  17-03-2015    .53  130.63 
755 1517 CSC Sinsini 2014-Vakrangee-Bharatpur Village - Sinsini Block - Deeg,GP -Sinsini Tehsil - Deeg  9024261121  2206  Active  26-03-2015    4628.07  41.73 
756 1518 CSC Bahaj 2014-Vakrangee-Bharatpur Village - Bahaj block - Deeg,GP-Bahaj Tehsil - Deeg  9783105695  730  Active  26-03-2015    .68  1916.60 
757 1519 CSC Hantra 2014-Vakrangee-Bharatpur Village - Hantra Block - Nadbai, GP -Hantra Tehsil - Nadbai  9887241930  1222  Active  26-03-2015    1239.39  269.81 
758 1520 CSC Rudawal 2014-Vakrangee-Bharatpur Village - Rudawal Block - Rupbas,GP -Rudawal Tehsil - Rupbas  05645274384  2397  Active  26-03-2015    .8  996.84 
759 1521 CSC Uchchain 2014-Vakrangee-Bharatpur Village - Uchchain Block - Rupbas,GP -Uchchen Tehsil - Rupbas  8058231977  1635  Active  26-03-2015    1015.6  0.00 
760 1522 CSC Chiksana 2014-Vakrangee-Bharatpur Village - Chiksana Block - Sewar,GP -Chiksana Tehsil -Bharatpur  9828294579  216  Active  26-03-2015    9500.53  1113.45 
761 1523 CSC Nithar 2014-Vakrangee-Bharatpur Village - Nithar Block - Weir,GP -Nithar Tehsil - Weir  9829173114  503  Active  26-03-2015    535.91  102.73 
762 1524 CSC Kamalpura 2014-Vakrangee-Bharatpur Village - Kamalpura Block - Weir,GP -Kamalpura Tehsil - Weir  9785203822  2154  Active  26-03-2015    9622.8  328.56 
763 1525 CSC Moloni 2014-Vakrangee-Bharatpur Village - Moloni Block - Weir,GP -Moloni Tehsil - Weir  7568357181  2028  Active  26-03-2015    2.78  552.11 
764 1526 CSC Bajhera Kalan 2014-Vakrangee-Bharatpur Village - Bajhera Kalan Block - Weir,GP- Bjera Kalan Tehsil - Bharatpur  9460324222  413  Active  26-03-2015    464.2  0.00 
765 1527 CSC Deewali 2014-Vakrangee-Bharatpur Village - Deewali Block -Weir,GP -Divli Tehsil - Weir  7742053693  486  Active  26-03-2015    .76  225.38 
766 1528 CSC Halena 2014-Vakrangee-Bharatpur Village - Halena Block - Weir,GP -Halena Tehsil - Weir  9928134310  255  Active  26-03-2015    4977.91  9.13 
767 1529 CSC Rupbas 2014-Vakrangee-Bharatpur Village - Rupbas Block - Rupbas,GP -Rupbas Tehsil - Rupbas  05645-273027  2412  Active  26-03-2015    .65  946.78 
768 1530 CSC Chhokarwara Kalan 2014-Vakrangee-Bharatpur Village - Chhokarwara Kalan Block - Weir Bharatpur  9785358031  3175  Active  26-03-2015    100.99  1155.88 
769 1531 CSC Mai 2014-Vakrangee-Bharatpur Village - Mai  Block - Nadbai Bharatpur  9783015108  5966  Active  26-03-2015    34.87  487.80 
770 1532 CSC barauli Chhar 2014-Vakrangee-Bharatpur Village-Barauli Chhar Block-Nadbai Bharatpur  9660985921  1049  Active  26-03-2015    1000.72  196.05 
771 1534 CSC pahari 2014-Vakrangee-Bharatpur Village-Pahari Block-Nagar Bharatpur  8890198658  4865  Active  26-03-2015    804.38  32.29 
772 1536 CSC ludhabai 2014-Vakrangee-Bharatpur Village-Ludhabai Block-Sewar Bharatpur  9166767525  263  Active  26-03-2015    2067.06  469.89 
773 1539 CSC Kanawar 2014-Vakrangee-Bharatpur Village - Kanawar Block - Bayana Bharatpur  9828300711  871  Active  26-03-2015    51.9  892.17 
774 1540 CSC Janoothar 2014-Vakrangee-Bharatpur Village-Janoothar Block-Deeg Bharatpur  7597797506  13  Active  26-03-2015    .87  116.07 
775 1542 CSC Bahnera 2014-Vakrangee-Bharatpur Village-Bahnera Block-Sewar Bharatpur  8561985295  1920  Active  26-03-2015    13287.99  0.00 
776 1545 CSC Seedpur 2014-Vakrangee-Bharatpur Village - Seedpur Block - Bayana Bharatpur  9799081802  1314  Active  26-03-2015    4383.41  167.93 
777 1547 CSC Sikrori 2014-Vakrangee-Bharatpur Village - Sikrori Block - Kumher Bharatpur  9414327298  282  Active  26-03-2015    1500.85  310.16 
778 1550 CSC Gulpara 2014-Vakrangee-Bharatpur Village - Gulpara Block - Nagar,GP -Gulpada Tehsil - Nagar  9649498388  116  Active  26-03-2015    53.74  137.04 
779 1551 Csc Khera Thakur 2014-Vakrangee-Bharatpur Village-Khera Thakur Block-Rupbas District-Bharatpur   8824365595  58  Active  26-03-2015    101.58  0.00 
780 1552 Csc Sarsaina 2014-Vakrangee-Bharatpur Village-Sarsaina Block-Weir District-Bharatpur  9636305014  3026  Active  26-03-2015    10000.97  134.39 
781 1553 Csc Bhatpura 2014-Vakrangee-Bharatpur Village-Bhatpura Block-Nagar District-Bharatpur  9672172461  450  Active  26-03-2015    10668.11  529.34 
782 1555 Csc Seekri Chak No 1 2014-Vakrangee-Bharatpur Village-Seekri Chak No.1 Block-Nagar District-Bharatpur  9950750001  1249  Active  26-03-2015    4589.49  314.87 
783 1556 CSC Palka 2014-Vakrangee-Bharatpur Village - Palka Block - Nagar,GP -Palka Tehsil - Nagar  9828229302  209  Active  26-03-2015    124.43  515.83 
784 1557 CSC Shyorawali 2014-Vakrangee-Bharatpur Village - Shyorawali Block - Deeg,GP -Shyorawali Tehsil - Deeg  9887037190  62  Active  26-03-2015    136.58  56.46 
785 1558 CSC Bedham 2014-Vakrangee-Bharatpur Village - Dedham Block - Deeg,GP - Baidam Tehsil - Deeg  9887050988  2229  Active  26-03-2015    8579.63  221.69 
786 1561 CSC Ubar 2014-Vakrangee-Bharatpur Village- Ubar Block- Kumher District- Bharatpur  9782276183   556  Active  26-03-2015    .32  1641.32 
787 1563 CSC Seekri Chak No 2 2014-Vakrangee-Bharatpur Village- Seekri Chak No 2 Block- Nagar District- Bharatpur  9413994113  380  Active  26-03-2015    .47  482.66 
788 1564 CSC Berroo 2014-Vakrangee-Bharatpur Village- Berroo Block- Nagar District- Bharatpur  9983740637  851  Active  26-03-2015    10.54  311.77 
789 1565 CSC Shahna 2014-Vakrangee-Bharatpur Village - Shahna Block - Rupbas,GP -Sahna Tehsil - Rupbas  8058592215  Active  26-03-2015    3890.97  31.94 
790 1571 CSC Dehgawan 2014-Vakrangee-Bharatpur Village- Dehgawan  Block- Bayana  District- Bharatpur  9887919379  2978  Active  26-03-2015    .9  1617.27 
791 1572 CSC Paramdara 2014-Vakrangee-Bharatpur Village- Paramadara Block- Deeg District- Bharatpur  9413227228  248  Active  26-03-2015    103.15  68.65 
792 1575 CSC Baroli Chauth 2014-Vakrangee-Bharatpur Village- Baroli Chauth  Block- Deeg  District- Bharatpur  9950866507  3102  Active  26-03-2015    10.95  287.87 
793 1577 CSC Satwas 2014-Vakrangee-Bharatpur Village- Satwas  Block- Kaman  District- Bharatpur   9982321410  704  Active  26-03-2015    315.46  0.00 
794 1578 CSC Moonsepur 2014-Vakrangee-Bharatpur Village- Moonsepur  Block- Kaman  District- Bharatpur   9001892350  107  Active  26-03-2015    41.73  72.25 
795 1579 CSC Jurhara 2014-Vakrangee-Bharatpur Village- Jurhara  Block- Kaman  District- Bharatpur  9413878652  1084  Active  26-03-2015    887.92  170.59 
796 1580 CSC Sablana 2014-Vakrangee-Bharatpur Village- Sablana  Block- Kaman  District- Bharatpur  9413193034  492  Active  26-03-2015    5.82  11.66 
797 1581 CSC Kathaul 2014-Vakrangee-Bharatpur Village- Kathaul  Block- Kaman  District- Bharatpur   9509535906  92  Active  26-03-2015    637.95  106.07 
798 1582 CSC Birharu 2014-Vakrangee-Bharatpur Village- Birharu  Block- Kumher  District- Bharatpur  9785037811  90  Active  26-03-2015    2352.36  11.84 
799 1583 CSC Belara Kalan 2014-Vakrangee-Bharatpur Village- Belara Kalan  Block- Kumher  District- Bharatpur  8058521191  4955  Active  26-03-2015    3942.25  4.18 
800 1584 CSC Lakhan 2014-Vakrangee-Bharatpur Village- Lakhan  Block- Kumher  District- Bharatpur  9602406517  3761  Active  26-03-2015    430.28  383.32 
801 1585 CSC Borai 2014-Vakrangee-Bharatpur Village- Borai  Block- Kumher  District- Bharatpur   9694199137  15  Active  26-03-2015    1.14  174.10 
802 1586 CSC Kurka 2014-Vakrangee-Bharatpur Village- Kurka  Block- Rupbas  District- Bharatpur  9783284432  Active  26-03-2015    2788.69  0.00 
803 1587 CSC Malah 2014-Vakrangee-Bharatpur Village- Malah  Block- Sewar  District- Bharatpur   9001668134  1546  Active  26-03-2015    8320.3  818.82 
804 1591 CSC KORER 2014-Vakrangee-Bharatpur Village KORER  Block DEEG  District BHARATPUR   9783156574  5292  Active  26-03-2015    91.64  339.01 
805 1593 CSC Ajau 2014-Vakrangee-Bharatpur Village Ajau  Block KUMHER   District BHARATPUR   9286557605  Active  26-03-2015    13.17  0.00 
806 1594 CSC Barauli Ran 2014-Vakrangee-Bharatpur Village Barauli Ran  Block NADBAI  District BHARATPUR   9252730750  Active  26-03-2015    394.07  0.00 
807 1596 CSC Shakkarpur 2014-Vakrangee-Bharatpur Village Shakkarpur  Block RUPBAS  District BHARATPUR   9462355422  400  Active  26-03-2015    271.22  478.28 
808 1600 CSC Siras 2014-Vakrangee-Bharatpur Village Siras   Block WEIR  District BHARATPUR   9460877014  1322  Active  26-03-2015    .09  365.07 
809 1601 CSC Bhaiseena 2014-Vakrangee-Bharatpur Village Bhaiseena  Block WEIR  District BHARATPUR   9214944095  6357  Active  26-03-2015    10000.32  209.91 
810 1602 CSC Samraya 2014-Vakrangee-Bharatpur Village Samraya  Block WEIR  District BHARATPUR   9667808828  250  Active  26-03-2015    2144.01  542.75 
811 1604 CSC HATAURI 2014-Vakrangee-Bharatpur Village HATAURI   Block WEIR   District BHARATPUR   000000000000  538  Active  26-03-2015    2198.93  1032.89 
812 1606 CSC Barah Mafi 2014-Vakrangee-Bharatpur Village - Barah Mafi Block - Rupbas GP - Barah Mafi  9680805312  18  Active  26-03-2015    40.36  28.65 
813 1609 CSC Sahsan 2014-Vakrangee-Bharatpur Village Sahsan  Block KAMAN  District BHARATPUR   96101000045  4740  Active  26-03-2015    3.5  97.88 
814 1610 CSC Pichoomar 2014-Vakrangee-Bharatpur Village Pichoomar  Block KUMHER  District BHARATPUR   7737100184  104  Active  26-03-2015    302.87  63.89 
815 1611 CSC Peepal Khera 2014-Vakrangee-Bharatpur Village Peepal Khera  Block NAGAR  District BHARATPUR   9772404014  10  Active  26-03-2015    214.83  37.61 
816 1614 CSC Aghapur 2014-Vakrangee-Bharatpur Village Aghapur  Block SEWAR  District BHARATPUR   9549249946  1450  Active  26-03-2015    11630.68  516.25 
817 1615 CSC Moondota 2014-Vakrangee-Bharatpur Village MOONDOTA   Block SEWAR   District BHARATPUR   9887482598  714  Active  26-03-2015    3085.63  623.66 
818 1616 CSC Jahanpur 2014-Vakrangee-Bharatpur Village- Jahanpur Block- Weir  District- Bharatpur   9694265999  100  Active  26-03-2015    5004.39  209.91 
819 1618 CSC Samai 2014-Vakrangee-Bharatpur Village Samai  Block DEEG  District BHARATPUR   9509535226  1043  Active  26-03-2015    11771.14  173.41 
820 1620 CSC Pai 2014-Vakrangee-Bharatpur Village Pai  Block KAMAN  District BHARATPUR   9413309008  203  Active  26-03-2015    2554.56  0.00 
821 1622 CSC Gopalgarh 2014-Vakrangee-Bharatpur Village Gopalgarh  Block NAGAR  District BHARATPUR   9983757532  509  Active  26-03-2015    35.3  52.76 
822 1624 CSC Dahina Gaon 2014-Vakrangee-Bharatpur Village Dahina Gaon  Block RUPBAS  District BHARATPUR   9983650149  1673  Active  26-03-2015    4505.29  687.24 
823 1626 CSC Sanwler 2014-Vakrangee-Bharatpur Village- Sanwler Block- Kaman  District- Bharatpur  9982052204  273  Active  26-03-2015    .29  20.90 
824 1627 CSC Bilang 2014-Vakrangee-Bharatpur Village- Bilang Block- Kaman  District- Bharatpur  8504075123  Active  26-03-2015    13.63  45.63 
825 1628 CSC Koomha (Khumer) 2014-Vakrangee-Bharatpur Village- Koomha  Block- Kumher  District- Bharatpur  9887438336  4570  Active  26-03-2015    100.44  693.62 
826 1629 CSC Bachhamadi 2014-Vakrangee-Bharatpur Village- Bachhamadi Block- Nadbai District- Bharatpur  9680669629  41  Active  26-03-2015    .32  15.68 
827 1631 CSC Taraudar 2014-Vakrangee-Bharatpur Village- Taraudar  Block- Nagar District- Bharatpur  9783527827  13907  Active  26-03-2015    3113.44  291.73 
828 1632 CSC Tuhiya 2014-Vakrangee-Bharatpur Village- Tuhiya  Block- Sewar  District- Bharatpur  9887934359  4189  Active  26-03-2015    408.14  1259.38 
829 1633 CSC Naroli 2014-Vakrangee-Bharatpur Village- Naroli Block- Bayana  District- Bharatpur  9799726525  421  Active  26-03-2015    5704.27  2.83 
830 1636 CSC Atari 2014-Vakrangee-Bharatpur Village- Atari Block- Nadbai District- Bharatpur  9414377002  2074  Active  26-03-2015    47.77  301.58 
831 1638 CSC Karhi 2014-Vakrangee-Bharatpur Village- Karhi Block- Nadbai District- Bharatpur  9950324526  Active  26-03-2015    .25  101.13 
832 1644 CSC Chhichharwari 2014-Vakrangee-Bharatpur Village- Chhichharwari Block- Kaman  District- Bharatpur  9828523499  65  Active  26-03-2015    .96  48.28 
833 1647 CSC Nyotha 2014-Vakrangee-Bharatpur Village- Nyotha  Block- Nadbai District- Bharatpur  05643275505  224  Active  26-03-2015    44.12  305.74 
834 1649 CSC Kheri Devisingh 2014-Vakrangee-Bharatpur Village- Kheri Devisingh  Block- Nadbai  District- Bharatpur  9887395295  139  Active  26-03-2015    2815.87  296.49 
835 1650 CSC Piprau 2014-Vakrangee-Bharatpur Village- Piprau Block- Nadbai District- Bharatpur  8442076861  12  Active  26-03-2015    563.43  0.00 
836 1654 CSC Undra 2014-Vakrangee-Bharatpur Village- Undra  Block- Sewar  District- Bharatpur  7742257001  14  Active  26-03-2015    1282.8  0.00 
837 1656 CSC Lakhanpur (Weir) 2014-Vakrangee-Bharatpur Village- Lakhanpur Block- Weir  District- Bharatpur  9782635066  4112  Active  26-03-2015    .52  8.36 
838 1657 CSC Moodiya Laleeta 2014-Vakrangee-Bharatpur Village- Moodiya Laleeta Block- Weir  District- Bharatpur  9414758409  1859  Active  26-03-2015    .67  31.18 
839 1660 CSC Jatmasi 2014-Vakrangee-Bharatpur Village JATMASI  Block RUPBAS  District BHARATPUR   8058932026  774  Active  26-03-2015    453.66  620.54 
840 1661 CSC Ajan 2014-Vakrangee-Bharatpur Village Ajan  Block KUMHER  District BHARATPUR   9887687712  5607  Active  26-03-2015    .95  611.48 
841 1663 CSC Bhatawali 2014-Vakrangee-Bharatpur Village BHATAWALI  Block KUMHER  District BHARATPUR   9530446606  188  Active  26-03-2015    181.37  32.97 
842 1666 CSC Barauli Dhau 2014-Vakrangee-Bharatpur Village- Barauli Dhau Block- Kaman District- Bharatpur  9636033448  605  Active  26-03-2015    1980.48  101.54 
843 1668 CSC Jagarka 2014-Vakrangee-Bharatpur Village- Jagarka Block- Nagar  District- Bharatpur    Active  26-03-2015    126.75  0.00 
844 1670 CSC Badri 2014-Vakrangee-Bharatpur Village BADRI  Block DEEG  District BHARATPUR   9875298827  48  Active  26-03-2015    68.05  497.40 
845 1672 CSC Bilond 2014-Vakrangee-Bharatpur Village BILOND  Block KAMAN  District BHARATPUR   9875114960  19  Active  26-03-2015    .9  45.63 
846 1676 CSC Noharda 2014-Vakrangee-Bharatpur Village NOHARDA  Block RUPBAS  District BHARATPUR   9413510642  70  Active  26-03-2015    292.88  9.13 
847 1677 CSC PHULWARA 2014-Vakrangee-Bharatpur Village PHULWARA  Block SEWAR  District BHARATPUR   05644220663  199  Active  26-03-2015    216.26  61.69 
848 1679 CSC BRAHMAWAD 2014-Vakrangee-Bharatpur Village BRAHMAWAD  Block BAYANA  District BHARATPUR   05648232035  1581  Active  26-03-2015    .87  654.82 
849 1681 CSC Sooti 2014-Vakrangee-Bharatpur Village SOOTI  Block SEWAR  District BHARATPUR   8094749430  37  Active  26-03-2015    24.66  3.02 
850 1682 CSC Jagheena (Rural) 2014-Vakrangee-Bharatpur Village- Jagheena (Rural) Block- Sewar  District- Bharatpur  9782633090  882  Active  26-03-2015    .26  1045.71 
851 1683 CSC Naunera 2014-Vakrangee-Bharatpur Village Naunera  Block KAMAN  District BHARATPUR   9782528569  88  Active  26-03-2015    2234.48  0.00 
852 1684 CSC Udaka 2014-Vakrangee-Bharatpur Village Udaka  Block KAMAN  District BHARATPUR   9887770292  264  Active  26-03-2015    8.96  18.98 
853 1685 CSC Helak 2014-Vakrangee-Bharatpur Village Helak  Block KUMHER  District BHARATPUR   9414889065  525  Active  26-03-2015    .86  12.92 
854 1686 CSC RANDHEERGARH 2014-Vakrangee-Bharatpur Village RANDHEERGARH  Block WEIR  District BHARATPUR   9828356625  12  Active  26-03-2015    14905.1  67.66 
855 1688 CSC Khan Surjapura 2014-Vakrangee-Bharatpur village khan surjapura block rupbas District bharatpur  9929935890  2722  Active  26-03-2015    5128.68  416.59 
856 1689 CSC Ghatri 2014-Vakrangee-Bharatpur Village Ghatri Block Weir District Bharatpur  000000000000  332  Active  26-03-2015    2200.04  1117.27 
857 1690 CSC Vaulkhera 2014-Vakrangee-Bharatpur Village Vaulkhera  Block KAMAN  District BHARATPUR   9928280228  13  Active  26-03-2015    1059.02  216.84 
858 1693 CSC Sundrawali 2014-Vakrangee-Bharatpur Village- Sundrawali Block- Nagar  District- Bharatpur  9261767670  1003  Active  26-03-2015    527.63  41.80 
859 1696 CSC Pahua 2014-Vakrangee-Bharatpur Village- Pahua  Block- Kumher  District- Bharatpur  9784058944  642  Active  26-03-2015    106.02  934.11 
860 1697 CSC Kakrala 2014-Vakrangee-Bharatpur Village- Kakrala Block- Nagar District- Bharatpur  9828672146  61  Active  26-03-2015    408.26  468.35 
861 1698 CSC Dawak 2014-Vakrangee-Bharatpur Village- Dawak Block- Nagar District- Bharatpur  9610562668  1729  Active  26-03-2015    8711.02  300.62 
862 1700 CSC Andhiyari 2014-Vakrangee-Bharatpur Village- Andhiyari Block- Rupbas District- Bharatpur  9950324410  493  Active  26-03-2015    88.38  1224.34 
863 1701 CSC Bhawanpura 2014-Vakrangee-Bharatpur Village- Bhawanpura Block- Rupbas District- Bharatpur  9828223330  Active  26-03-2015    418.14  0.00 
864 1703 CSC Madhoni 2014-Vakrangee-Bharatpur Village- Madhoni Block- Sewar District- Bharatpur  9414895963  10  Active  26-03-2015    78.94  0.00 
865 1705 CSC Santrook 2014-Vakrangee-Bharatpur Village- Santrook Block- Kumher District- Bharatpur  9982774208  861  Active  26-03-2015    1819.11  14.89 
866 1706 CSC Therawar 2014-Vakrangee-Bharatpur Village- Therawar Block- Kumher District- Bharatpur  9772922025  1482  Active  26-03-2015    .65  289.54 
867 1707 CSC Ranph 2014-Vakrangee-Bharatpur Village- Ranph Block- Nagar District- Bharatpur  7891634369  245  Active  26-03-2015    1229.2  947.96 
868 1709 CSC Matooki 2014-Vakrangee-Bharatpur Village- Matooki Block- Nagar District- Bharatpur  8058603373  1947  Active  26-03-2015    2330.7  0.00 
869 1710 CSC Nabhera 2014-Vakrangee-Bharatpur Village- Nabhera Block- Rupbas District- Bharatpur  9694147825  63  Active  26-03-2015    632.47  1042.64 
870 1711 CSC Padalwas 2014-Vakrangee-Bharatpur Village- Padalwas Block- Nagar District- Bharatpur  9982320886  1000  Active  26-03-2015    7.5  114.46 
871 1721 CSC Bodoli 2014-Vakrangee-Bharatpur Village- Bodoli Block- Nagar  District- Bharatpur  9587774983  112  Active  26-03-2015    6.22  204.58 
872 1723 CSC Kasot_WRS 2014-Vakrangee-Bharatpur Village- Kasot Block- Deeg District- Bharatpur  9950306770  2612  Active  26-03-2015    64.1  811.33 
873 1726 CSC Khangri_WRS 2014-Vakrangee-Bharatpur Village- Khangri Block- Nadbai District- Bharatpur  9784436739  126  Active  26-03-2015    313.49  25.08 
874 1729 CSC Daulatgarh 2014-Vakrangee-Bharatpur Village- Daulatgarh Block- Rupbas District- Bharatpur  8058253021  77  Active  26-03-2015    1001.81  942.72 
875 1731 CSC Uchchain 2014-Vakrangee-Bharatpur Village - Uchchain Block - Rupbas Dist. - Bharatpur  9928892871  4847  Active  26-03-2015    .32  437.40 
876 1732 CSC Paharpur 2014-Vakrangee-Bharatpur Village - Paharpur Block - Rupbas Dist. - Bharatpur  9610374499  618  Active  26-03-2015    3583.23  307.32 
877 1733 CSC Rundh Rupbas 2014-Vakrangee-Bharatpur Village - Rundh Rupbas Block - Rupbas Dist. - Bharatpur  0000000  243  Active  26-03-2015    .9  470.58 
878 1734 CSC Rupbas_WRS 2014-Vakrangee-Bharatpur Village - Rupbas Block - Rupbas Dist. - Bharatpur  9828863302  705  Active  26-03-2015    2117.88  132.34 
879 1735 CSC Rudawal 2014-Vakrangee-Bharatpur Vilage - Rudawal Block - Rupbas Dist. - Bharatpur  9610023242  85  Active  26-03-2015    4795.67  130.05 
880 1737 CSC NAWLI 2014-Vakrangee-Bharatpur Village-NAWLI BLOCK -BAYANA DIS- BHARATPUR  9001558722  369  Active  26-03-2015    878.43  119.89 
881 1738 CSC KUCHAWATI 2014-Vakrangee-Bharatpur Village-KUCHAWATI BLOCK -DEEG DIS- BHARATPUR  9875144247  2834  Active  26-03-2015    23.41  0.00 
882 1740 CSC BAMANWARI 2014-Vakrangee-Bharatpur Village-BAMANWARI BLOCK -KAMAN DIS- BHARATPUR  9785707577  2892  Active  26-03-2015    463.03  549.89 
883 1741 CSC GHATMEEKA 2014-Vakrangee-Bharatpur Village-GHATMEEKA BLOCK -KAMAN DIS- BHARATPUR  8094797171  15709  Active  26-03-2015    .92  1031.45 
884 1742 CSC PIPRAU 2014-Vakrangee-Bharatpur Village-PIPRAU BLOCK -NADBAI DIS- BHARATPUR  9166662311  3933  Active  26-03-2015    26.62  39.71 
885 1743 CSC LAKHANPUR 2014-Vakrangee-Bharatpur Village-LAKHANPUR BLOCK -NADBAI DIS- BHARATPUR  9414214046  55  Active  26-03-2015    7434  603.75 
886 1745 CSC IBRAHIMPUR 2014-Vakrangee-Bharatpur Village-IBRAHIMPUR BLOCK -RUPBAS DIS- BHARATPUR  9772543150  25  Active  26-03-2015    21.29  15.79 
887 1746 CSC BANSI KUURD 2014-Vakrangee-Bharatpur Village-BANSI KUURD BLOCK -SEWAR DIS- BHARATPUR  9875008565  1009  Active  26-03-2015    280.01  92.18 
888 1747 CSC PATHENA 2014-Vakrangee-Bharatpur Village-PATHENA BLOCK -WEIR DIS- BHARATPUR  9461247513  1653  Active  26-03-2015    .62  0.00 
889 1749 JSS Infotech emitra center 2014-Vakrangee-Bharatpur Near SRS College  Block Kumher  Bharatpur  9950192400  Active  26-03-2015    1158.6  28.70 
890 1750 Kuldeep Emitra Center 2014-Vakrangee-Bharatpur Infront of Zila Parishad Shop No. 1 Krishana Nagar Bharatpur  9887149141  23131  Active  26-03-2015    27.38  1264.04 
891 1751 Tamanna Emitra Center 2014-Vakrangee-Bharatpur Shop No. 15 Collectrate Campus Near S.B.B.J Collectrate Branch Bharatpur  000000000  12436  Active  26-03-2015    858.28  6454.35 
892 1752 Anuj eMitra 2014-Vakrangee-Bharatpur 82, Ekta Vihar Colony Sunkh Road Bharatpur  000000000  3606  Active  26-03-2015    .11  82.03 
893 1754 City eMitra Center 2014-Vakrangee-Bharatpur Near Siki Wale Hanuman Mandir Mandi Alal Bandh  Bharatpur  05644220341  1650  Active  26-03-2015    46.69  2117.44 
894 1755 Rakesh eMitra Center 2014-Vakrangee-Bharatpur Shop No-1 Near Panchayat Samiti Blcok-Nadbai Bharatpur  05643275050  13223  Active  26-03-2015    .66  12642.61 
895 1756 Anil Emitra 2014-Vakrangee-Bharatpur Jain Book Depot Block Bayana District- Bharatpur   05648225200  971  Active  26-03-2015    8.2  830.52 
896 1757 Gaurav eMitra 2014-Vakrangee-Bharatpur Koli Pada Caabkari Mohalla NAi Sadak Deeg Bharatpur  9414715893  683  Active  26-03-2015    .89  324.66 
897 1758 Sony eMitra Center 2014-Vakrangee-Bharatpur Near Jageshwar Mandir Kumher Bharatpur   9024728351  306  Active  26-03-2015    .56  831.63 
898 1759 Balaji emitra Center Nadbai 2014-Vakrangee-Bharatpur Balaji Printing Press  Nagar Road Nadbai  9785578785  1067  Active  26-03-2015    .11  1301.97 
899 1760 Shri Radhey Mohan eMitra Center 2014-Vakrangee-Bharatpur Natani Mohalla Deeg Bharatpur  9887905192  380  Active  26-03-2015    1677.09  631.94 
900 1761 Dakshita eMitra Center 2014-Vakrangee-Bharatpur Infront of Mohanji Mandir Budh ki Haat Bharatpur  9413916336  813  Active  26-03-2015    .72  225.59 
901 1838 Mevaram 2014-Vakrangee-Bharatpur atal Seva kendra kapura, malooka    8290695834  20  Active  13-04-2015    343.23  0.00 
902 1842 Laxmi Narayan Gaur 2014-Vakrangee-Bharatpur Atal Seva Kendra Ghosinga Kaman Bharatpur    9982906461  253  Active  13-04-2015    5153.54  0.00 
903 1843 Narendra Kumar 2014-Vakrangee-Bharatpur Atal Seva Kendra Vpo Uadki Dalla Nagar Bharatpur    8502921843  6143  Active  13-04-2015    6.04  368.25 
904 1844 Sanjay Kumar 2014-Vakrangee-Bharatpur Atal Seva Kendra Dayana Ka Bass Khohri Nagar Bharatpur     9772925002  Active  13-04-2015    20086.32  0.00 
905 1880 Chandra Shekhar 2014-Vakrangee-Bharatpur Vill- madapura,rupbas bharatpur   9694325981  Active  16-04-2015    7970.48  109.52 
906 1881 Anil Kumar 2014-Vakrangee-Bharatpur Vill- Fatehpur,Rupbas bharatpur   9460291176  262  Active  16-04-2015    2904.52  4.26 
907 1882 Ravindra Singh 2014-Vakrangee-Bharatpur Vill- Vinaua,Rupbas Bharatpur   9602931193  Active  16-04-2015    21.27  0.00 
908 1884 Santosh Kumar 2014-Vakrangee-Bharatpur VPO-Akhaigarh the-nadbai dist-bharatpur    9887472471  Active  16-04-2015    11254.3  55.49 
909 1885 Ram Sahay 2014-Vakrangee-Bharatpur VPO-Nayabas the-nadbai dist-bharatpur    9785190846  128  Active  16-04-2015    3047.53  0.52 
910 1890 Rajneesh 2014-Vakrangee-Bharatpur Vill-Ajit nagar post-Dharsoni the-weir dist-bharatpur    9828571484  9362  Active  16-04-2015    .64  72.89 
911 1892 Vishnu Kumar 2014-Vakrangee-Bharatpur Vill- chulera, Tehsil - Deeg    9887691796  Active  16-04-2015    .5  5.28 
912 1896 Ghanshyam Singh 2014-Vakrangee-Bharatpur Near Petrol Pump    9982183871  536  Active  16-04-2015    2122.78  314.87 
913 1897 Jitendra Kumar 2014-Vakrangee-Bharatpur Dumriya,Roopbas Bharatpur   9928208514  Active  16-04-2015    158.3  78.95 
914 1898 Khajan Singh 2014-Vakrangee-Bharatpur Ghata,Aodal Gaddi Rupbas,Bharatpur undefined  8432303126  241  Active  16-04-2015    169.74  366.25 
915 1900 Suresh Chand 2014-Vakrangee-Bharatpur VPO Malah Sawer Bharatpur    1826  Active  16-04-2015    200.5  579.08 
916 1901 Devendra Singh 2014-Vakrangee-Bharatpur VPO-KHATAUTI TEH-NADBAI DIST-BHARATPUR    9785156162  10  Active  16-04-2015    2188.44  121.82 
917 1902 Vishnu Kumar 2014-Vakrangee-Bharatpur VPO Chulera Deeg Bharatpur    9549869225  4147  Active  16-04-2015    3932.07  93.41 
918 1903 Devendra Singh 2014-Vakrangee-Bharatpur VPO Pasta Deeg Bharatpur    8058521363  486  Active  16-04-2015    8.47  243.21 
919 1904 Kumar Singh 2014-Vakrangee-Bharatpur VPO Khohri Deeg Bharatpur    9587994507  207  Active  16-04-2015    3529.92  38.92 
920 1905 Virendra Pal Singh 2014-Vakrangee-Bharatpur VPO Khohri Deeg Bharatpur    7597756933  Active  16-04-2015    325.1  0.00 
921 1906 Pradeep Kumar 2014-Vakrangee-Bharatpur Dhaulet Kaman Bharatpur    9610020647  34718  Active  16-04-2015    .08  54.83 
922 1907 Rameej Khan 2014-Vakrangee-Bharatpur Kherli Manna Pahari Nagar    9610020647  769  Active  16-04-2015    8940.63  0.00 
923 1910 Sunil Kumar 2014-Vakrangee-Bharatpur G.P. KHANUA, ROOPBAS BHARATPUR   8441083556  370  Active  16-04-2015    3.7  79.76 
924 1911 Jandail Singh 2014-Vakrangee-Bharatpur G.P. DHANA KHERLI, ROOPBAS  BHARATPUR   9784489724  9517  Active  16-04-2015    453.49  99.71 
925 1912 Gopal Singh 2014-Vakrangee-Bharatpur VILL-JAHANPUR POST-MOLONI TEH-WEIR DIST-BHARATPUR    9667902928  442  Active  16-04-2015    3183.08  151.94 
926 1913 Harish Chand 2014-Vakrangee-Bharatpur VPO-KARILI TEH-NADBAI DIST-BHARATPUR RAJ    9828354550  1273  Active  16-04-2015    16632.43  1161.07 
927 1914 Sonu Singh 2014-Vakrangee-Bharatpur VPO-RAYSIS TEH-NADBAI DIST-BHARATPUR RAJ     7891285253  Active  16-04-2015    2015.49  123.87 
928 1915 Sunil Kumar 2014-Vakrangee-Bharatpur VPO-GANGAROLI TEH-NADBAI DIST-BHARATPUR     9929273597  293  Active  16-04-2015    3249.36  20.86 
929 1916 Jeetendra Singh 2014-Vakrangee-Bharatpur VPO-ENCHERA TEH-NADBAI DIST-BHARATPUR RAJ.    9636948833  935  Active  16-04-2015    4862.69  2.00 
930 1917 Lalaram Saini 2014-Vakrangee-Bharatpur VPO-AKHAIGARH TEH-NADBAI DIST-BHARATPUR RAJ.321614    8107612481  994  Active  16-04-2015    3019.18  104.39 
931 1918 Rambabu 2014-Vakrangee-Bharatpur G.P. SENDHLI, BHUSAWAR  BHARATPUR   9782635464  301  Active  16-04-2015    2.18  237.29 
932 1919 Ajaharuddeen 2014-Vakrangee-Bharatpur Atal Seva Kendra Teski Nagar Bharatpur    9587911862  2212  Active  16-04-2015    2203.4  286.13 
933 1941 Mahipal Singh 2014-Vakrangee-Bharatpur VPO Shyourawali Deeg Bharatpur    9828659838  432  Active  17-04-2015    820.27  389.03 
934 1943 Saleem 2014-Vakrangee-Bharatpur Village- Ghari Jhil Patti , Kaman    9783322056  241  Active  17-04-2015    1040.94  6.00 
935 1960 Kuldeep Singh 2014-Vakrangee-Bharatpur VPO-ALIPUR TEH-WEIR DIST-BHARATPUR RAJ.    9252535610  100  Active  20-04-2015    3801.59  0.76 
936 1961 Subhash Chand 2014-Vakrangee-Bharatpur VPO-NAROLI TEH-WEIR DIST-BHARATPUR RAJ    7891273172  Active  20-04-2015    4932.75  0.00 
937 1970 Sahil 2014-Vakrangee-Bharatpur VILL.-LEVDATEH.-KAMANDIST.-BHARATPUR    8302391952  660  Active  24-04-2015    10052.57  246.82 
938 1971 Manuj 2014-Vakrangee-Bharatpur Atal Sewa Kendra Sahsan,Kaman Bharatpur   9982484243  2750  Active  24-04-2015    209.91 
939 1974 Sukhveer Singh 2014-Vakrangee-Bharatpur BHANDRA, KAMAN  BHARATPUR   9680687275  60  Active  24-04-2015    221.67  21.50 
940 1982 Rajeev 2014-Vakrangee-Bharatpur Bodoli Dahar Nagar Bharatpur    9772131500  2210  Active  27-04-2015    21841.07  121.71 
941 1985 Amajad Khan 2014-Vakrangee-Bharatpur Udki Dalla Nagar Bharatpur    9783421642  1087  Active  27-04-2015    53.17  339.82 
942 1987 Preeti Rani 2014-Vakrangee-Bharatpur G.P. SATWAS, KAMAN  BHARATPUR   9571941818  80  Active  27-04-2015    .77  163.32 
943 1988 Jeetendra Singh 2014-Vakrangee-Bharatpur Atal Sewa Kendra, Kharera, GP- Kharera, Roopwas     9667424562  751  Active  27-04-2015    923.05  113.61 
944 1989 Satyendra Kumar 2014-Vakrangee-Bharatpur G.P. KHAKHAWALI, NAGAR  BHARATPUR   9785549716  Active  27-04-2015    277.53  55.49 
945 1991 Jagveer Singh 2014-Vakrangee-Bharatpur Palka,Nagar  Bharatpur   9610077616  2908  Active  27-04-2015    1.01  439.19 
946 1992 Robin 2014-Vakrangee-Bharatpur Vill-Ladamka,Pahari Nagar,Bharatpur undefined  8769665665  10  Active  27-04-2015    12.85  88.10 
947 1993 Gopi Kamwar 2014-Vakrangee-Bharatpur Vill. DHANWADA GP.-DHANWADATEH. KUMHERDIST. BHARATPUR    7665903596  286  Active  27-04-2015    5677.42  321.11 
948 1994 Tirthendra Kumar 2014-Vakrangee-Bharatpur NEAR OF BIHARI JI TEMPLE, MAHAL KHAS ROAD  KILA, BHARATPUR undefined  9414208420  28  Active  27-04-2015    412.89  413.26 
949 1995 Ravi Kant 2014-Vakrangee-Bharatpur Vill Jhitaredi Nagar Bharatpur    8239735599  1043  Active  27-04-2015    17895.24  36.04 
950 1996 Shailendra Kumar 2014-Vakrangee-Bharatpur Near Panchayat Samati Rupbas    05645273071  633  Active  27-04-2015    3191.58  2350.70 
951 1997 Jiwaram 2014-Vakrangee-Bharatpur Near Peer Mohalla Kaman    7568394564  414  Active  27-04-2015    .58  530.74 
952 2000 Farram Khan 2014-Vakrangee-Bharatpur OLANDA, KAMAN  BHARATPUR   9929170950  18  Active  27-04-2015    298.34  18.55 
953 2001 Ansar Ahmad 2014-Vakrangee-Bharatpur UDAKA, KAMAN  BHARATPUR   9667924143  40  Active  27-04-2015    17.69  0.00 
954 2002 Ajam Ali 2014-Vakrangee-Bharatpur MOONSEPUR,KAMAN Bharatpur   9887355386  128  Active  27-04-2015    91.88  44.87 
955 2004 Govind Singh 2014-Vakrangee-Bharatpur KANWARA, KAMAN  BHARATPUR   9875177264  31  Active  27-04-2015    3.22  43.72 
956 2005 Aneesh 2014-Vakrangee-Bharatpur BHORI, PAHARI  BHARATPUR   9887936012  Active  27-04-2015    3179.29  0.00 
957 2006 Janish Khan 2014-Vakrangee-Bharatpur GARHAJAN, KAMAN  BHARATPUR   9413157862  75  Active  27-04-2015    221.07  0.00 
958 2009 Ramavatar Gurjar 2014-Vakrangee-Bharatpur PALLA, KAMAN  BHARATPUR   9875161441  569  Active  27-04-2015    5983.13  13.52 
959 2010 Tarif Mohhamad 2014-Vakrangee-Bharatpur Ladlaka,Pahari Bharatpur   8875058404  120  Active  27-04-2015    82.18 
960 2011 Anuj Kumar 2014-Vakrangee-Bharatpur ग्राम पंचायत अऊ तहसील डीग  जिला भरतपुर राजस्थान  9828638957  2016  Active  27-04-2015    1906.18  264.67 
961 2012 Sukhwant Singh 2014-Vakrangee-Bharatpur MURWARA ROAD, SUNDER VATIKA  ANAND NAGAR, BHARATPUR undefined  8058769755  Active  27-04-2015    0.00 
962 2060 Ashok Kumar 2014-Vakrangee-Bharatpur Dayana Ka Bass Khohri Nagar Bharatpur    9783351699  2604  Active  04-05-2015    10305.73  703.47 
963 2062 Gopal Ram Koli 2014-Vakrangee-Bharatpur Near Bus Stand Bhusaware    9887091922  Active  04-05-2015    40.36  0.00 
964 2063 Asu Khan 2014-Vakrangee-Bharatpur Atal Sewa Kendra,Jurhera Kaman,Bharatpur undefined  9828287548  1913  Active  05-05-2015    1203.97  354.47 
965 2064 Pradeep Kumar 2014-Vakrangee-Bharatpur Near Bus Stand,Heera Das Bharatpur   9782824899  725  Active  05-05-2015    45.97  109.52 
966 2065 Jeetendra Kumar 2014-Vakrangee-Bharatpur Alamshah,Nagar Bharatpur   8824310939  940  Active  05-05-2015    7469.6  1.66 
967 2066 Ghanshyam Sharma 2014-Vakrangee-Bharatpur Jurhera,Kaman Bharatpur   9887458200  1966  Active  05-05-2015    10686.7  1666.27 
968 2067 Jeetendra Singh 2014-Vakrangee-Bharatpur Shahna,Roopwas Bharatpur   7891440920  75  Active  05-05-2015    .76  1674.08 
969 2069 Dharmendra Singh 2014-Vakrangee-Bharatpur Bachhrain,Weir Bharatpur   9636979736  1592  Active  05-05-2015    3933.73  0.00 
970 2074 Suresh Chand 2014-Vakrangee-Bharatpur Near PNB Bank Deeg Bharatpur    9414695077  480  Active  05-05-2015    .66  1487.64 
971 2076 Deepak Kumar 2014-Vakrangee-Bharatpur INFRONT BIJALI GHAR OFFICE, MAAN SINGH CIRCLE  BHARATPUR   9610085507  26  Active  05-05-2015    .87  472.25 
972 2080 Sakir Hussain 2014-Vakrangee-Bharatpur VILL.-MOONGASKATEH/BLOCK .-KAMANDIST.-BHARATPUR    9610030300  2544  Active  05-05-2015    1132.89  42.47 
973 2085 Satish Chand 2014-Vakrangee-Bharatpur NAGAR PALIKA BAYANA,BAYANA BHARATPUR   9460456748  1168  Active  05-05-2015    34.15  41.80 
974 2107 Chandra Prakash 2014-Vakrangee-Bharatpur Near Vatnary Hospital Infront Of Collectrate Bharatpur    9875008565  3098  Active  13-05-2015    9.66  2752.11 
975 2108 Virendra 2014-Vakrangee-Bharatpur Sirthala,Nagar Bharatpur   8003120878  130  Active  13-05-2015    2080.79  18.97 
976 2109 Shakrulla Khan 2014-Vakrangee-Bharatpur Jalalpur,Nagar Bharatpur   8890841456  12016  Active  13-05-2015    .8  300.69 
977 2110 Abhishek Jain 2014-Vakrangee-Bharatpur Ward No 10,Weir Bharatpur   05643272027  319  Active  13-05-2015    1029.58  5.97 
978 2112 Dilip Kumar Mathur 2014-Vakrangee-Bharatpur EXCELL INFOTECH, ATAL BANDH  BHARATPUR   9024636465  635  Active  14-05-2015    78.66